<?xml version="1.0" encoding="UTF-8" standalone="no" ?>
<gpx xmlns="http://www.topografix.com/GPX/1/1" xmlns:xsi="http://www.w3.org/2001/XMLSchema-instance" xsi:schemaLocation="http://www.topografix.com/GPX/1/1 http://www.topografix.com/GPX/1/1/gpx.xsd" version="1.1" creator="VisuGPX - https://www.visugpx.com">
  <metadata>
    <name>CO_ESN_Complète Noire</name>
    <desc><![CDATA[CO de niveau Noire au départ de l\'ESN : 
Balises : 38-37-35-36-17-29]]></desc>
  </metadata>
  <trk>
    <name><![CDATA[CO_ESN_Complète Noire_1]]></name>
    <trkseg>
      <trkpt lat="44.36547" lon="2.85085">
        <ele>645</ele>
        <time>2013-03-07T12:27:01Z</time>
      </trkpt>
      <trkpt lat="44.36545" lon="2.85078">
        <ele>644</ele>
        <time>2013-03-07T12:27:05Z</time>
      </trkpt>
      <trkpt lat="44.36538" lon="2.85075">
        <ele>644</ele>
        <time>2013-03-07T12:27:08Z</time>
      </trkpt>
      <trkpt lat="44.36533" lon="2.85075">
        <ele>644</ele>
        <time>2013-03-07T12:27:09Z</time>
      </trkpt>
      <trkpt lat="44.36527" lon="2.85074">
        <ele>644</ele>
        <time>2013-03-07T12:27:12Z</time>
      </trkpt>
      <trkpt lat="44.36522" lon="2.85074">
        <ele>645</ele>
        <time>2013-03-07T12:27:13Z</time>
      </trkpt>
      <trkpt lat="44.36514" lon="2.85074">
        <ele>645</ele>
        <time>2013-03-07T12:27:17Z</time>
      </trkpt>
      <trkpt lat="44.36508" lon="2.85074">
        <ele>645</ele>
        <time>2013-03-07T12:27:18Z</time>
      </trkpt>
      <trkpt lat="44.36502" lon="2.85073">
        <ele>645</ele>
        <time>2013-03-07T12:27:21Z</time>
      </trkpt>
      <trkpt lat="44.36497" lon="2.85073">
        <ele>646</ele>
        <time>2013-03-07T12:27:22Z</time>
      </trkpt>
      <trkpt lat="44.36492" lon="2.85071">
        <ele>646</ele>
        <time>2013-03-07T12:27:25Z</time>
      </trkpt>
      <trkpt lat="44.36486" lon="2.85071">
        <ele>646</ele>
        <time>2013-03-07T12:27:27Z</time>
      </trkpt>
      <trkpt lat="44.36481" lon="2.8507">
        <ele>646</ele>
        <time>2013-03-07T12:27:28Z</time>
      </trkpt>
      <trkpt lat="44.36475" lon="2.85069">
        <ele>646</ele>
        <time>2013-03-07T12:27:31Z</time>
      </trkpt>
      <trkpt lat="44.36468" lon="2.85071">
        <ele>646</ele>
        <time>2013-03-07T12:27:33Z</time>
      </trkpt>
      <trkpt lat="44.36461" lon="2.8507">
        <ele>646</ele>
        <time>2013-03-07T12:27:36Z</time>
      </trkpt>
      <trkpt lat="44.36455" lon="2.8507">
        <ele>646</ele>
        <time>2013-03-07T12:27:39Z</time>
      </trkpt>
      <trkpt lat="44.36449" lon="2.8507">
        <ele>646</ele>
        <time>2013-03-07T12:27:40Z</time>
      </trkpt>
      <trkpt lat="44.36444" lon="2.8507">
        <ele>646</ele>
        <time>2013-03-07T12:27:43Z</time>
      </trkpt>
      <trkpt lat="44.36439" lon="2.8507">
        <ele>647</ele>
        <time>2013-03-07T12:27:44Z</time>
      </trkpt>
      <trkpt lat="44.36433" lon="2.8507">
        <ele>647</ele>
        <time>2013-03-07T12:27:47Z</time>
      </trkpt>
      <trkpt lat="44.36428" lon="2.85069">
        <ele>647</ele>
        <time>2013-03-07T12:27:48Z</time>
      </trkpt>
      <trkpt lat="44.36423" lon="2.85068">
        <ele>647</ele>
        <time>2013-03-07T12:27:51Z</time>
      </trkpt>
      <trkpt lat="44.36415" lon="2.85067">
        <ele>648</ele>
        <time>2013-03-07T12:27:54Z</time>
      </trkpt>
      <trkpt lat="44.3641" lon="2.85066">
        <ele>648</ele>
        <time>2013-03-07T12:27:55Z</time>
      </trkpt>
      <trkpt lat="44.36405" lon="2.85065">
        <ele>648</ele>
        <time>2013-03-07T12:27:59Z</time>
      </trkpt>
      <trkpt lat="44.364" lon="2.85064">
        <ele>648</ele>
        <time>2013-03-07T12:28:00Z</time>
      </trkpt>
      <trkpt lat="44.36393" lon="2.85061">
        <ele>649</ele>
        <time>2013-03-07T12:28:03Z</time>
      </trkpt>
      <trkpt lat="44.36387" lon="2.85058">
        <ele>649</ele>
        <time>2013-03-07T12:28:07Z</time>
      </trkpt>
      <trkpt lat="44.36381" lon="2.85055">
        <ele>649</ele>
        <time>2013-03-07T12:28:10Z</time>
      </trkpt>
      <trkpt lat="44.36375" lon="2.85051">
        <ele>649</ele>
        <time>2013-03-07T12:28:12Z</time>
      </trkpt>
      <trkpt lat="44.3637" lon="2.85046">
        <ele>649</ele>
        <time>2013-03-07T12:28:15Z</time>
      </trkpt>
      <trkpt lat="44.36364" lon="2.85041">
        <ele>649</ele>
        <time>2013-03-07T12:28:19Z</time>
      </trkpt>
      <trkpt lat="44.36359" lon="2.85036">
        <ele>649</ele>
        <time>2013-03-07T12:28:22Z</time>
      </trkpt>
      <trkpt lat="44.36353" lon="2.8503">
        <ele>649</ele>
        <time>2013-03-07T12:28:25Z</time>
      </trkpt>
      <trkpt lat="44.36347" lon="2.85024">
        <ele>649</ele>
        <time>2013-03-07T12:28:27Z</time>
      </trkpt>
      <trkpt lat="44.36342" lon="2.85018">
        <ele>649</ele>
        <time>2013-03-07T12:28:30Z</time>
      </trkpt>
      <trkpt lat="44.36338" lon="2.85011">
        <ele>650</ele>
        <time>2013-03-07T12:28:34Z</time>
      </trkpt>
      <trkpt lat="44.36334" lon="2.85003">
        <ele>650</ele>
        <time>2013-03-07T12:28:37Z</time>
      </trkpt>
      <trkpt lat="44.36331" lon="2.84995">
        <ele>650</ele>
        <time>2013-03-07T12:28:39Z</time>
      </trkpt>
      <trkpt lat="44.36328" lon="2.84987">
        <ele>651</ele>
        <time>2013-03-07T12:28:42Z</time>
      </trkpt>
      <trkpt lat="44.36325" lon="2.84978">
        <ele>651</ele>
        <time>2013-03-07T12:28:46Z</time>
      </trkpt>
      <trkpt lat="44.36321" lon="2.8497">
        <ele>651</ele>
        <time>2013-03-07T12:28:49Z</time>
      </trkpt>
      <trkpt lat="44.36317" lon="2.84962">
        <ele>651</ele>
        <time>2013-03-07T12:28:52Z</time>
      </trkpt>
      <trkpt lat="44.36314" lon="2.84956">
        <ele>651</ele>
        <time>2013-03-07T12:28:54Z</time>
      </trkpt>
      <trkpt lat="44.3631" lon="2.84949">
        <ele>651</ele>
        <time>2013-03-07T12:28:57Z</time>
      </trkpt>
      <trkpt lat="44.36306" lon="2.84942">
        <ele>651</ele>
        <time>2013-03-07T12:29:01Z</time>
      </trkpt>
      <trkpt lat="44.36302" lon="2.84935">
        <ele>651</ele>
        <time>2013-03-07T12:29:04Z</time>
      </trkpt>
      <trkpt lat="44.36299" lon="2.84927">
        <ele>651</ele>
        <time>2013-03-07T12:29:06Z</time>
      </trkpt>
      <trkpt lat="44.36295" lon="2.8492">
        <ele>652</ele>
        <time>2013-03-07T12:29:09Z</time>
      </trkpt>
      <trkpt lat="44.36291" lon="2.84912">
        <ele>652</ele>
        <time>2013-03-07T12:29:13Z</time>
      </trkpt>
      <trkpt lat="44.36287" lon="2.84904">
        <ele>652</ele>
        <time>2013-03-07T12:29:16Z</time>
      </trkpt>
      <trkpt lat="44.36283" lon="2.84897">
        <ele>652</ele>
        <time>2013-03-07T12:29:19Z</time>
      </trkpt>
      <trkpt lat="44.36278" lon="2.84889">
        <ele>652</ele>
        <time>2013-03-07T12:29:21Z</time>
      </trkpt>
      <trkpt lat="44.36274" lon="2.84881">
        <ele>652</ele>
        <time>2013-03-07T12:29:24Z</time>
      </trkpt>
      <trkpt lat="44.36271" lon="2.84876">
        <ele>653</ele>
        <time>2013-03-07T12:29:27Z</time>
      </trkpt>
      <trkpt lat="44.36267" lon="2.84867">
        <ele>653</ele>
        <time>2013-03-07T12:29:29Z</time>
      </trkpt>
      <trkpt lat="44.36264" lon="2.84861">
        <ele>653</ele>
        <time>2013-03-07T12:29:32Z</time>
      </trkpt>
      <trkpt lat="44.3626" lon="2.84852">
        <ele>653</ele>
        <time>2013-03-07T12:29:35Z</time>
      </trkpt>
      <trkpt lat="44.36257" lon="2.84843">
        <ele>654</ele>
        <time>2013-03-07T12:29:37Z</time>
      </trkpt>
      <trkpt lat="44.36254" lon="2.84834">
        <ele>655</ele>
        <time>2013-03-07T12:29:40Z</time>
      </trkpt>
      <trkpt lat="44.36251" lon="2.84825">
        <ele>654</ele>
        <time>2013-03-07T12:29:43Z</time>
      </trkpt>
      <trkpt lat="44.36248" lon="2.84819">
        <ele>656</ele>
        <time>2013-03-07T12:29:46Z</time>
      </trkpt>
      <trkpt lat="44.36245" lon="2.84809">
        <ele>656</ele>
        <time>2013-03-07T12:29:48Z</time>
      </trkpt>
      <trkpt lat="44.36242" lon="2.84804">
        <ele>656</ele>
        <time>2013-03-07T12:29:51Z</time>
      </trkpt>
      <trkpt lat="44.36237" lon="2.84797">
        <ele>657</ele>
        <time>2013-03-07T12:29:54Z</time>
      </trkpt>
      <trkpt lat="44.36232" lon="2.84791">
        <ele>657</ele>
        <time>2013-03-07T12:29:55Z</time>
      </trkpt>
      <trkpt lat="44.36229" lon="2.84786">
        <ele>657</ele>
        <time>2013-03-07T12:29:58Z</time>
      </trkpt>
      <trkpt lat="44.36225" lon="2.8478">
        <ele>657</ele>
        <time>2013-03-07T12:29:59Z</time>
      </trkpt>
      <trkpt lat="44.36222" lon="2.84774">
        <ele>657</ele>
        <time>2013-03-07T12:30:02Z</time>
      </trkpt>
      <trkpt lat="44.36219" lon="2.84767">
        <ele>657</ele>
        <time>2013-03-07T12:30:03Z</time>
      </trkpt>
      <trkpt lat="44.36216" lon="2.8476">
        <ele>657</ele>
        <time>2013-03-07T12:30:06Z</time>
      </trkpt>
      <trkpt lat="44.36214" lon="2.84753">
        <ele>657</ele>
        <time>2013-03-07T12:30:07Z</time>
      </trkpt>
      <trkpt lat="44.36212" lon="2.84746">
        <ele>658</ele>
        <time>2013-03-07T12:30:10Z</time>
      </trkpt>
      <trkpt lat="44.36211" lon="2.84739">
        <ele>658</ele>
        <time>2013-03-07T12:30:11Z</time>
      </trkpt>
      <trkpt lat="44.36212" lon="2.8473">
        <ele>658</ele>
        <time>2013-03-07T12:30:14Z</time>
      </trkpt>
      <trkpt lat="44.36212" lon="2.84723">
        <ele>658</ele>
        <time>2013-03-07T12:30:15Z</time>
      </trkpt>
      <trkpt lat="44.36213" lon="2.84715">
        <ele>658</ele>
        <time>2013-03-07T12:30:18Z</time>
      </trkpt>
      <trkpt lat="44.36212" lon="2.84708">
        <ele>658</ele>
        <time>2013-03-07T12:30:19Z</time>
      </trkpt>
      <trkpt lat="44.36208" lon="2.847">
        <ele>658</ele>
        <time>2013-03-07T12:30:22Z</time>
      </trkpt>
      <trkpt lat="44.362" lon="2.84698">
        <ele>658</ele>
        <time>2013-03-07T12:30:26Z</time>
      </trkpt>
      <trkpt lat="44.36194" lon="2.84699">
        <ele>658</ele>
        <time>2013-03-07T12:30:27Z</time>
      </trkpt>
      <trkpt lat="44.36188" lon="2.84699">
        <ele>658</ele>
        <time>2013-03-07T12:30:30Z</time>
      </trkpt>
      <trkpt lat="44.36182" lon="2.84699">
        <ele>658</ele>
        <time>2013-03-07T12:30:31Z</time>
      </trkpt>
      <trkpt lat="44.36177" lon="2.84699">
        <ele>658</ele>
        <time>2013-03-07T12:30:34Z</time>
      </trkpt>
      <trkpt lat="44.36172" lon="2.847">
        <ele>658</ele>
        <time>2013-03-07T12:30:35Z</time>
      </trkpt>
      <trkpt lat="44.36166" lon="2.847">
        <ele>660</ele>
        <time>2013-03-07T12:30:37Z</time>
      </trkpt>
      <trkpt lat="44.36161" lon="2.84701">
        <ele>660</ele>
        <time>2013-03-07T12:30:40Z</time>
      </trkpt>
      <trkpt lat="44.36155" lon="2.84702">
        <ele>660</ele>
        <time>2013-03-07T12:30:41Z</time>
      </trkpt>
      <trkpt lat="44.3615" lon="2.84701">
        <ele>661</ele>
        <time>2013-03-07T12:30:44Z</time>
      </trkpt>
      <trkpt lat="44.36141" lon="2.84702">
        <ele>661</ele>
        <time>2013-03-07T12:30:46Z</time>
      </trkpt>
      <trkpt lat="44.36136" lon="2.84702">
        <ele>661</ele>
        <time>2013-03-07T12:30:49Z</time>
      </trkpt>
      <trkpt lat="44.36129" lon="2.84703">
        <ele>661</ele>
        <time>2013-03-07T12:30:52Z</time>
      </trkpt>
      <trkpt lat="44.36121" lon="2.84704">
        <ele>661</ele>
        <time>2013-03-07T12:30:54Z</time>
      </trkpt>
      <trkpt lat="44.36116" lon="2.84705">
        <ele>661</ele>
        <time>2013-03-07T12:30:57Z</time>
      </trkpt>
      <trkpt lat="44.36111" lon="2.84707">
        <ele>661</ele>
        <time>2013-03-07T12:30:58Z</time>
      </trkpt>
      <trkpt lat="44.36105" lon="2.84708">
        <ele>661</ele>
        <time>2013-03-07T12:31:01Z</time>
      </trkpt>
      <trkpt lat="44.361" lon="2.8471">
        <ele>661</ele>
        <time>2013-03-07T12:31:02Z</time>
      </trkpt>
      <trkpt lat="44.36095" lon="2.84712">
        <ele>662</ele>
        <time>2013-03-07T12:31:04Z</time>
      </trkpt>
      <trkpt lat="44.3609" lon="2.84714">
        <ele>662</ele>
        <time>2013-03-07T12:31:07Z</time>
      </trkpt>
      <trkpt lat="44.36085" lon="2.84715">
        <ele>662</ele>
        <time>2013-03-07T12:31:08Z</time>
      </trkpt>
      <trkpt lat="44.36077" lon="2.84714">
        <ele>665</ele>
        <time>2013-03-07T12:31:12Z</time>
      </trkpt>
      <trkpt lat="44.36071" lon="2.84708">
        <ele>665</ele>
        <time>2013-03-07T12:31:15Z</time>
      </trkpt>
      <trkpt lat="44.36067" lon="2.84704">
        <ele>665</ele>
        <time>2013-03-07T12:31:16Z</time>
      </trkpt>
      <trkpt lat="44.36061" lon="2.84699">
        <ele>665</ele>
        <time>2013-03-07T12:31:20Z</time>
      </trkpt>
      <trkpt lat="44.36056" lon="2.84695">
        <ele>665</ele>
        <time>2013-03-07T12:31:21Z</time>
      </trkpt>
      <trkpt lat="44.3605" lon="2.84689">
        <ele>666</ele>
        <time>2013-03-07T12:31:24Z</time>
      </trkpt>
      <trkpt lat="44.36044" lon="2.84683">
        <ele>666</ele>
        <time>2013-03-07T12:31:28Z</time>
      </trkpt>
      <trkpt lat="44.36039" lon="2.84677">
        <ele>666</ele>
        <time>2013-03-07T12:31:31Z</time>
      </trkpt>
      <trkpt lat="44.36036" lon="2.84673">
        <ele>666</ele>
        <time>2013-03-07T12:31:32Z</time>
      </trkpt>
      <trkpt lat="44.3603" lon="2.84667">
        <ele>667</ele>
        <time>2013-03-07T12:31:35Z</time>
      </trkpt>
      <trkpt lat="44.36025" lon="2.84661">
        <ele>666</ele>
        <time>2013-03-07T12:31:39Z</time>
      </trkpt>
      <trkpt lat="44.3602" lon="2.84656">
        <ele>667</ele>
        <time>2013-03-07T12:31:42Z</time>
      </trkpt>
      <trkpt lat="44.36014" lon="2.8465">
        <ele>667</ele>
        <time>2013-03-07T12:31:44Z</time>
      </trkpt>
      <trkpt lat="44.36009" lon="2.84644">
        <ele>667</ele>
        <time>2013-03-07T12:31:47Z</time>
      </trkpt>
      <trkpt lat="44.36004" lon="2.84638">
        <ele>666</ele>
        <time>2013-03-07T12:31:51Z</time>
      </trkpt>
      <trkpt lat="44.35998" lon="2.84632">
        <ele>671</ele>
        <time>2013-03-07T12:31:54Z</time>
      </trkpt>
      <trkpt lat="44.35992" lon="2.84625">
        <ele>671</ele>
        <time>2013-03-07T12:31:57Z</time>
      </trkpt>
      <trkpt lat="44.35987" lon="2.84619">
        <ele>671</ele>
        <time>2013-03-07T12:31:59Z</time>
      </trkpt>
      <trkpt lat="44.35982" lon="2.84614">
        <ele>672</ele>
        <time>2013-03-07T12:32:02Z</time>
      </trkpt>
      <trkpt lat="44.35976" lon="2.84607">
        <ele>672</ele>
        <time>2013-03-07T12:32:06Z</time>
      </trkpt>
      <trkpt lat="44.35972" lon="2.84602">
        <ele>672</ele>
        <time>2013-03-07T12:32:07Z</time>
      </trkpt>
      <trkpt lat="44.35968" lon="2.84597">
        <ele>672</ele>
        <time>2013-03-07T12:32:10Z</time>
      </trkpt>
      <trkpt lat="44.35964" lon="2.84593">
        <ele>672</ele>
        <time>2013-03-07T12:32:11Z</time>
      </trkpt>
      <trkpt lat="44.35959" lon="2.84586">
        <ele>673</ele>
        <time>2013-03-07T12:32:14Z</time>
      </trkpt>
      <trkpt lat="44.35955" lon="2.84581">
        <ele>672</ele>
        <time>2013-03-07T12:32:17Z</time>
      </trkpt>
      <trkpt lat="44.3595" lon="2.84575">
        <ele>673</ele>
        <time>2013-03-07T12:32:19Z</time>
      </trkpt>
      <trkpt lat="44.35946" lon="2.8457">
        <ele>673</ele>
        <time>2013-03-07T12:32:22Z</time>
      </trkpt>
      <trkpt lat="44.35941" lon="2.84566">
        <ele>673</ele>
        <time>2013-03-07T12:32:24Z</time>
      </trkpt>
      <trkpt lat="44.35935" lon="2.84562">
        <ele>673</ele>
        <time>2013-03-07T12:32:26Z</time>
      </trkpt>
      <trkpt lat="44.35928" lon="2.84559">
        <ele>674</ele>
        <time>2013-03-07T12:32:29Z</time>
      </trkpt>
      <trkpt lat="44.3592" lon="2.84556">
        <ele>674</ele>
        <time>2013-03-07T12:32:33Z</time>
      </trkpt>
      <trkpt lat="44.35916" lon="2.84555">
        <ele>678</ele>
        <time>2013-03-07T12:32:34Z</time>
      </trkpt>
      <trkpt lat="44.35908" lon="2.84556">
        <ele>678</ele>
        <time>2013-03-07T12:32:37Z</time>
      </trkpt>
      <trkpt lat="44.35903" lon="2.84556">
        <ele>678</ele>
        <time>2013-03-07T12:32:40Z</time>
      </trkpt>
      <trkpt lat="44.35896" lon="2.84558">
        <ele>678</ele>
        <time>2013-03-07T12:32:42Z</time>
      </trkpt>
      <trkpt lat="44.35892" lon="2.8456">
        <ele>679</ele>
        <time>2013-03-07T12:32:45Z</time>
      </trkpt>
      <trkpt lat="44.35885" lon="2.84564">
        <ele>679</ele>
        <time>2013-03-07T12:32:48Z</time>
      </trkpt>
      <trkpt lat="44.35878" lon="2.84567">
        <ele>679</ele>
        <time>2013-03-07T12:32:51Z</time>
      </trkpt>
      <trkpt lat="44.35871" lon="2.84569">
        <ele>679</ele>
        <time>2013-03-07T12:32:53Z</time>
      </trkpt>
      <trkpt lat="44.35865" lon="2.84569">
        <ele>680</ele>
        <time>2013-03-07T12:32:56Z</time>
      </trkpt>
      <trkpt lat="44.35858" lon="2.84568">
        <ele>680</ele>
        <time>2013-03-07T12:33:00Z</time>
      </trkpt>
      <trkpt lat="44.35852" lon="2.84566">
        <ele>680</ele>
        <time>2013-03-07T12:33:03Z</time>
      </trkpt>
      <trkpt lat="44.35845" lon="2.84564">
        <ele>681</ele>
        <time>2013-03-07T12:33:05Z</time>
      </trkpt>
      <trkpt lat="44.35839" lon="2.8456">
        <ele>681</ele>
        <time>2013-03-07T12:33:08Z</time>
      </trkpt>
      <trkpt lat="44.35832" lon="2.84557">
        <ele>685</ele>
        <time>2013-03-07T12:33:12Z</time>
      </trkpt>
      <trkpt lat="44.35828" lon="2.84555">
        <ele>685</ele>
        <time>2013-03-07T12:33:13Z</time>
      </trkpt>
      <trkpt lat="44.35821" lon="2.84552">
        <ele>686</ele>
        <time>2013-03-07T12:33:16Z</time>
      </trkpt>
      <trkpt lat="44.35816" lon="2.8455">
        <ele>686</ele>
        <time>2013-03-07T12:33:19Z</time>
      </trkpt>
      <trkpt lat="44.3581" lon="2.84547">
        <ele>686</ele>
        <time>2013-03-07T12:33:22Z</time>
      </trkpt>
      <trkpt lat="44.35803" lon="2.84544">
        <ele>687</ele>
        <time>2013-03-07T12:33:24Z</time>
      </trkpt>
      <trkpt lat="44.35797" lon="2.84541">
        <ele>687</ele>
        <time>2013-03-07T12:33:27Z</time>
      </trkpt>
      <trkpt lat="44.35791" lon="2.84537">
        <ele>687</ele>
        <time>2013-03-07T12:33:31Z</time>
      </trkpt>
      <trkpt lat="44.35785" lon="2.84533">
        <ele>687</ele>
        <time>2013-03-07T12:33:34Z</time>
      </trkpt>
      <trkpt lat="44.3578" lon="2.84529">
        <ele>688</ele>
        <time>2013-03-07T12:33:36Z</time>
      </trkpt>
      <trkpt lat="44.35775" lon="2.84525">
        <ele>688</ele>
        <time>2013-03-07T12:33:39Z</time>
      </trkpt>
      <trkpt lat="44.35769" lon="2.84521">
        <ele>688</ele>
        <time>2013-03-07T12:33:43Z</time>
      </trkpt>
      <trkpt lat="44.35765" lon="2.84516">
        <ele>689</ele>
        <time>2013-03-07T12:33:46Z</time>
      </trkpt>
      <trkpt lat="44.35761" lon="2.8451">
        <ele>689</ele>
        <time>2013-03-07T12:33:49Z</time>
      </trkpt>
      <trkpt lat="44.35757" lon="2.84501">
        <ele>689</ele>
        <time>2013-03-07T12:33:51Z</time>
      </trkpt>
      <trkpt lat="44.35755" lon="2.84495">
        <ele>689</ele>
        <time>2013-03-07T12:33:54Z</time>
      </trkpt>
      <trkpt lat="44.35752" lon="2.84486">
        <ele>688</ele>
        <time>2013-03-07T12:33:57Z</time>
      </trkpt>
      <trkpt lat="44.3575" lon="2.84479">
        <ele>688</ele>
        <time>2013-03-07T12:33:58Z</time>
      </trkpt>
      <trkpt lat="44.35748" lon="2.84472">
        <ele>693</ele>
        <time>2013-03-07T12:34:01Z</time>
      </trkpt>
      <trkpt lat="44.35747" lon="2.84465">
        <ele>693</ele>
        <time>2013-03-07T12:34:02Z</time>
      </trkpt>
      <trkpt lat="44.35745" lon="2.84457">
        <ele>693</ele>
        <time>2013-03-07T12:34:05Z</time>
      </trkpt>
      <trkpt lat="44.35744" lon="2.8445">
        <ele>693</ele>
        <time>2013-03-07T12:34:06Z</time>
      </trkpt>
      <trkpt lat="44.35743" lon="2.84443">
        <ele>693</ele>
        <time>2013-03-07T12:34:09Z</time>
      </trkpt>
      <trkpt lat="44.35741" lon="2.84436">
        <ele>693</ele>
        <time>2013-03-07T12:34:10Z</time>
      </trkpt>
      <trkpt lat="44.35739" lon="2.84427">
        <ele>692</ele>
        <time>2013-03-07T12:34:13Z</time>
      </trkpt>
      <trkpt lat="44.35739" lon="2.84419">
        <ele>692</ele>
        <time>2013-03-07T12:34:17Z</time>
      </trkpt>
      <trkpt lat="44.35741" lon="2.84412">
        <ele>694</ele>
        <time>2013-03-07T12:34:20Z</time>
      </trkpt>
      <trkpt lat="44.35744" lon="2.84407">
        <ele>694</ele>
        <time>2013-03-07T12:34:22Z</time>
      </trkpt>
      <trkpt lat="44.35749" lon="2.84401">
        <ele>695</ele>
        <time>2013-03-07T12:34:25Z</time>
      </trkpt>
      <trkpt lat="44.35752" lon="2.84396">
        <ele>691</ele>
        <time>2013-03-07T12:34:29Z</time>
      </trkpt>
      <trkpt lat="44.35755" lon="2.8439">
        <ele>692</ele>
        <time>2013-03-07T12:34:32Z</time>
      </trkpt>
      <trkpt lat="44.35757" lon="2.84382">
        <ele>692</ele>
        <time>2013-03-07T12:34:34Z</time>
      </trkpt>
      <trkpt lat="44.35757" lon="2.84375">
        <ele>693</ele>
        <time>2013-03-07T12:34:37Z</time>
      </trkpt>
      <trkpt lat="44.35756" lon="2.84366">
        <ele>695</ele>
        <time>2013-03-07T12:34:40Z</time>
      </trkpt>
      <trkpt lat="44.35754" lon="2.84357">
        <ele>696</ele>
        <time>2013-03-07T12:34:43Z</time>
      </trkpt>
      <trkpt lat="44.35752" lon="2.8435">
        <ele>698</ele>
        <time>2013-03-07T12:34:45Z</time>
      </trkpt>
      <trkpt lat="44.35747" lon="2.84346">
        <ele>703</ele>
        <time>2013-03-07T12:34:48Z</time>
      </trkpt>
      <trkpt lat="44.35741" lon="2.84343">
        <ele>703</ele>
        <time>2013-03-07T12:34:52Z</time>
      </trkpt>
      <trkpt lat="44.35736" lon="2.84339">
        <ele>703</ele>
        <time>2013-03-07T12:34:55Z</time>
      </trkpt>
      <trkpt lat="44.35731" lon="2.84336">
        <ele>702</ele>
        <time>2013-03-07T12:34:57Z</time>
      </trkpt>
      <trkpt lat="44.35726" lon="2.84332">
        <ele>711</ele>
        <time>2013-03-07T12:35:00Z</time>
      </trkpt>
      <trkpt lat="44.35721" lon="2.84328">
        <ele>711</ele>
        <time>2013-03-07T12:35:04Z</time>
      </trkpt>
      <trkpt lat="44.35715" lon="2.84324">
        <ele>712</ele>
        <time>2013-03-07T12:35:07Z</time>
      </trkpt>
      <trkpt lat="44.3571" lon="2.84318">
        <ele>712</ele>
        <time>2013-03-07T12:35:11Z</time>
      </trkpt>
      <trkpt lat="44.35706" lon="2.84314">
        <ele>713</ele>
        <time>2013-03-07T12:35:14Z</time>
      </trkpt>
      <trkpt lat="44.35703" lon="2.84307">
        <ele>713</ele>
        <time>2013-03-07T12:35:18Z</time>
      </trkpt>
      <trkpt lat="44.357" lon="2.84301">
        <ele>714</ele>
        <time>2013-03-07T12:35:22Z</time>
      </trkpt>
      <trkpt lat="44.35696" lon="2.84295">
        <ele>714</ele>
        <time>2013-03-07T12:35:27Z</time>
      </trkpt>
      <trkpt lat="44.35693" lon="2.84289">
        <ele>715</ele>
        <time>2013-03-07T12:35:33Z</time>
      </trkpt>
      <trkpt lat="44.35692" lon="2.84282">
        <ele>716</ele>
        <time>2013-03-07T12:35:38Z</time>
      </trkpt>
      <trkpt lat="44.35692" lon="2.84275">
        <ele>717</ele>
        <time>2013-03-07T12:35:43Z</time>
      </trkpt>
      <trkpt lat="44.3569" lon="2.84268">
        <ele>717</ele>
        <time>2013-03-07T12:35:50Z</time>
      </trkpt>
      <trkpt lat="44.35691" lon="2.84261">
        <ele>718</ele>
        <time>2013-03-07T12:35:58Z</time>
      </trkpt>
      <trkpt lat="44.35695" lon="2.84255">
        <ele>718</ele>
        <time>2013-03-07T12:36:05Z</time>
      </trkpt>
      <trkpt lat="44.35699" lon="2.84255">
        <ele>718</ele>
        <time>2013-03-07T12:36:13Z</time>
      </trkpt>
      <trkpt lat="44.35704" lon="2.84252">
        <ele>719</ele>
        <time>2013-03-07T12:36:21Z</time>
      </trkpt>
      <trkpt lat="44.35709" lon="2.84248">
        <ele>732</ele>
        <time>2013-03-07T12:36:25Z</time>
      </trkpt>
      <trkpt lat="44.35714" lon="2.84247">
        <ele>732</ele>
        <time>2013-03-07T12:36:29Z</time>
      </trkpt>
      <trkpt lat="44.35719" lon="2.84245">
        <ele>732</ele>
        <time>2013-03-07T12:36:35Z</time>
      </trkpt>
      <trkpt lat="44.35724" lon="2.84242">
        <ele>732</ele>
        <time>2013-03-07T12:36:40Z</time>
      </trkpt>
      <trkpt lat="44.35729" lon="2.84239">
        <ele>732</ele>
        <time>2013-03-07T12:36:44Z</time>
      </trkpt>
      <trkpt lat="44.35734" lon="2.84234">
        <ele>733</ele>
        <time>2013-03-07T12:36:49Z</time>
      </trkpt>
      <trkpt lat="44.35739" lon="2.84229">
        <ele>733</ele>
        <time>2013-03-07T12:36:55Z</time>
      </trkpt>
      <trkpt lat="44.35742" lon="2.84223">
        <ele>734</ele>
        <time>2013-03-07T12:36:58Z</time>
      </trkpt>
      <trkpt lat="44.35746" lon="2.84217">
        <ele>735</ele>
        <time>2013-03-07T12:37:00Z</time>
      </trkpt>
      <trkpt lat="44.35751" lon="2.84211">
        <ele>733</ele>
        <time>2013-03-07T12:37:04Z</time>
      </trkpt>
      <trkpt lat="44.35755" lon="2.84205">
        <ele>734</ele>
        <time>2013-03-07T12:37:12Z</time>
      </trkpt>
      <trkpt lat="44.35758" lon="2.84199">
        <ele>735</ele>
        <time>2013-03-07T12:37:16Z</time>
      </trkpt>
      <trkpt lat="44.3576" lon="2.84191">
        <ele>737</ele>
        <time>2013-03-07T12:37:22Z</time>
      </trkpt>
      <trkpt lat="44.3576" lon="2.84185">
        <ele>739</ele>
        <time>2013-03-07T12:37:27Z</time>
      </trkpt>
      <trkpt lat="44.35757" lon="2.84178">
        <ele>741</ele>
        <time>2013-03-07T12:37:34Z</time>
      </trkpt>
      <trkpt lat="44.35753" lon="2.84175">
        <ele>743</ele>
        <time>2013-03-07T12:37:38Z</time>
      </trkpt>
      <trkpt lat="44.35747" lon="2.84173">
        <ele>746</ele>
        <time>2013-03-07T12:37:46Z</time>
      </trkpt>
      <trkpt lat="44.35742" lon="2.8417">
        <ele>745</ele>
        <time>2013-03-07T12:37:50Z</time>
      </trkpt>
      <trkpt lat="44.35737" lon="2.84169">
        <ele>744</ele>
        <time>2013-03-07T12:37:54Z</time>
      </trkpt>
      <trkpt lat="44.35731" lon="2.84166">
        <ele>754</ele>
        <time>2013-03-07T12:38:00Z</time>
      </trkpt>
      <trkpt lat="44.35727" lon="2.84163">
        <ele>754</ele>
        <time>2013-03-07T12:38:05Z</time>
      </trkpt>
      <trkpt lat="44.35722" lon="2.84161">
        <ele>755</ele>
        <time>2013-03-07T12:38:10Z</time>
      </trkpt>
      <trkpt lat="44.35718" lon="2.84155">
        <ele>756</ele>
        <time>2013-03-07T12:38:16Z</time>
      </trkpt>
      <trkpt lat="44.35714" lon="2.84151">
        <ele>756</ele>
        <time>2013-03-07T12:38:19Z</time>
      </trkpt>
      <trkpt lat="44.35711" lon="2.84145">
        <ele>757</ele>
        <time>2013-03-07T12:38:21Z</time>
      </trkpt>
      <trkpt lat="44.35705" lon="2.84141">
        <ele>757</ele>
        <time>2013-03-07T12:38:24Z</time>
      </trkpt>
      <trkpt lat="44.357" lon="2.84137">
        <ele>757</ele>
        <time>2013-03-07T12:38:28Z</time>
      </trkpt>
      <trkpt lat="44.35694" lon="2.84133">
        <ele>758</ele>
        <time>2013-03-07T12:38:32Z</time>
      </trkpt>
      <trkpt lat="44.3569" lon="2.84128">
        <ele>758</ele>
        <time>2013-03-07T12:38:36Z</time>
      </trkpt>
      <trkpt lat="44.35684" lon="2.84125">
        <ele>759</ele>
        <time>2013-03-07T12:38:39Z</time>
      </trkpt>
      <trkpt lat="44.35679" lon="2.84121">
        <ele>760</ele>
        <time>2013-03-07T12:38:42Z</time>
      </trkpt>
      <trkpt lat="44.35673" lon="2.84114">
        <ele>761</ele>
        <time>2013-03-07T12:38:44Z</time>
      </trkpt>
      <trkpt lat="44.3567" lon="2.84109">
        <ele>762</ele>
        <time>2013-03-07T12:38:47Z</time>
      </trkpt>
      <trkpt lat="44.35666" lon="2.84104">
        <ele>760</ele>
        <time>2013-03-07T12:38:52Z</time>
      </trkpt>
      <trkpt lat="44.35664" lon="2.84097">
        <ele>763</ele>
        <time>2013-03-07T12:39:00Z</time>
      </trkpt>
      <trkpt lat="44.3566" lon="2.84092">
        <ele>764</ele>
        <time>2013-03-07T12:39:06Z</time>
      </trkpt>
      <trkpt lat="44.35655" lon="2.8409">
        <ele>763</ele>
        <time>2013-03-07T12:39:10Z</time>
      </trkpt>
      <trkpt lat="44.35649" lon="2.84089">
        <ele>761</ele>
        <time>2013-03-07T12:39:14Z</time>
      </trkpt>
      <trkpt lat="44.35644" lon="2.84088">
        <ele>760</ele>
        <time>2013-03-07T12:39:18Z</time>
      </trkpt>
      <trkpt lat="44.35638" lon="2.84084">
        <ele>759</ele>
        <time>2013-03-07T12:39:22Z</time>
      </trkpt>
      <trkpt lat="44.35632" lon="2.84079">
        <ele>770</ele>
        <time>2013-03-07T12:39:25Z</time>
      </trkpt>
      <trkpt lat="44.35627" lon="2.84075">
        <ele>770</ele>
        <time>2013-03-07T12:39:26Z</time>
      </trkpt>
      <trkpt lat="44.35623" lon="2.84069">
        <ele>770</ele>
        <time>2013-03-07T12:39:29Z</time>
      </trkpt>
      <trkpt lat="44.35617" lon="2.84064">
        <ele>770</ele>
        <time>2013-03-07T12:39:30Z</time>
      </trkpt>
      <trkpt lat="44.3561" lon="2.84058">
        <ele>770</ele>
        <time>2013-03-07T12:39:33Z</time>
      </trkpt>
      <trkpt lat="44.35604" lon="2.84054">
        <ele>769</ele>
        <time>2013-03-07T12:39:34Z</time>
      </trkpt>
      <trkpt lat="44.356" lon="2.84047">
        <ele>770</ele>
        <time>2013-03-07T12:39:37Z</time>
      </trkpt>
      <trkpt lat="44.35599" lon="2.84042">
        <ele>771</ele>
        <time>2013-03-07T12:39:41Z</time>
      </trkpt>
      <trkpt lat="44.356" lon="2.84034">
        <ele>772</ele>
        <time>2013-03-07T12:39:45Z</time>
      </trkpt>
      <trkpt lat="44.35599" lon="2.84027">
        <ele>773</ele>
        <time>2013-03-07T12:39:50Z</time>
      </trkpt>
      <trkpt lat="44.35596" lon="2.84021">
        <ele>773</ele>
        <time>2013-03-07T12:39:53Z</time>
      </trkpt>
      <trkpt lat="44.35593" lon="2.84014">
        <ele>773</ele>
        <time>2013-03-07T12:39:57Z</time>
      </trkpt>
      <trkpt lat="44.3559" lon="2.84009">
        <ele>774</ele>
        <time>2013-03-07T12:40:04Z</time>
      </trkpt>
      <trkpt lat="44.35583" lon="2.84012">
        <ele>773</ele>
        <time>2013-03-07T12:40:16Z</time>
      </trkpt>
      <trkpt lat="44.35578" lon="2.84017">
        <ele>772</ele>
        <time>2013-03-07T12:40:21Z</time>
      </trkpt>
      <trkpt lat="44.35573" lon="2.84021">
        <ele>772</ele>
        <time>2013-03-07T12:40:25Z</time>
      </trkpt>
      <trkpt lat="44.35568" lon="2.84025">
        <ele>771</ele>
        <time>2013-03-07T12:40:28Z</time>
      </trkpt>
      <trkpt lat="44.35563" lon="2.8403">
        <ele>771</ele>
        <time>2013-03-07T12:40:31Z</time>
      </trkpt>
      <trkpt lat="44.35558" lon="2.84036">
        <ele>771</ele>
        <time>2013-03-07T12:40:35Z</time>
      </trkpt>
      <trkpt lat="44.35552" lon="2.8404">
        <ele>770</ele>
        <time>2013-03-07T12:40:38Z</time>
      </trkpt>
      <trkpt lat="44.35548" lon="2.84044">
        <ele>770</ele>
        <time>2013-03-07T12:40:40Z</time>
      </trkpt>
      <trkpt lat="44.35544" lon="2.84048">
        <ele>770</ele>
        <time>2013-03-07T12:40:44Z</time>
      </trkpt>
      <trkpt lat="44.3554" lon="2.84054">
        <ele>770</ele>
        <time>2013-03-07T12:40:47Z</time>
      </trkpt>
      <trkpt lat="44.35537" lon="2.8406">
        <ele>769</ele>
        <time>2013-03-07T12:40:51Z</time>
      </trkpt>
      <trkpt lat="44.35532" lon="2.84064">
        <ele>769</ele>
        <time>2013-03-07T12:40:54Z</time>
      </trkpt>
      <trkpt lat="44.35528" lon="2.84069">
        <ele>769</ele>
        <time>2013-03-07T12:40:56Z</time>
      </trkpt>
      <trkpt lat="44.35525" lon="2.84075">
        <ele>768</ele>
        <time>2013-03-07T12:40:59Z</time>
      </trkpt>
      <trkpt lat="44.35521" lon="2.84079">
        <ele>768</ele>
        <time>2013-03-07T12:41:02Z</time>
      </trkpt>
      <trkpt lat="44.35516" lon="2.84083">
        <ele>767</ele>
        <time>2013-03-07T12:41:06Z</time>
      </trkpt>
      <trkpt lat="44.35512" lon="2.84086">
        <ele>762</ele>
        <time>2013-03-07T12:41:10Z</time>
      </trkpt>
      <trkpt lat="44.35506" lon="2.84088">
        <ele>763</ele>
        <time>2013-03-07T12:41:13Z</time>
      </trkpt>
      <trkpt lat="44.35499" lon="2.84103">
        <ele>772</ele>
        <time>2013-03-07T12:41:37Z</time>
      </trkpt>
      <trkpt lat="44.35493" lon="2.84109">
        <ele>773</ele>
        <time>2013-03-07T12:41:49Z</time>
      </trkpt>
      <trkpt lat="44.35488" lon="2.84108">
        <ele>774</ele>
        <time>2013-03-07T12:41:56Z</time>
      </trkpt>
      <trkpt lat="44.35484" lon="2.84103">
        <ele>774</ele>
        <time>2013-03-07T12:42:03Z</time>
      </trkpt>
      <trkpt lat="44.35482" lon="2.84098">
        <ele>774</ele>
        <time>2013-03-07T12:42:09Z</time>
      </trkpt>
      <trkpt lat="44.35485" lon="2.8409">
        <ele>772</ele>
        <time>2013-03-07T12:42:16Z</time>
      </trkpt>
      <trkpt lat="44.35481" lon="2.84087">
        <ele>773</ele>
        <time>2013-03-07T12:42:23Z</time>
      </trkpt>
      <trkpt lat="44.35476" lon="2.84084">
        <ele>775</ele>
        <time>2013-03-07T12:42:27Z</time>
      </trkpt>
      <trkpt lat="44.35473" lon="2.84079">
        <ele>782</ele>
        <time>2013-03-07T12:42:35Z</time>
      </trkpt>
      <trkpt lat="44.35477" lon="2.84068">
        <ele>782</ele>
        <time>2013-03-07T12:42:44Z</time>
      </trkpt>
      <trkpt lat="44.35475" lon="2.84066">
        <ele>783</ele>
        <time>2013-03-07T12:42:54Z</time>
      </trkpt>
      <trkpt lat="44.35471" lon="2.8407">
        <ele>783</ele>
        <time>2013-03-07T12:43:02Z</time>
      </trkpt>
      <trkpt lat="44.35474" lon="2.84069">
        <ele>782</ele>
        <time>2013-03-07T12:43:17Z</time>
      </trkpt>
      <trkpt lat="44.35473" lon="2.84074">
        <ele>782</ele>
        <time>2013-03-07T12:43:29Z</time>
      </trkpt>
      <trkpt lat="44.35477" lon="2.84069">
        <ele>781</ele>
        <time>2013-03-07T12:43:43Z</time>
      </trkpt>
      <trkpt lat="44.35481" lon="2.84063">
        <ele>782</ele>
        <time>2013-03-07T12:43:56Z</time>
      </trkpt>
      <trkpt lat="44.35481" lon="2.8406">
        <ele>782</ele>
        <time>2013-03-07T12:44:04Z</time>
      </trkpt>
      <trkpt lat="44.3548" lon="2.84058">
        <ele>783</ele>
        <time>2013-03-07T12:44:11Z</time>
      </trkpt>
      <trkpt lat="44.3548" lon="2.84055">
        <ele>784</ele>
        <time>2013-03-07T12:44:33Z</time>
      </trkpt>
      <trkpt lat="44.35478" lon="2.84053">
        <ele>785</ele>
        <time>2013-03-07T12:44:39Z</time>
      </trkpt>
      <trkpt lat="44.35472" lon="2.84051">
        <ele>786</ele>
        <time>2013-03-07T12:44:46Z</time>
      </trkpt>
      <trkpt lat="44.35467" lon="2.84052">
        <ele>787</ele>
        <time>2013-03-07T12:44:53Z</time>
      </trkpt>
      <trkpt lat="44.35465" lon="2.8405">
        <ele>787</ele>
        <time>2013-03-07T12:45:06Z</time>
      </trkpt>
      <trkpt lat="44.35464" lon="2.84047">
        <ele>788</ele>
        <time>2013-03-07T12:45:24Z</time>
      </trkpt>
      <trkpt lat="44.35461" lon="2.84048">
        <ele>788</ele>
        <time>2013-03-07T12:45:37Z</time>
      </trkpt>
      <trkpt lat="44.35459" lon="2.84045">
        <ele>789</ele>
        <time>2013-03-07T12:46:02Z</time>
      </trkpt>
      <trkpt lat="44.35461" lon="2.84046">
        <ele>789</ele>
        <time>2013-03-07T12:46:19Z</time>
      </trkpt>
      <trkpt lat="44.35462" lon="2.84055">
        <ele>787</ele>
        <time>2013-03-07T12:46:49Z</time>
      </trkpt>
      <trkpt lat="44.35467" lon="2.84056">
        <ele>786</ele>
        <time>2013-03-07T12:46:58Z</time>
      </trkpt>
      <trkpt lat="44.3547" lon="2.8406">
        <ele>785</ele>
        <time>2013-03-07T12:47:09Z</time>
      </trkpt>
      <trkpt lat="44.35473" lon="2.84065">
        <ele>783</ele>
        <time>2013-03-07T12:47:19Z</time>
      </trkpt>
      <trkpt lat="44.35478" lon="2.84068">
        <ele>781</ele>
        <time>2013-03-07T12:47:27Z</time>
      </trkpt>
      <trkpt lat="44.35482" lon="2.84069">
        <ele>780</ele>
        <time>2013-03-07T12:47:35Z</time>
      </trkpt>
      <trkpt lat="44.35487" lon="2.84073">
        <ele>777</ele>
        <time>2013-03-07T12:47:40Z</time>
      </trkpt>
      <trkpt lat="44.3549" lon="2.84079">
        <ele>774</ele>
        <time>2013-03-07T12:47:55Z</time>
      </trkpt>
      <trkpt lat="44.35495" lon="2.84082">
        <ele>770</ele>
        <time>2013-03-07T12:48:06Z</time>
      </trkpt>
      <trkpt lat="44.35499" lon="2.84083">
        <ele>767</ele>
        <time>2013-03-07T12:48:10Z</time>
      </trkpt>
      <trkpt lat="44.35503" lon="2.84087">
        <ele>764</ele>
        <time>2013-03-07T12:48:21Z</time>
      </trkpt>
      <trkpt lat="44.35505" lon="2.84092">
        <ele>762</ele>
        <time>2013-03-07T12:48:31Z</time>
      </trkpt>
      <trkpt lat="44.35512" lon="2.84088">
        <ele>762</ele>
        <time>2013-03-07T12:48:42Z</time>
      </trkpt>
      <trkpt lat="44.35514" lon="2.84088">
        <ele>761</ele>
        <time>2013-03-07T12:48:50Z</time>
      </trkpt>
      <trkpt lat="44.35524" lon="2.84079">
        <ele>768</ele>
        <time>2013-03-07T12:49:13Z</time>
      </trkpt>
      <trkpt lat="44.35522" lon="2.84067">
        <ele>769</ele>
        <time>2013-03-07T12:49:51Z</time>
      </trkpt>
      <trkpt lat="44.35522" lon="2.84071">
        <ele>768</ele>
        <time>2013-03-07T12:49:58Z</time>
      </trkpt>
      <trkpt lat="44.35525" lon="2.84076">
        <ele>768</ele>
        <time>2013-03-07T12:50:03Z</time>
      </trkpt>
      <trkpt lat="44.35529" lon="2.84079">
        <ele>768</ele>
        <time>2013-03-07T12:50:11Z</time>
      </trkpt>
      <trkpt lat="44.35532" lon="2.8408">
        <ele>768</ele>
        <time>2013-03-07T12:50:18Z</time>
      </trkpt>
      <trkpt lat="44.35538" lon="2.84076">
        <ele>768</ele>
        <time>2013-03-07T12:50:28Z</time>
      </trkpt>
      <trkpt lat="44.3554" lon="2.84077">
        <ele>768</ele>
        <time>2013-03-07T12:50:41Z</time>
      </trkpt>
      <trkpt lat="44.35537" lon="2.84082">
        <ele>768</ele>
        <time>2013-03-07T12:50:52Z</time>
      </trkpt>
      <trkpt lat="44.35532" lon="2.84081">
        <ele>768</ele>
        <time>2013-03-07T12:51:04Z</time>
      </trkpt>
      <trkpt lat="44.35529" lon="2.84085">
        <ele>759</ele>
        <time>2013-03-07T12:51:12Z</time>
      </trkpt>
      <trkpt lat="44.35524" lon="2.84088">
        <ele>760</ele>
        <time>2013-03-07T12:51:19Z</time>
      </trkpt>
      <trkpt lat="44.3552" lon="2.8409">
        <ele>760</ele>
        <time>2013-03-07T12:51:24Z</time>
      </trkpt>
      <trkpt lat="44.35514" lon="2.84093">
        <ele>761</ele>
        <time>2013-03-07T12:51:30Z</time>
      </trkpt>
      <trkpt lat="44.35509" lon="2.84094">
        <ele>761</ele>
        <time>2013-03-07T12:51:35Z</time>
      </trkpt>
      <trkpt lat="44.35504" lon="2.84096">
        <ele>762</ele>
        <time>2013-03-07T12:51:43Z</time>
      </trkpt>
      <trkpt lat="44.35499" lon="2.84095">
        <ele>770</ele>
        <time>2013-03-07T12:51:46Z</time>
      </trkpt>
      <trkpt lat="44.35491" lon="2.84095">
        <ele>771</ele>
        <time>2013-03-07T12:51:50Z</time>
      </trkpt>
      <trkpt lat="44.35486" lon="2.84092">
        <ele>772</ele>
        <time>2013-03-07T12:51:54Z</time>
      </trkpt>
      <trkpt lat="44.35487" lon="2.84092">
        <ele>771</ele>
        <time>2013-03-07T12:52:13Z</time>
      </trkpt>
      <trkpt lat="44.35486" lon="2.84084">
        <ele>771</ele>
        <time>2013-03-07T12:52:40Z</time>
      </trkpt>
      <trkpt lat="44.35484" lon="2.84091">
        <ele>772</ele>
        <time>2013-03-07T12:52:45Z</time>
      </trkpt>
      <trkpt lat="44.35482" lon="2.84097">
        <ele>773</ele>
        <time>2013-03-07T12:52:48Z</time>
      </trkpt>
      <trkpt lat="44.35485" lon="2.84102">
        <ele>773</ele>
        <time>2013-03-07T12:52:53Z</time>
      </trkpt>
      <trkpt lat="44.35486" lon="2.84108">
        <ele>774</ele>
        <time>2013-03-07T12:53:00Z</time>
      </trkpt>
      <trkpt lat="44.35488" lon="2.84115">
        <ele>774</ele>
        <time>2013-03-07T12:53:05Z</time>
      </trkpt>
      <trkpt lat="44.35487" lon="2.84122">
        <ele>775</ele>
        <time>2013-03-07T12:53:14Z</time>
      </trkpt>
      <trkpt lat="44.35485" lon="2.84123">
        <ele>775</ele>
        <time>2013-03-07T12:53:30Z</time>
      </trkpt>
      <trkpt lat="44.35481" lon="2.84124">
        <ele>775</ele>
        <time>2013-03-07T12:53:45Z</time>
      </trkpt>
      <trkpt lat="44.35477" lon="2.84126">
        <ele>776</ele>
        <time>2013-03-07T12:53:57Z</time>
      </trkpt>
      <trkpt lat="44.35472" lon="2.84129">
        <ele>777</ele>
        <time>2013-03-07T12:54:05Z</time>
      </trkpt>
      <trkpt lat="44.35467" lon="2.84137">
        <ele>777</ele>
        <time>2013-03-07T12:54:39Z</time>
      </trkpt>
      <trkpt lat="44.35464" lon="2.84143">
        <ele>778</ele>
        <time>2013-03-07T12:54:43Z</time>
      </trkpt>
      <trkpt lat="44.35461" lon="2.84148">
        <ele>779</ele>
        <time>2013-03-07T12:54:48Z</time>
      </trkpt>
      <trkpt lat="44.35458" lon="2.84172">
        <ele>782</ele>
        <time>2013-03-07T12:56:19Z</time>
      </trkpt>
      <trkpt lat="44.35454" lon="2.84167">
        <ele>783</ele>
        <time>2013-03-07T12:56:28Z</time>
      </trkpt>
      <trkpt lat="44.35453" lon="2.84161">
        <ele>781</ele>
        <time>2013-03-07T12:56:37Z</time>
      </trkpt>
      <trkpt lat="44.35449" lon="2.84168">
        <ele>784</ele>
        <time>2013-03-07T12:57:22Z</time>
      </trkpt>
      <trkpt lat="44.35444" lon="2.8417">
        <ele>786</ele>
        <time>2013-03-07T12:57:34Z</time>
      </trkpt>
      <trkpt lat="44.35441" lon="2.84166">
        <ele>785</ele>
        <time>2013-03-07T12:57:49Z</time>
      </trkpt>
      <trkpt lat="44.35434" lon="2.84167">
        <ele>788</ele>
        <time>2013-03-07T12:58:01Z</time>
      </trkpt>
      <trkpt lat="44.35428" lon="2.84167">
        <ele>792</ele>
        <time>2013-03-07T12:58:08Z</time>
      </trkpt>
      <trkpt lat="44.35425" lon="2.84164">
        <ele>792</ele>
        <time>2013-03-07T12:58:17Z</time>
      </trkpt>
      <trkpt lat="44.35432" lon="2.84167">
        <ele>790</ele>
        <time>2013-03-07T12:59:51Z</time>
      </trkpt>
      <trkpt lat="44.35436" lon="2.84162">
        <ele>787</ele>
        <time>2013-03-07T12:59:56Z</time>
      </trkpt>
      <trkpt lat="44.35437" lon="2.84157">
        <ele>786</ele>
        <time>2013-03-07T13:00:27Z</time>
      </trkpt>
      <trkpt lat="44.35439" lon="2.8415">
        <ele>784</ele>
        <time>2013-03-07T13:00:30Z</time>
      </trkpt>
      <trkpt lat="44.35435" lon="2.84145">
        <ele>785</ele>
        <time>2013-03-07T13:00:32Z</time>
      </trkpt>
      <trkpt lat="44.35432" lon="2.84139">
        <ele>785</ele>
        <time>2013-03-07T13:00:36Z</time>
      </trkpt>
      <trkpt lat="44.35429" lon="2.84133">
        <ele>784</ele>
        <time>2013-03-07T13:00:47Z</time>
      </trkpt>
      <trkpt lat="44.35424" lon="2.84128">
        <ele>785</ele>
        <time>2013-03-07T13:00:51Z</time>
      </trkpt>
      <trkpt lat="44.35419" lon="2.84124">
        <ele>785</ele>
        <time>2013-03-07T13:00:55Z</time>
      </trkpt>
      <trkpt lat="44.35415" lon="2.84122">
        <ele>806</ele>
        <time>2013-03-07T13:00:59Z</time>
      </trkpt>
      <trkpt lat="44.3541" lon="2.8411">
        <ele>805</ele>
        <time>2013-03-07T13:01:52Z</time>
      </trkpt>
      <trkpt lat="44.35405" lon="2.84109">
        <ele>805</ele>
        <time>2013-03-07T13:01:55Z</time>
      </trkpt>
      <trkpt lat="44.35399" lon="2.84109">
        <ele>807</ele>
        <time>2013-03-07T13:01:57Z</time>
      </trkpt>
      <trkpt lat="44.35386" lon="2.84114">
        <ele>810</ele>
        <time>2013-03-07T13:02:31Z</time>
      </trkpt>
      <trkpt lat="44.3538" lon="2.84111">
        <ele>811</ele>
        <time>2013-03-07T13:02:34Z</time>
      </trkpt>
      <trkpt lat="44.35376" lon="2.84108">
        <ele>812</ele>
        <time>2013-03-07T13:02:41Z</time>
      </trkpt>
      <trkpt lat="44.35375" lon="2.84106">
        <ele>812</ele>
        <time>2013-03-07T13:02:53Z</time>
      </trkpt>
      <trkpt lat="44.35374" lon="2.84103">
        <ele>812</ele>
        <time>2013-03-07T13:03:09Z</time>
      </trkpt>
      <trkpt lat="44.35369" lon="2.841">
        <ele>813</ele>
        <time>2013-03-07T13:03:13Z</time>
      </trkpt>
      <trkpt lat="44.35365" lon="2.84096">
        <ele>815</ele>
        <time>2013-03-07T13:03:17Z</time>
      </trkpt>
      <trkpt lat="44.35366" lon="2.84092">
        <ele>814</ele>
        <time>2013-03-07T13:03:25Z</time>
      </trkpt>
      <trkpt lat="44.35361" lon="2.84091">
        <ele>816</ele>
        <time>2013-03-07T13:03:37Z</time>
      </trkpt>
      <trkpt lat="44.35358" lon="2.84091">
        <ele>817</ele>
        <time>2013-03-07T13:03:58Z</time>
      </trkpt>
      <trkpt lat="44.35363" lon="2.8409">
        <ele>815</ele>
        <time>2013-03-07T13:04:03Z</time>
      </trkpt>
      <trkpt lat="44.35362" lon="2.84093">
        <ele>815</ele>
        <time>2013-03-07T13:04:12Z</time>
      </trkpt>
      <trkpt lat="44.3536" lon="2.84087">
        <ele>816</ele>
        <time>2013-03-07T13:04:19Z</time>
      </trkpt>
      <trkpt lat="44.35361" lon="2.8408">
        <ele>820</ele>
        <time>2013-03-07T13:04:25Z</time>
      </trkpt>
      <trkpt lat="44.35358" lon="2.84074">
        <ele>820</ele>
        <time>2013-03-07T13:04:33Z</time>
      </trkpt>
      <trkpt lat="44.35355" lon="2.8407">
        <ele>821</ele>
        <time>2013-03-07T13:04:41Z</time>
      </trkpt>
      <trkpt lat="44.3535" lon="2.84068">
        <ele>822</ele>
        <time>2013-03-07T13:04:46Z</time>
      </trkpt>
      <trkpt lat="44.35349" lon="2.84062">
        <ele>822</ele>
        <time>2013-03-07T13:05:05Z</time>
      </trkpt>
      <trkpt lat="44.35346" lon="2.84055">
        <ele>823</ele>
        <time>2013-03-07T13:05:10Z</time>
      </trkpt>
      <trkpt lat="44.35344" lon="2.84052">
        <ele>823</ele>
        <time>2013-03-07T13:05:19Z</time>
      </trkpt>
      <trkpt lat="44.35337" lon="2.8405">
        <ele>824</ele>
        <time>2013-03-07T13:05:32Z</time>
      </trkpt>
      <trkpt lat="44.35333" lon="2.84047">
        <ele>844</ele>
        <time>2013-03-07T13:05:35Z</time>
      </trkpt>
      <trkpt lat="44.35327" lon="2.84046">
        <ele>845</ele>
        <time>2013-03-07T13:05:42Z</time>
      </trkpt>
      <trkpt lat="44.35327" lon="2.84051">
        <ele>844</ele>
        <time>2013-03-07T13:05:47Z</time>
      </trkpt>
      <trkpt lat="44.35321" lon="2.84049">
        <ele>845</ele>
        <time>2013-03-07T13:05:54Z</time>
      </trkpt>
      <trkpt lat="44.35318" lon="2.84042">
        <ele>847</ele>
        <time>2013-03-07T13:06:07Z</time>
      </trkpt>
      <trkpt lat="44.35316" lon="2.84046">
        <ele>847</ele>
        <time>2013-03-07T13:06:17Z</time>
      </trkpt>
      <trkpt lat="44.35319" lon="2.84049">
        <ele>846</ele>
        <time>2013-03-07T13:06:23Z</time>
      </trkpt>
      <trkpt lat="44.35323" lon="2.84048">
        <ele>845</ele>
        <time>2013-03-07T13:06:31Z</time>
      </trkpt>
      <trkpt lat="44.35321" lon="2.84046">
        <ele>846</ele>
        <time>2013-03-07T13:06:37Z</time>
      </trkpt>
      <trkpt lat="44.35318" lon="2.84044">
        <ele>847</ele>
        <time>2013-03-07T13:06:42Z</time>
      </trkpt>
      <trkpt lat="44.35317" lon="2.84041">
        <ele>847</ele>
        <time>2013-03-07T13:06:50Z</time>
      </trkpt>
      <trkpt lat="44.35314" lon="2.84037">
        <ele>848</ele>
        <time>2013-03-07T13:06:57Z</time>
      </trkpt>
      <trkpt lat="44.3532" lon="2.84031">
        <ele>848</ele>
        <time>2013-03-07T13:07:09Z</time>
      </trkpt>
      <trkpt lat="44.35315" lon="2.84027">
        <ele>849</ele>
        <time>2013-03-07T13:07:13Z</time>
      </trkpt>
      <trkpt lat="44.35309" lon="2.84027">
        <ele>849</ele>
        <time>2013-03-07T13:07:17Z</time>
      </trkpt>
      <trkpt lat="44.35306" lon="2.84022">
        <ele>850</ele>
        <time>2013-03-07T13:07:21Z</time>
      </trkpt>
      <trkpt lat="44.35305" lon="2.84018">
        <ele>850</ele>
        <time>2013-03-07T13:07:30Z</time>
      </trkpt>
      <trkpt lat="44.35305" lon="2.84011">
        <ele>851</ele>
        <time>2013-03-07T13:07:36Z</time>
      </trkpt>
      <trkpt lat="44.35304" lon="2.84005">
        <ele>851</ele>
        <time>2013-03-07T13:07:46Z</time>
      </trkpt>
      <trkpt lat="44.353" lon="2.84003">
        <ele>852</ele>
        <time>2013-03-07T13:07:54Z</time>
      </trkpt>
      <trkpt lat="44.35295" lon="2.83998">
        <ele>863</ele>
        <time>2013-03-07T13:08:01Z</time>
      </trkpt>
      <trkpt lat="44.3529" lon="2.83996">
        <ele>864</ele>
        <time>2013-03-07T13:08:11Z</time>
      </trkpt>
      <trkpt lat="44.35284" lon="2.83995">
        <ele>866</ele>
        <time>2013-03-07T13:08:18Z</time>
      </trkpt>
      <trkpt lat="44.35278" lon="2.83996">
        <ele>867</ele>
        <time>2013-03-07T13:08:24Z</time>
      </trkpt>
      <trkpt lat="44.35272" lon="2.83996">
        <ele>869</ele>
        <time>2013-03-07T13:08:26Z</time>
      </trkpt>
      <trkpt lat="44.35267" lon="2.83996">
        <ele>870</ele>
        <time>2013-03-07T13:08:30Z</time>
      </trkpt>
      <trkpt lat="44.35262" lon="2.83996">
        <ele>871</ele>
        <time>2013-03-07T13:08:34Z</time>
      </trkpt>
      <trkpt lat="44.35256" lon="2.83996">
        <ele>872</ele>
        <time>2013-03-07T13:08:40Z</time>
      </trkpt>
      <trkpt lat="44.35251" lon="2.83993">
        <ele>872</ele>
        <time>2013-03-07T13:08:45Z</time>
      </trkpt>
      <trkpt lat="44.35245" lon="2.83993">
        <ele>875</ele>
        <time>2013-03-07T13:08:49Z</time>
      </trkpt>
      <trkpt lat="44.3524" lon="2.83992">
        <ele>876</ele>
        <time>2013-03-07T13:08:52Z</time>
      </trkpt>
      <trkpt lat="44.35235" lon="2.8399">
        <ele>877</ele>
        <time>2013-03-07T13:08:59Z</time>
      </trkpt>
      <trkpt lat="44.3523" lon="2.83988">
        <ele>877</ele>
        <time>2013-03-07T13:09:05Z</time>
      </trkpt>
      <trkpt lat="44.35226" lon="2.83988">
        <ele>877</ele>
        <time>2013-03-07T13:09:16Z</time>
      </trkpt>
      <trkpt lat="44.3522" lon="2.83989">
        <ele>877</ele>
        <time>2013-03-07T13:09:23Z</time>
      </trkpt>
      <trkpt lat="44.35216" lon="2.83992">
        <ele>877</ele>
        <time>2013-03-07T13:09:28Z</time>
      </trkpt>
      <trkpt lat="44.35211" lon="2.83997">
        <ele>877</ele>
        <time>2013-03-07T13:09:32Z</time>
      </trkpt>
      <trkpt lat="44.35207" lon="2.84002">
        <ele>874</ele>
        <time>2013-03-07T13:09:46Z</time>
      </trkpt>
      <trkpt lat="44.35202" lon="2.84004">
        <ele>875</ele>
        <time>2013-03-07T13:09:53Z</time>
      </trkpt>
      <trkpt lat="44.352" lon="2.8401">
        <ele>875</ele>
        <time>2013-03-07T13:10:07Z</time>
      </trkpt>
      <trkpt lat="44.35204" lon="2.84015">
        <ele>874</ele>
        <time>2013-03-07T13:10:13Z</time>
      </trkpt>
      <trkpt lat="44.35205" lon="2.84021">
        <ele>874</ele>
        <time>2013-03-07T13:10:18Z</time>
      </trkpt>
      <trkpt lat="44.35207" lon="2.84028">
        <ele>874</ele>
        <time>2013-03-07T13:10:24Z</time>
      </trkpt>
      <trkpt lat="44.3521" lon="2.84034">
        <ele>873</ele>
        <time>2013-03-07T13:10:26Z</time>
      </trkpt>
      <trkpt lat="44.3521" lon="2.84041">
        <ele>873</ele>
        <time>2013-03-07T13:10:29Z</time>
      </trkpt>
      <trkpt lat="44.3521" lon="2.84049">
        <ele>873</ele>
        <time>2013-03-07T13:10:36Z</time>
      </trkpt>
      <trkpt lat="44.35209" lon="2.84056">
        <ele>873</ele>
        <time>2013-03-07T13:10:41Z</time>
      </trkpt>
      <trkpt lat="44.35207" lon="2.84064">
        <ele>873</ele>
        <time>2013-03-07T13:10:45Z</time>
      </trkpt>
      <trkpt lat="44.35203" lon="2.8407">
        <ele>873</ele>
        <time>2013-03-07T13:10:48Z</time>
      </trkpt>
      <trkpt lat="44.352" lon="2.84077">
        <ele>873</ele>
        <time>2013-03-07T13:10:52Z</time>
      </trkpt>
      <trkpt lat="44.35196" lon="2.84082">
        <ele>874</ele>
        <time>2013-03-07T13:10:59Z</time>
      </trkpt>
      <trkpt lat="44.35191" lon="2.84084">
        <ele>873</ele>
        <time>2013-03-07T13:11:08Z</time>
      </trkpt>
      <trkpt lat="44.35179" lon="2.84087">
        <ele>875</ele>
        <time>2013-03-07T13:11:54Z</time>
      </trkpt>
      <trkpt lat="44.35176" lon="2.84092">
        <ele>875</ele>
        <time>2013-03-07T13:12:00Z</time>
      </trkpt>
      <trkpt lat="44.35175" lon="2.84099">
        <ele>875</ele>
        <time>2013-03-07T13:12:06Z</time>
      </trkpt>
      <trkpt lat="44.35174" lon="2.84106">
        <ele>874</ele>
        <time>2013-03-07T13:12:13Z</time>
      </trkpt>
      <trkpt lat="44.35175" lon="2.84114">
        <ele>874</ele>
        <time>2013-03-07T13:12:17Z</time>
      </trkpt>
      <trkpt lat="44.35177" lon="2.84121">
        <ele>873</ele>
        <time>2013-03-07T13:12:22Z</time>
      </trkpt>
      <trkpt lat="44.35179" lon="2.84129">
        <ele>873</ele>
        <time>2013-03-07T13:12:28Z</time>
      </trkpt>
      <trkpt lat="44.35182" lon="2.84136">
        <ele>873</ele>
        <time>2013-03-07T13:12:32Z</time>
      </trkpt>
      <trkpt lat="44.35185" lon="2.84143">
        <ele>873</ele>
        <time>2013-03-07T13:12:36Z</time>
      </trkpt>
      <trkpt lat="44.35188" lon="2.84149">
        <ele>873</ele>
        <time>2013-03-07T13:12:40Z</time>
      </trkpt>
      <trkpt lat="44.35192" lon="2.84156">
        <ele>873</ele>
        <time>2013-03-07T13:12:43Z</time>
      </trkpt>
      <trkpt lat="44.35195" lon="2.84162">
        <ele>873</ele>
        <time>2013-03-07T13:12:45Z</time>
      </trkpt>
      <trkpt lat="44.35198" lon="2.84169">
        <ele>874</ele>
        <time>2013-03-07T13:12:51Z</time>
      </trkpt>
      <trkpt lat="44.35202" lon="2.84175">
        <ele>874</ele>
        <time>2013-03-07T13:12:55Z</time>
      </trkpt>
      <trkpt lat="44.35205" lon="2.84182">
        <ele>873</ele>
        <time>2013-03-07T13:13:00Z</time>
      </trkpt>
      <trkpt lat="44.35206" lon="2.84189">
        <ele>873</ele>
        <time>2013-03-07T13:13:12Z</time>
      </trkpt>
      <trkpt lat="44.35209" lon="2.84197">
        <ele>873</ele>
        <time>2013-03-07T13:13:22Z</time>
      </trkpt>
      <trkpt lat="44.35211" lon="2.84198">
        <ele>873</ele>
        <time>2013-03-07T13:13:34Z</time>
      </trkpt>
      <trkpt lat="44.35217" lon="2.84201">
        <ele>873</ele>
        <time>2013-03-07T13:13:39Z</time>
      </trkpt>
      <trkpt lat="44.3522" lon="2.84207">
        <ele>873</ele>
        <time>2013-03-07T13:13:45Z</time>
      </trkpt>
      <trkpt lat="44.35225" lon="2.84213">
        <ele>873</ele>
        <time>2013-03-07T13:13:47Z</time>
      </trkpt>
      <trkpt lat="44.3523" lon="2.84219">
        <ele>872</ele>
        <time>2013-03-07T13:13:49Z</time>
      </trkpt>
      <trkpt lat="44.35234" lon="2.84225">
        <ele>872</ele>
        <time>2013-03-07T13:13:52Z</time>
      </trkpt>
      <trkpt lat="44.35238" lon="2.84231">
        <ele>872</ele>
        <time>2013-03-07T13:13:53Z</time>
      </trkpt>
      <trkpt lat="44.35242" lon="2.84239">
        <ele>871</ele>
        <time>2013-03-07T13:13:56Z</time>
      </trkpt>
      <trkpt lat="44.35246" lon="2.84247">
        <ele>871</ele>
        <time>2013-03-07T13:13:57Z</time>
      </trkpt>
      <trkpt lat="44.35249" lon="2.84255">
        <ele>870</ele>
        <time>2013-03-07T13:14:00Z</time>
      </trkpt>
      <trkpt lat="44.35252" lon="2.84263">
        <ele>862</ele>
        <time>2013-03-07T13:14:02Z</time>
      </trkpt>
      <trkpt lat="44.35257" lon="2.84269">
        <ele>859</ele>
        <time>2013-03-07T13:14:13Z</time>
      </trkpt>
      <trkpt lat="44.35258" lon="2.84278">
        <ele>857</ele>
        <time>2013-03-07T13:14:24Z</time>
      </trkpt>
      <trkpt lat="44.35256" lon="2.84293">
        <ele>854</ele>
        <time>2013-03-07T13:14:54Z</time>
      </trkpt>
      <trkpt lat="44.35261" lon="2.84299">
        <ele>853</ele>
        <time>2013-03-07T13:15:07Z</time>
      </trkpt>
      <trkpt lat="44.35264" lon="2.84302">
        <ele>853</ele>
        <time>2013-03-07T13:15:14Z</time>
      </trkpt>
      <trkpt lat="44.35272" lon="2.84309">
        <ele>852</ele>
        <time>2013-03-07T13:16:02Z</time>
      </trkpt>
      <trkpt lat="44.35277" lon="2.84306">
        <ele>851</ele>
        <time>2013-03-07T13:16:08Z</time>
      </trkpt>
      <trkpt lat="44.35283" lon="2.84302">
        <ele>851</ele>
        <time>2013-03-07T13:16:12Z</time>
      </trkpt>
      <trkpt lat="44.35285" lon="2.84302">
        <ele>850</ele>
        <time>2013-03-07T13:16:20Z</time>
      </trkpt>
      <trkpt lat="44.3529" lon="2.84302">
        <ele>850</ele>
        <time>2013-03-07T13:16:47Z</time>
      </trkpt>
      <trkpt lat="44.35289" lon="2.84278">
        <ele>852</ele>
        <time>2013-03-07T13:17:33Z</time>
      </trkpt>
      <trkpt lat="44.35296" lon="2.84278">
        <ele>851</ele>
        <time>2013-03-07T13:17:41Z</time>
      </trkpt>
      <trkpt lat="44.35302" lon="2.84275">
        <ele>850</ele>
        <time>2013-03-07T13:17:44Z</time>
      </trkpt>
      <trkpt lat="44.35307" lon="2.84272">
        <ele>849</ele>
        <time>2013-03-07T13:17:45Z</time>
      </trkpt>
      <trkpt lat="44.35312" lon="2.84267">
        <ele>848</ele>
        <time>2013-03-07T13:17:49Z</time>
      </trkpt>
      <trkpt lat="44.35318" lon="2.84262">
        <ele>847</ele>
        <time>2013-03-07T13:17:52Z</time>
      </trkpt>
      <trkpt lat="44.35324" lon="2.84255">
        <ele>846</ele>
        <time>2013-03-07T13:17:55Z</time>
      </trkpt>
      <trkpt lat="44.35328" lon="2.84248">
        <ele>845</ele>
        <time>2013-03-07T13:17:56Z</time>
      </trkpt>
      <trkpt lat="44.35334" lon="2.84241">
        <ele>836</ele>
        <time>2013-03-07T13:17:59Z</time>
      </trkpt>
      <trkpt lat="44.35339" lon="2.84236">
        <ele>833</ele>
        <time>2013-03-07T13:18:01Z</time>
      </trkpt>
      <trkpt lat="44.35346" lon="2.84236">
        <ele>830</ele>
        <time>2013-03-07T13:18:04Z</time>
      </trkpt>
      <trkpt lat="44.35352" lon="2.84238">
        <ele>829</ele>
        <time>2013-03-07T13:18:08Z</time>
      </trkpt>
      <trkpt lat="44.35358" lon="2.84239">
        <ele>827</ele>
        <time>2013-03-07T13:18:11Z</time>
      </trkpt>
      <trkpt lat="44.35362" lon="2.84242">
        <ele>825</ele>
        <time>2013-03-07T13:18:13Z</time>
      </trkpt>
      <trkpt lat="44.35364" lon="2.84241">
        <ele>825</ele>
        <time>2013-03-07T13:18:24Z</time>
      </trkpt>
      <trkpt lat="44.35368" lon="2.84242">
        <ele>823</ele>
        <time>2013-03-07T13:18:39Z</time>
      </trkpt>
      <trkpt lat="44.35372" lon="2.84247">
        <ele>822</ele>
        <time>2013-03-07T13:18:46Z</time>
      </trkpt>
      <trkpt lat="44.35378" lon="2.84251">
        <ele>821</ele>
        <time>2013-03-07T13:18:50Z</time>
      </trkpt>
      <trkpt lat="44.35379" lon="2.84254">
        <ele>821</ele>
        <time>2013-03-07T13:19:22Z</time>
      </trkpt>
      <trkpt lat="44.35376" lon="2.8426">
        <ele>822</ele>
        <time>2013-03-07T13:19:29Z</time>
      </trkpt>
      <trkpt lat="44.35373" lon="2.84266">
        <ele>822</ele>
        <time>2013-03-07T13:19:37Z</time>
      </trkpt>
      <trkpt lat="44.3537" lon="2.84269">
        <ele>823</ele>
        <time>2013-03-07T13:19:47Z</time>
      </trkpt>
      <trkpt lat="44.35368" lon="2.84276">
        <ele>823</ele>
        <time>2013-03-07T13:19:56Z</time>
      </trkpt>
      <trkpt lat="44.35364" lon="2.8428">
        <ele>824</ele>
        <time>2013-03-07T13:20:03Z</time>
      </trkpt>
      <trkpt lat="44.35359" lon="2.84283">
        <ele>825</ele>
        <time>2013-03-07T13:20:11Z</time>
      </trkpt>
      <trkpt lat="44.35355" lon="2.84287">
        <ele>825</ele>
        <time>2013-03-07T13:20:20Z</time>
      </trkpt>
      <trkpt lat="44.35353" lon="2.84294">
        <ele>825</ele>
        <time>2013-03-07T13:20:31Z</time>
      </trkpt>
      <trkpt lat="44.3535" lon="2.84299">
        <ele>825</ele>
        <time>2013-03-07T13:20:37Z</time>
      </trkpt>
      <trkpt lat="44.35347" lon="2.84305">
        <ele>826</ele>
        <time>2013-03-07T13:20:42Z</time>
      </trkpt>
      <trkpt lat="44.35343" lon="2.84312">
        <ele>826</ele>
        <time>2013-03-07T13:20:46Z</time>
      </trkpt>
      <trkpt lat="44.35341" lon="2.84318">
        <ele>828</ele>
        <time>2013-03-07T13:20:50Z</time>
      </trkpt>
      <trkpt lat="44.35338" lon="2.84326">
        <ele>829</ele>
        <time>2013-03-07T13:20:54Z</time>
      </trkpt>
      <trkpt lat="44.35337" lon="2.84332">
        <ele>831</ele>
        <time>2013-03-07T13:21:01Z</time>
      </trkpt>
      <trkpt lat="44.35336" lon="2.84338">
        <ele>828</ele>
        <time>2013-03-07T13:21:13Z</time>
      </trkpt>
      <trkpt lat="44.35332" lon="2.84341">
        <ele>833</ele>
        <time>2013-03-07T13:21:17Z</time>
      </trkpt>
      <trkpt lat="44.35327" lon="2.84345">
        <ele>833</ele>
        <time>2013-03-07T13:21:32Z</time>
      </trkpt>
      <trkpt lat="44.35329" lon="2.8435">
        <ele>833</ele>
        <time>2013-03-07T13:21:40Z</time>
      </trkpt>
      <trkpt lat="44.35334" lon="2.84354">
        <ele>820</ele>
        <time>2013-03-07T13:21:44Z</time>
      </trkpt>
      <trkpt lat="44.35333" lon="2.84365">
        <ele>831</ele>
        <time>2013-03-07T13:22:12Z</time>
      </trkpt>
      <trkpt lat="44.35332" lon="2.84376">
        <ele>829</ele>
        <time>2013-03-07T13:22:49Z</time>
      </trkpt>
      <trkpt lat="44.3533" lon="2.84382">
        <ele>828</ele>
        <time>2013-03-07T13:22:53Z</time>
      </trkpt>
      <trkpt lat="44.35329" lon="2.84389">
        <ele>826</ele>
        <time>2013-03-07T13:23:00Z</time>
      </trkpt>
      <trkpt lat="44.35329" lon="2.84396">
        <ele>824</ele>
        <time>2013-03-07T13:23:06Z</time>
      </trkpt>
      <trkpt lat="44.35331" lon="2.84403">
        <ele>821</ele>
        <time>2013-03-07T13:23:10Z</time>
      </trkpt>
      <trkpt lat="44.35328" lon="2.84409">
        <ele>818</ele>
        <time>2013-03-07T13:23:20Z</time>
      </trkpt>
      <trkpt lat="44.35324" lon="2.84413">
        <ele>819</ele>
        <time>2013-03-07T13:23:25Z</time>
      </trkpt>
      <trkpt lat="44.35319" lon="2.84415">
        <ele>821</ele>
        <time>2013-03-07T13:23:29Z</time>
      </trkpt>
      <trkpt lat="44.35312" lon="2.84415">
        <ele>824</ele>
        <time>2013-03-07T13:23:32Z</time>
      </trkpt>
      <trkpt lat="44.35307" lon="2.84417">
        <ele>826</ele>
        <time>2013-03-07T13:23:37Z</time>
      </trkpt>
      <trkpt lat="44.35303" lon="2.84421">
        <ele>817</ele>
        <time>2013-03-07T13:23:40Z</time>
      </trkpt>
      <trkpt lat="44.35298" lon="2.84425">
        <ele>818</ele>
        <time>2013-03-07T13:23:43Z</time>
      </trkpt>
      <trkpt lat="44.35293" lon="2.84431">
        <ele>819</ele>
        <time>2013-03-07T13:23:48Z</time>
      </trkpt>
      <trkpt lat="44.35287" lon="2.84434">
        <ele>820</ele>
        <time>2013-03-07T13:23:55Z</time>
      </trkpt>
      <trkpt lat="44.35279" lon="2.84442">
        <ele>821</ele>
        <time>2013-03-07T13:24:14Z</time>
      </trkpt>
      <trkpt lat="44.35275" lon="2.84446">
        <ele>822</ele>
        <time>2013-03-07T13:24:18Z</time>
      </trkpt>
      <trkpt lat="44.35269" lon="2.8445">
        <ele>822</ele>
        <time>2013-03-07T13:24:22Z</time>
      </trkpt>
      <trkpt lat="44.35265" lon="2.84455">
        <ele>822</ele>
        <time>2013-03-07T13:24:25Z</time>
      </trkpt>
      <trkpt lat="44.35265" lon="2.84463">
        <ele>822</ele>
        <time>2013-03-07T13:24:29Z</time>
      </trkpt>
      <trkpt lat="44.35262" lon="2.84468">
        <ele>822</ele>
        <time>2013-03-07T13:24:34Z</time>
      </trkpt>
      <trkpt lat="44.35261" lon="2.84475">
        <ele>822</ele>
        <time>2013-03-07T13:24:46Z</time>
      </trkpt>
      <trkpt lat="44.35258" lon="2.84483">
        <ele>823</ele>
        <time>2013-03-07T13:24:49Z</time>
      </trkpt>
      <trkpt lat="44.35257" lon="2.8449">
        <ele>824</ele>
        <time>2013-03-07T13:24:53Z</time>
      </trkpt>
      <trkpt lat="44.35258" lon="2.84497">
        <ele>825</ele>
        <time>2013-03-07T13:24:56Z</time>
      </trkpt>
      <trkpt lat="44.35259" lon="2.84507">
        <ele>822</ele>
        <time>2013-03-07T13:24:57Z</time>
      </trkpt>
      <trkpt lat="44.35261" lon="2.84517">
        <ele>819</ele>
        <time>2013-03-07T13:25:00Z</time>
      </trkpt>
      <trkpt lat="44.35262" lon="2.84525">
        <ele>817</ele>
        <time>2013-03-07T13:25:01Z</time>
      </trkpt>
      <trkpt lat="44.35263" lon="2.84532">
        <ele>817</ele>
        <time>2013-03-07T13:25:04Z</time>
      </trkpt>
      <trkpt lat="44.35263" lon="2.84542">
        <ele>816</ele>
        <time>2013-03-07T13:25:15Z</time>
      </trkpt>
      <trkpt lat="44.35269" lon="2.84548">
        <ele>815</ele>
        <time>2013-03-07T13:25:19Z</time>
      </trkpt>
      <trkpt lat="44.35275" lon="2.84552">
        <ele>814</ele>
        <time>2013-03-07T13:25:20Z</time>
      </trkpt>
      <trkpt lat="44.35281" lon="2.84558">
        <ele>813</ele>
        <time>2013-03-07T13:25:23Z</time>
      </trkpt>
      <trkpt lat="44.35286" lon="2.84565">
        <ele>812</ele>
        <time>2013-03-07T13:25:24Z</time>
      </trkpt>
      <trkpt lat="44.3529" lon="2.84572">
        <ele>811</ele>
        <time>2013-03-07T13:25:27Z</time>
      </trkpt>
      <trkpt lat="44.35294" lon="2.84579">
        <ele>810</ele>
        <time>2013-03-07T13:25:28Z</time>
      </trkpt>
      <trkpt lat="44.35297" lon="2.84589">
        <ele>807</ele>
        <time>2013-03-07T13:25:31Z</time>
      </trkpt>
      <trkpt lat="44.35299" lon="2.84599">
        <ele>807</ele>
        <time>2013-03-07T13:25:32Z</time>
      </trkpt>
      <trkpt lat="44.35303" lon="2.84609">
        <ele>806</ele>
        <time>2013-03-07T13:25:35Z</time>
      </trkpt>
      <trkpt lat="44.35307" lon="2.84618">
        <ele>805</ele>
        <time>2013-03-07T13:25:36Z</time>
      </trkpt>
      <trkpt lat="44.35309" lon="2.84627">
        <ele>805</ele>
        <time>2013-03-07T13:25:39Z</time>
      </trkpt>
      <trkpt lat="44.35311" lon="2.84636">
        <ele>804</ele>
        <time>2013-03-07T13:25:40Z</time>
      </trkpt>
      <trkpt lat="44.35313" lon="2.84645">
        <ele>803</ele>
        <time>2013-03-07T13:25:43Z</time>
      </trkpt>
      <trkpt lat="44.35314" lon="2.84653">
        <ele>801</ele>
        <time>2013-03-07T13:25:44Z</time>
      </trkpt>
      <trkpt lat="44.35315" lon="2.8466">
        <ele>800</ele>
        <time>2013-03-07T13:25:47Z</time>
      </trkpt>
      <trkpt lat="44.35314" lon="2.84667">
        <ele>799</ele>
        <time>2013-03-07T13:25:48Z</time>
      </trkpt>
      <trkpt lat="44.35312" lon="2.84675">
        <ele>800</ele>
        <time>2013-03-07T13:25:51Z</time>
      </trkpt>
      <trkpt lat="44.35311" lon="2.84682">
        <ele>801</ele>
        <time>2013-03-07T13:25:54Z</time>
      </trkpt>
      <trkpt lat="44.35313" lon="2.84693">
        <ele>802</ele>
        <time>2013-03-07T13:25:56Z</time>
      </trkpt>
      <trkpt lat="44.35313" lon="2.847">
        <ele>803</ele>
        <time>2013-03-07T13:25:59Z</time>
      </trkpt>
      <trkpt lat="44.35315" lon="2.84702">
        <ele>803</ele>
        <time>2013-03-07T13:26:09Z</time>
      </trkpt>
      <trkpt lat="44.35317" lon="2.84695">
        <ele>802</ele>
        <time>2013-03-07T13:26:22Z</time>
      </trkpt>
      <trkpt lat="44.35324" lon="2.84694">
        <ele>801</ele>
        <time>2013-03-07T13:26:23Z</time>
      </trkpt>
      <trkpt lat="44.35333" lon="2.84692">
        <ele>799</ele>
        <time>2013-03-07T13:26:25Z</time>
      </trkpt>
      <trkpt lat="44.3534" lon="2.84692">
        <ele>787</ele>
        <time>2013-03-07T13:26:28Z</time>
      </trkpt>
      <trkpt lat="44.35346" lon="2.84691">
        <ele>787</ele>
        <time>2013-03-07T13:26:30Z</time>
      </trkpt>
      <trkpt lat="44.35353" lon="2.84689">
        <ele>786</ele>
        <time>2013-03-07T13:26:33Z</time>
      </trkpt>
      <trkpt lat="44.35359" lon="2.84688">
        <ele>786</ele>
        <time>2013-03-07T13:26:36Z</time>
      </trkpt>
      <trkpt lat="44.35364" lon="2.84687">
        <ele>786</ele>
        <time>2013-03-07T13:26:38Z</time>
      </trkpt>
      <trkpt lat="44.35371" lon="2.84688">
        <ele>785</ele>
        <time>2013-03-07T13:26:41Z</time>
      </trkpt>
      <trkpt lat="44.35377" lon="2.8469">
        <ele>785</ele>
        <time>2013-03-07T13:26:45Z</time>
      </trkpt>
      <trkpt lat="44.35384" lon="2.84693">
        <ele>784</ele>
        <time>2013-03-07T13:26:49Z</time>
      </trkpt>
      <trkpt lat="44.35389" lon="2.84695">
        <ele>784</ele>
        <time>2013-03-07T13:26:50Z</time>
      </trkpt>
      <trkpt lat="44.35396" lon="2.84697">
        <ele>783</ele>
        <time>2013-03-07T13:26:53Z</time>
      </trkpt>
      <trkpt lat="44.35402" lon="2.84696">
        <ele>783</ele>
        <time>2013-03-07T13:26:56Z</time>
      </trkpt>
      <trkpt lat="44.35408" lon="2.84693">
        <ele>782</ele>
        <time>2013-03-07T13:26:57Z</time>
      </trkpt>
      <trkpt lat="44.35414" lon="2.84691">
        <ele>781</ele>
        <time>2013-03-07T13:27:00Z</time>
      </trkpt>
      <trkpt lat="44.3542" lon="2.84688">
        <ele>776</ele>
        <time>2013-03-07T13:27:01Z</time>
      </trkpt>
      <trkpt lat="44.35426" lon="2.84683">
        <ele>776</ele>
        <time>2013-03-07T13:27:04Z</time>
      </trkpt>
      <trkpt lat="44.35433" lon="2.84675">
        <ele>775</ele>
        <time>2013-03-07T13:27:07Z</time>
      </trkpt>
      <trkpt lat="44.35438" lon="2.8467">
        <ele>775</ele>
        <time>2013-03-07T13:27:08Z</time>
      </trkpt>
      <trkpt lat="44.35443" lon="2.84668">
        <ele>775</ele>
        <time>2013-03-07T13:27:12Z</time>
      </trkpt>
      <trkpt lat="44.35448" lon="2.8467">
        <ele>776</ele>
        <time>2013-03-07T13:27:23Z</time>
      </trkpt>
      <trkpt lat="44.35449" lon="2.84678">
        <ele>776</ele>
        <time>2013-03-07T13:27:30Z</time>
      </trkpt>
      <trkpt lat="44.35452" lon="2.84686">
        <ele>777</ele>
        <time>2013-03-07T13:27:34Z</time>
      </trkpt>
      <trkpt lat="44.35454" lon="2.84692">
        <ele>777</ele>
        <time>2013-03-07T13:27:36Z</time>
      </trkpt>
      <trkpt lat="44.35456" lon="2.84701">
        <ele>778</ele>
        <time>2013-03-07T13:27:40Z</time>
      </trkpt>
      <trkpt lat="44.35457" lon="2.84708">
        <ele>779</ele>
        <time>2013-03-07T13:27:43Z</time>
      </trkpt>
      <trkpt lat="44.35458" lon="2.84717">
        <ele>779</ele>
        <time>2013-03-07T13:27:46Z</time>
      </trkpt>
      <trkpt lat="44.35459" lon="2.84725">
        <ele>780</ele>
        <time>2013-03-07T13:27:54Z</time>
      </trkpt>
      <trkpt lat="44.35461" lon="2.84732">
        <ele>781</ele>
        <time>2013-03-07T13:27:59Z</time>
      </trkpt>
      <trkpt lat="44.35463" lon="2.84739">
        <ele>781</ele>
        <time>2013-03-07T13:28:03Z</time>
      </trkpt>
      <trkpt lat="44.35464" lon="2.84746">
        <ele>781</ele>
        <time>2013-03-07T13:28:10Z</time>
      </trkpt>
      <trkpt lat="44.35466" lon="2.84753">
        <ele>791</ele>
        <time>2013-03-07T13:28:14Z</time>
      </trkpt>
      <trkpt lat="44.35467" lon="2.84761">
        <ele>792</ele>
        <time>2013-03-07T13:28:18Z</time>
      </trkpt>
      <trkpt lat="44.35467" lon="2.84767">
        <ele>792</ele>
        <time>2013-03-07T13:28:25Z</time>
      </trkpt>
      <trkpt lat="44.35473" lon="2.84771">
        <ele>792</ele>
        <time>2013-03-07T13:28:29Z</time>
      </trkpt>
      <trkpt lat="44.35477" lon="2.8477">
        <ele>791</ele>
        <time>2013-03-07T13:28:32Z</time>
      </trkpt>
      <trkpt lat="44.35483" lon="2.84768">
        <ele>791</ele>
        <time>2013-03-07T13:28:34Z</time>
      </trkpt>
      <trkpt lat="44.35489" lon="2.84768">
        <ele>790</ele>
        <time>2013-03-07T13:28:37Z</time>
      </trkpt>
      <trkpt lat="44.35494" lon="2.84769">
        <ele>790</ele>
        <time>2013-03-07T13:28:41Z</time>
      </trkpt>
      <trkpt lat="44.355" lon="2.8477">
        <ele>790</ele>
        <time>2013-03-07T13:28:45Z</time>
      </trkpt>
      <trkpt lat="44.35505" lon="2.84774">
        <ele>778</ele>
        <time>2013-03-07T13:28:51Z</time>
      </trkpt>
      <trkpt lat="44.35508" lon="2.8478">
        <ele>778</ele>
        <time>2013-03-07T13:28:55Z</time>
      </trkpt>
      <trkpt lat="44.35511" lon="2.84786">
        <ele>778</ele>
        <time>2013-03-07T13:28:57Z</time>
      </trkpt>
      <trkpt lat="44.35514" lon="2.84793">
        <ele>778</ele>
        <time>2013-03-07T13:29:01Z</time>
      </trkpt>
      <trkpt lat="44.35517" lon="2.848">
        <ele>778</ele>
        <time>2013-03-07T13:29:06Z</time>
      </trkpt>
      <trkpt lat="44.35519" lon="2.84806">
        <ele>778</ele>
        <time>2013-03-07T13:29:10Z</time>
      </trkpt>
      <trkpt lat="44.35521" lon="2.84814">
        <ele>779</ele>
        <time>2013-03-07T13:29:14Z</time>
      </trkpt>
      <trkpt lat="44.35523" lon="2.84822">
        <ele>780</ele>
        <time>2013-03-07T13:29:20Z</time>
      </trkpt>
      <trkpt lat="44.35526" lon="2.8483">
        <ele>779</ele>
        <time>2013-03-07T13:29:27Z</time>
      </trkpt>
      <trkpt lat="44.35531" lon="2.84835">
        <ele>781</ele>
        <time>2013-03-07T13:29:45Z</time>
      </trkpt>
      <trkpt lat="44.3553" lon="2.84834">
        <ele>781</ele>
        <time>2013-03-07T13:30:08Z</time>
      </trkpt>
      <trkpt lat="44.35529" lon="2.84841">
        <ele>781</ele>
        <time>2013-03-07T13:30:16Z</time>
      </trkpt>
      <trkpt lat="44.35527" lon="2.84849">
        <ele>782</ele>
        <time>2013-03-07T13:30:18Z</time>
      </trkpt>
      <trkpt lat="44.35527" lon="2.84857">
        <ele>781</ele>
        <time>2013-03-07T13:30:21Z</time>
      </trkpt>
      <trkpt lat="44.35529" lon="2.84866">
        <ele>781</ele>
        <time>2013-03-07T13:30:22Z</time>
      </trkpt>
      <trkpt lat="44.35531" lon="2.84874">
        <ele>780</ele>
        <time>2013-03-07T13:30:25Z</time>
      </trkpt>
      <trkpt lat="44.35535" lon="2.84881">
        <ele>780</ele>
        <time>2013-03-07T13:30:28Z</time>
      </trkpt>
      <trkpt lat="44.35538" lon="2.84888">
        <ele>779</ele>
        <time>2013-03-07T13:30:31Z</time>
      </trkpt>
      <trkpt lat="44.3554" lon="2.84894">
        <ele>779</ele>
        <time>2013-03-07T13:30:33Z</time>
      </trkpt>
      <trkpt lat="44.35542" lon="2.849">
        <ele>778</ele>
        <time>2013-03-07T13:30:55Z</time>
      </trkpt>
      <trkpt lat="44.35543" lon="2.84907">
        <ele>778</ele>
        <time>2013-03-07T13:31:03Z</time>
      </trkpt>
      <trkpt lat="44.35548" lon="2.84914">
        <ele>776</ele>
        <time>2013-03-07T13:31:07Z</time>
      </trkpt>
      <trkpt lat="44.35553" lon="2.84919">
        <ele>777</ele>
        <time>2013-03-07T13:31:08Z</time>
      </trkpt>
      <trkpt lat="44.3556" lon="2.84924">
        <ele>774</ele>
        <time>2013-03-07T13:31:11Z</time>
      </trkpt>
      <trkpt lat="44.35564" lon="2.84932">
        <ele>774</ele>
        <time>2013-03-07T13:31:12Z</time>
      </trkpt>
      <trkpt lat="44.35568" lon="2.84943">
        <ele>775</ele>
        <time>2013-03-07T13:31:15Z</time>
      </trkpt>
      <trkpt lat="44.35569" lon="2.84951">
        <ele>775</ele>
        <time>2013-03-07T13:31:18Z</time>
      </trkpt>
      <trkpt lat="44.35568" lon="2.84959">
        <ele>776</ele>
        <time>2013-03-07T13:31:22Z</time>
      </trkpt>
      <trkpt lat="44.35569" lon="2.84966">
        <ele>776</ele>
        <time>2013-03-07T13:31:26Z</time>
      </trkpt>
      <trkpt lat="44.35569" lon="2.84973">
        <ele>775</ele>
        <time>2013-03-07T13:31:30Z</time>
      </trkpt>
      <trkpt lat="44.35568" lon="2.84981">
        <ele>775</ele>
        <time>2013-03-07T13:31:34Z</time>
      </trkpt>
      <trkpt lat="44.35566" lon="2.84988">
        <ele>774</ele>
        <time>2013-03-07T13:31:41Z</time>
      </trkpt>
      <trkpt lat="44.35564" lon="2.84995">
        <ele>774</ele>
        <time>2013-03-07T13:31:45Z</time>
      </trkpt>
      <trkpt lat="44.35562" lon="2.85002">
        <ele>776</ele>
        <time>2013-03-07T13:31:48Z</time>
      </trkpt>
      <trkpt lat="44.3556" lon="2.8501">
        <ele>777</ele>
        <time>2013-03-07T13:31:52Z</time>
      </trkpt>
      <trkpt lat="44.35557" lon="2.85015">
        <ele>778</ele>
        <time>2013-03-07T13:31:56Z</time>
      </trkpt>
      <trkpt lat="44.35554" lon="2.85022">
        <ele>779</ele>
        <time>2013-03-07T13:32:04Z</time>
      </trkpt>
      <trkpt lat="44.35552" lon="2.85027">
        <ele>780</ele>
        <time>2013-03-07T13:32:09Z</time>
      </trkpt>
      <trkpt lat="44.35549" lon="2.85032">
        <ele>781</ele>
        <time>2013-03-07T13:32:15Z</time>
      </trkpt>
      <trkpt lat="44.35546" lon="2.85039">
        <ele>782</ele>
        <time>2013-03-07T13:32:20Z</time>
      </trkpt>
      <trkpt lat="44.35544" lon="2.85045">
        <ele>782</ele>
        <time>2013-03-07T13:32:24Z</time>
      </trkpt>
      <trkpt lat="44.35542" lon="2.85052">
        <ele>783</ele>
        <time>2013-03-07T13:32:32Z</time>
      </trkpt>
      <trkpt lat="44.3554" lon="2.85058">
        <ele>783</ele>
        <time>2013-03-07T13:32:37Z</time>
      </trkpt>
      <trkpt lat="44.35537" lon="2.85064">
        <ele>784</ele>
        <time>2013-03-07T13:32:43Z</time>
      </trkpt>
      <trkpt lat="44.35533" lon="2.8507">
        <ele>785</ele>
        <time>2013-03-07T13:32:48Z</time>
      </trkpt>
      <trkpt lat="44.35529" lon="2.85074">
        <ele>787</ele>
        <time>2013-03-07T13:32:52Z</time>
      </trkpt>
      <trkpt lat="44.35524" lon="2.85078">
        <ele>789</ele>
        <time>2013-03-07T13:32:56Z</time>
      </trkpt>
      <trkpt lat="44.3552" lon="2.85084">
        <ele>789</ele>
        <time>2013-03-07T13:33:00Z</time>
      </trkpt>
      <trkpt lat="44.35516" lon="2.8509">
        <ele>791</ele>
        <time>2013-03-07T13:33:04Z</time>
      </trkpt>
      <trkpt lat="44.35515" lon="2.85098">
        <ele>789</ele>
        <time>2013-03-07T13:33:09Z</time>
      </trkpt>
      <trkpt lat="44.35513" lon="2.85104">
        <ele>788</ele>
        <time>2013-03-07T13:33:14Z</time>
      </trkpt>
      <trkpt lat="44.35515" lon="2.8511">
        <ele>787</ele>
        <time>2013-03-07T13:33:18Z</time>
      </trkpt>
      <trkpt lat="44.35511" lon="2.85115">
        <ele>786</ele>
        <time>2013-03-07T13:33:23Z</time>
      </trkpt>
      <trkpt lat="44.35508" lon="2.85122">
        <ele>786</ele>
        <time>2013-03-07T13:33:29Z</time>
      </trkpt>
      <trkpt lat="44.35504" lon="2.85127">
        <ele>786</ele>
        <time>2013-03-07T13:33:34Z</time>
      </trkpt>
      <trkpt lat="44.355" lon="2.85133">
        <ele>809</ele>
        <time>2013-03-07T13:33:38Z</time>
      </trkpt>
      <trkpt lat="44.35496" lon="2.85139">
        <ele>808</ele>
        <time>2013-03-07T13:33:42Z</time>
      </trkpt>
      <trkpt lat="44.35492" lon="2.85144">
        <ele>808</ele>
        <time>2013-03-07T13:33:46Z</time>
      </trkpt>
      <trkpt lat="44.35489" lon="2.8515">
        <ele>807</ele>
        <time>2013-03-07T13:33:52Z</time>
      </trkpt>
      <trkpt lat="44.35485" lon="2.85155">
        <ele>807</ele>
        <time>2013-03-07T13:33:56Z</time>
      </trkpt>
      <trkpt lat="44.35481" lon="2.85161">
        <ele>807</ele>
        <time>2013-03-07T13:34:01Z</time>
      </trkpt>
      <trkpt lat="44.35479" lon="2.85169">
        <ele>805</ele>
        <time>2013-03-07T13:34:05Z</time>
      </trkpt>
      <trkpt lat="44.35475" lon="2.85174">
        <ele>806</ele>
        <time>2013-03-07T13:34:09Z</time>
      </trkpt>
      <trkpt lat="44.35471" lon="2.85179">
        <ele>808</ele>
        <time>2013-03-07T13:34:13Z</time>
      </trkpt>
      <trkpt lat="44.35467" lon="2.85184">
        <ele>809</ele>
        <time>2013-03-07T13:34:17Z</time>
      </trkpt>
      <trkpt lat="44.35464" lon="2.85191">
        <ele>810</ele>
        <time>2013-03-07T13:34:24Z</time>
      </trkpt>
      <trkpt lat="44.35461" lon="2.85198">
        <ele>810</ele>
        <time>2013-03-07T13:34:28Z</time>
      </trkpt>
      <trkpt lat="44.35457" lon="2.85203">
        <ele>811</ele>
        <time>2013-03-07T13:34:32Z</time>
      </trkpt>
      <trkpt lat="44.35453" lon="2.8521">
        <ele>811</ele>
        <time>2013-03-07T13:34:38Z</time>
      </trkpt>
      <trkpt lat="44.35449" lon="2.85217">
        <ele>812</ele>
        <time>2013-03-07T13:34:43Z</time>
      </trkpt>
      <trkpt lat="44.35446" lon="2.85224">
        <ele>813</ele>
        <time>2013-03-07T13:34:47Z</time>
      </trkpt>
      <trkpt lat="44.35441" lon="2.85229">
        <ele>814</ele>
        <time>2013-03-07T13:34:52Z</time>
      </trkpt>
      <trkpt lat="44.35437" lon="2.85235">
        <ele>815</ele>
        <time>2013-03-07T13:34:58Z</time>
      </trkpt>
      <trkpt lat="44.35433" lon="2.8524">
        <ele>817</ele>
        <time>2013-03-07T13:35:02Z</time>
      </trkpt>
      <trkpt lat="44.35428" lon="2.85244">
        <ele>820</ele>
        <time>2013-03-07T13:35:07Z</time>
      </trkpt>
      <trkpt lat="44.35424" lon="2.85249">
        <ele>822</ele>
        <time>2013-03-07T13:35:13Z</time>
      </trkpt>
      <trkpt lat="44.35419" lon="2.85252">
        <ele>823</ele>
        <time>2013-03-07T13:35:18Z</time>
      </trkpt>
      <trkpt lat="44.35415" lon="2.85257">
        <ele>828</ele>
        <time>2013-03-07T13:35:22Z</time>
      </trkpt>
      <trkpt lat="44.35411" lon="2.8526">
        <ele>829</ele>
        <time>2013-03-07T13:35:29Z</time>
      </trkpt>
      <trkpt lat="44.35408" lon="2.85267">
        <ele>830</ele>
        <time>2013-03-07T13:35:33Z</time>
      </trkpt>
      <trkpt lat="44.35404" lon="2.85273">
        <ele>831</ele>
        <time>2013-03-07T13:35:38Z</time>
      </trkpt>
      <trkpt lat="44.35399" lon="2.85276">
        <ele>832</ele>
        <time>2013-03-07T13:35:42Z</time>
      </trkpt>
      <trkpt lat="44.35395" lon="2.85282">
        <ele>832</ele>
        <time>2013-03-07T13:35:46Z</time>
      </trkpt>
      <trkpt lat="44.35393" lon="2.8529">
        <ele>832</ele>
        <time>2013-03-07T13:35:49Z</time>
      </trkpt>
      <trkpt lat="44.35389" lon="2.85297">
        <ele>832</ele>
        <time>2013-03-07T13:35:52Z</time>
      </trkpt>
      <trkpt lat="44.35386" lon="2.85306">
        <ele>832</ele>
        <time>2013-03-07T13:35:56Z</time>
      </trkpt>
      <trkpt lat="44.35383" lon="2.85314">
        <ele>832</ele>
        <time>2013-03-07T13:35:59Z</time>
      </trkpt>
      <trkpt lat="44.35379" lon="2.85316">
        <ele>832</ele>
        <time>2013-03-07T13:36:05Z</time>
      </trkpt>
      <trkpt lat="44.35378" lon="2.85311">
        <ele>833</ele>
        <time>2013-03-07T13:36:22Z</time>
      </trkpt>
      <trkpt lat="44.35379" lon="2.85317">
        <ele>832</ele>
        <time>2013-03-07T13:36:26Z</time>
      </trkpt>
      <trkpt lat="44.35376" lon="2.85323">
        <ele>833</ele>
        <time>2013-03-07T13:36:30Z</time>
      </trkpt>
      <trkpt lat="44.35374" lon="2.85329">
        <ele>833</ele>
        <time>2013-03-07T13:36:35Z</time>
      </trkpt>
      <trkpt lat="44.35368" lon="2.85328">
        <ele>834</ele>
        <time>2013-03-07T13:36:39Z</time>
      </trkpt>
      <trkpt lat="44.35362" lon="2.85329">
        <ele>835</ele>
        <time>2013-03-07T13:36:43Z</time>
      </trkpt>
      <trkpt lat="44.35358" lon="2.8533">
        <ele>836</ele>
        <time>2013-03-07T13:36:46Z</time>
      </trkpt>
      <trkpt lat="44.35352" lon="2.85332">
        <ele>836</ele>
        <time>2013-03-07T13:36:54Z</time>
      </trkpt>
      <trkpt lat="44.35347" lon="2.85335">
        <ele>831</ele>
        <time>2013-03-07T13:37:01Z</time>
      </trkpt>
      <trkpt lat="44.35342" lon="2.85338">
        <ele>833</ele>
        <time>2013-03-07T13:37:06Z</time>
      </trkpt>
      <trkpt lat="44.35338" lon="2.85341">
        <ele>833</ele>
        <time>2013-03-07T13:37:10Z</time>
      </trkpt>
      <trkpt lat="44.35332" lon="2.85344">
        <ele>835</ele>
        <time>2013-03-07T13:37:14Z</time>
      </trkpt>
      <trkpt lat="44.35327" lon="2.85344">
        <ele>835</ele>
        <time>2013-03-07T13:37:22Z</time>
      </trkpt>
      <trkpt lat="44.35322" lon="2.85344">
        <ele>834</ele>
        <time>2013-03-07T13:37:29Z</time>
      </trkpt>
      <trkpt lat="44.35316" lon="2.85343">
        <ele>833</ele>
        <time>2013-03-07T13:37:37Z</time>
      </trkpt>
      <trkpt lat="44.35311" lon="2.85342">
        <ele>832</ele>
        <time>2013-03-07T13:37:44Z</time>
      </trkpt>
      <trkpt lat="44.35306" lon="2.85341">
        <ele>832</ele>
        <time>2013-03-07T13:37:49Z</time>
      </trkpt>
      <trkpt lat="44.353" lon="2.85339">
        <ele>831</ele>
        <time>2013-03-07T13:37:55Z</time>
      </trkpt>
      <trkpt lat="44.35295" lon="2.85337">
        <ele>831</ele>
        <time>2013-03-07T13:38:00Z</time>
      </trkpt>
      <trkpt lat="44.35291" lon="2.85333">
        <ele>845</ele>
        <time>2013-03-07T13:38:05Z</time>
      </trkpt>
      <trkpt lat="44.35279" lon="2.85329">
        <ele>845</ele>
        <time>2013-03-07T13:38:59Z</time>
      </trkpt>
      <trkpt lat="44.35278" lon="2.85328">
        <ele>845</ele>
        <time>2013-03-07T13:39:24Z</time>
      </trkpt>
      <trkpt lat="44.35273" lon="2.85332">
        <ele>844</ele>
        <time>2013-03-07T13:39:27Z</time>
      </trkpt>
      <trkpt lat="44.35269" lon="2.85337">
        <ele>833</ele>
        <time>2013-03-07T13:39:29Z</time>
      </trkpt>
      <trkpt lat="44.35266" lon="2.85342">
        <ele>833</ele>
        <time>2013-03-07T13:39:32Z</time>
      </trkpt>
      <trkpt lat="44.35262" lon="2.85348">
        <ele>832</ele>
        <time>2013-03-07T13:39:36Z</time>
      </trkpt>
      <trkpt lat="44.35257" lon="2.85353">
        <ele>832</ele>
        <time>2013-03-07T13:39:40Z</time>
      </trkpt>
      <trkpt lat="44.35255" lon="2.8536">
        <ele>830</ele>
        <time>2013-03-07T13:39:45Z</time>
      </trkpt>
      <trkpt lat="44.35251" lon="2.85358">
        <ele>831</ele>
        <time>2013-03-07T13:39:54Z</time>
      </trkpt>
      <trkpt lat="44.35249" lon="2.85365">
        <ele>829</ele>
        <time>2013-03-07T13:40:08Z</time>
      </trkpt>
      <trkpt lat="44.35244" lon="2.85373">
        <ele>827</ele>
        <time>2013-03-07T13:40:26Z</time>
      </trkpt>
      <trkpt lat="44.35249" lon="2.85368">
        <ele>828</ele>
        <time>2013-03-07T13:40:38Z</time>
      </trkpt>
      <trkpt lat="44.35255" lon="2.85368">
        <ele>828</ele>
        <time>2013-03-07T13:40:41Z</time>
      </trkpt>
      <trkpt lat="44.35251" lon="2.85364">
        <ele>829</ele>
        <time>2013-03-07T13:40:49Z</time>
      </trkpt>
      <trkpt lat="44.35247" lon="2.85362">
        <ele>830</ele>
        <time>2013-03-07T13:41:02Z</time>
      </trkpt>
      <trkpt lat="44.3524" lon="2.85362">
        <ele>830</ele>
        <time>2013-03-07T13:41:05Z</time>
      </trkpt>
      <trkpt lat="44.35234" lon="2.85361">
        <ele>830</ele>
        <time>2013-03-07T13:41:09Z</time>
      </trkpt>
      <trkpt lat="44.35228" lon="2.85359">
        <ele>830</ele>
        <time>2013-03-07T13:41:15Z</time>
      </trkpt>
      <trkpt lat="44.35223" lon="2.85359">
        <ele>830</ele>
        <time>2013-03-07T13:41:19Z</time>
      </trkpt>
      <trkpt lat="44.35218" lon="2.85359">
        <ele>830</ele>
        <time>2013-03-07T13:41:24Z</time>
      </trkpt>
      <trkpt lat="44.35212" lon="2.85358">
        <ele>830</ele>
        <time>2013-03-07T13:41:28Z</time>
      </trkpt>
      <trkpt lat="44.35207" lon="2.85355">
        <ele>830</ele>
        <time>2013-03-07T13:41:32Z</time>
      </trkpt>
      <trkpt lat="44.35202" lon="2.85356">
        <ele>830</ele>
        <time>2013-03-07T13:41:36Z</time>
      </trkpt>
      <trkpt lat="44.35196" lon="2.85355">
        <ele>831</ele>
        <time>2013-03-07T13:41:39Z</time>
      </trkpt>
      <trkpt lat="44.35191" lon="2.85351">
        <ele>831</ele>
        <time>2013-03-07T13:41:43Z</time>
      </trkpt>
      <trkpt lat="44.35186" lon="2.85355">
        <ele>831</ele>
        <time>2013-03-07T13:41:51Z</time>
      </trkpt>
      <trkpt lat="44.35185" lon="2.85362">
        <ele>830</ele>
        <time>2013-03-07T13:41:56Z</time>
      </trkpt>
      <trkpt lat="44.35185" lon="2.8536">
        <ele>830</ele>
        <time>2013-03-07T13:42:07Z</time>
      </trkpt>
      <trkpt lat="44.3518" lon="2.85356">
        <ele>832</ele>
        <time>2013-03-07T13:42:13Z</time>
      </trkpt>
      <trkpt lat="44.35175" lon="2.85354">
        <ele>832</ele>
        <time>2013-03-07T13:42:15Z</time>
      </trkpt>
      <trkpt lat="44.35168" lon="2.85353">
        <ele>833</ele>
        <time>2013-03-07T13:42:18Z</time>
      </trkpt>
      <trkpt lat="44.35162" lon="2.85353">
        <ele>837</ele>
        <time>2013-03-07T13:42:21Z</time>
      </trkpt>
      <trkpt lat="44.35155" lon="2.85354">
        <ele>837</ele>
        <time>2013-03-07T13:42:23Z</time>
      </trkpt>
      <trkpt lat="44.35149" lon="2.85355">
        <ele>837</ele>
        <time>2013-03-07T13:42:26Z</time>
      </trkpt>
      <trkpt lat="44.35142" lon="2.85356">
        <ele>837</ele>
        <time>2013-03-07T13:42:34Z</time>
      </trkpt>
      <trkpt lat="44.35137" lon="2.85357">
        <ele>837</ele>
        <time>2013-03-07T13:42:41Z</time>
      </trkpt>
      <trkpt lat="44.35129" lon="2.85353">
        <ele>838</ele>
        <time>2013-03-07T13:42:52Z</time>
      </trkpt>
      <trkpt lat="44.35123" lon="2.85353">
        <ele>839</ele>
        <time>2013-03-07T13:43:04Z</time>
      </trkpt>
      <trkpt lat="44.35126" lon="2.85359">
        <ele>838</ele>
        <time>2013-03-07T13:43:08Z</time>
      </trkpt>
      <trkpt lat="44.35131" lon="2.85366">
        <ele>837</ele>
        <time>2013-03-07T13:43:12Z</time>
      </trkpt>
      <trkpt lat="44.35136" lon="2.8537">
        <ele>836</ele>
        <time>2013-03-07T13:43:15Z</time>
      </trkpt>
      <trkpt lat="44.3514" lon="2.85375">
        <ele>835</ele>
        <time>2013-03-07T13:43:16Z</time>
      </trkpt>
      <trkpt lat="44.35145" lon="2.85381">
        <ele>834</ele>
        <time>2013-03-07T13:43:19Z</time>
      </trkpt>
      <trkpt lat="44.3515" lon="2.85386">
        <ele>833</ele>
        <time>2013-03-07T13:43:20Z</time>
      </trkpt>
      <trkpt lat="44.35157" lon="2.85389">
        <ele>831</ele>
        <time>2013-03-07T13:43:25Z</time>
      </trkpt>
      <trkpt lat="44.35161" lon="2.85394">
        <ele>830</ele>
        <time>2013-03-07T13:43:28Z</time>
      </trkpt>
      <trkpt lat="44.35166" lon="2.85396">
        <ele>829</ele>
        <time>2013-03-07T13:43:32Z</time>
      </trkpt>
      <trkpt lat="44.3517" lon="2.85399">
        <ele>823</ele>
        <time>2013-03-07T13:43:36Z</time>
      </trkpt>
      <trkpt lat="44.35176" lon="2.85417">
        <ele>816</ele>
        <time>2013-03-07T13:44:48Z</time>
      </trkpt>
      <trkpt lat="44.35181" lon="2.85417">
        <ele>815</ele>
        <time>2013-03-07T13:44:52Z</time>
      </trkpt>
      <trkpt lat="44.35186" lon="2.85418">
        <ele>814</ele>
        <time>2013-03-07T13:44:56Z</time>
      </trkpt>
      <trkpt lat="44.35191" lon="2.8542">
        <ele>813</ele>
        <time>2013-03-07T13:44:57Z</time>
      </trkpt>
      <trkpt lat="44.35196" lon="2.85423">
        <ele>812</ele>
        <time>2013-03-07T13:44:59Z</time>
      </trkpt>
      <trkpt lat="44.35202" lon="2.85425">
        <ele>812</ele>
        <time>2013-03-07T13:45:00Z</time>
      </trkpt>
      <trkpt lat="44.3521" lon="2.85428">
        <ele>811</ele>
        <time>2013-03-07T13:45:04Z</time>
      </trkpt>
      <trkpt lat="44.35214" lon="2.85434">
        <ele>810</ele>
        <time>2013-03-07T13:45:05Z</time>
      </trkpt>
      <trkpt lat="44.35219" lon="2.85435">
        <ele>810</ele>
        <time>2013-03-07T13:45:08Z</time>
      </trkpt>
      <trkpt lat="44.35222" lon="2.85443">
        <ele>809</ele>
        <time>2013-03-07T13:45:12Z</time>
      </trkpt>
      <trkpt lat="44.35224" lon="2.85449">
        <ele>809</ele>
        <time>2013-03-07T13:45:13Z</time>
      </trkpt>
      <trkpt lat="44.35223" lon="2.85455">
        <ele>808</ele>
        <time>2013-03-07T13:45:18Z</time>
      </trkpt>
      <trkpt lat="44.3523" lon="2.85457">
        <ele>807</ele>
        <time>2013-03-07T13:45:39Z</time>
      </trkpt>
      <trkpt lat="44.35224" lon="2.85461">
        <ele>807</ele>
        <time>2013-03-07T13:45:43Z</time>
      </trkpt>
      <trkpt lat="44.35219" lon="2.85465">
        <ele>807</ele>
        <time>2013-03-07T13:45:46Z</time>
      </trkpt>
      <trkpt lat="44.35214" lon="2.85466">
        <ele>808</ele>
        <time>2013-03-07T13:45:47Z</time>
      </trkpt>
      <trkpt lat="44.35214" lon="2.85475">
        <ele>807</ele>
        <time>2013-03-07T13:45:50Z</time>
      </trkpt>
      <trkpt lat="44.35212" lon="2.85485">
        <ele>807</ele>
        <time>2013-03-07T13:45:54Z</time>
      </trkpt>
      <trkpt lat="44.35209" lon="2.8549">
        <ele>807</ele>
        <time>2013-03-07T13:45:55Z</time>
      </trkpt>
      <trkpt lat="44.3521" lon="2.85499">
        <ele>807</ele>
        <time>2013-03-07T13:45:58Z</time>
      </trkpt>
      <trkpt lat="44.3521" lon="2.85505">
        <ele>804</ele>
        <time>2013-03-07T13:46:02Z</time>
      </trkpt>
      <trkpt lat="44.3521" lon="2.85515">
        <ele>804</ele>
        <time>2013-03-07T13:46:06Z</time>
      </trkpt>
      <trkpt lat="44.35212" lon="2.85522">
        <ele>804</ele>
        <time>2013-03-07T13:46:07Z</time>
      </trkpt>
      <trkpt lat="44.35215" lon="2.85529">
        <ele>804</ele>
        <time>2013-03-07T13:46:10Z</time>
      </trkpt>
      <trkpt lat="44.35219" lon="2.85537">
        <ele>803</ele>
        <time>2013-03-07T13:46:13Z</time>
      </trkpt>
      <trkpt lat="44.35222" lon="2.85542">
        <ele>803</ele>
        <time>2013-03-07T13:46:16Z</time>
      </trkpt>
      <trkpt lat="44.35227" lon="2.8555">
        <ele>802</ele>
        <time>2013-03-07T13:46:18Z</time>
      </trkpt>
      <trkpt lat="44.35231" lon="2.85557">
        <ele>801</ele>
        <time>2013-03-07T13:46:21Z</time>
      </trkpt>
      <trkpt lat="44.35236" lon="2.85565">
        <ele>800</ele>
        <time>2013-03-07T13:46:25Z</time>
      </trkpt>
      <trkpt lat="44.35239" lon="2.85571">
        <ele>798</ele>
        <time>2013-03-07T13:46:26Z</time>
      </trkpt>
      <trkpt lat="44.35243" lon="2.85578">
        <ele>796</ele>
        <time>2013-03-07T13:46:29Z</time>
      </trkpt>
      <trkpt lat="44.35247" lon="2.85586">
        <ele>794</ele>
        <time>2013-03-07T13:46:30Z</time>
      </trkpt>
      <trkpt lat="44.3525" lon="2.85593">
        <ele>787</ele>
        <time>2013-03-07T13:46:33Z</time>
      </trkpt>
      <trkpt lat="44.35252" lon="2.85601">
        <ele>785</ele>
        <time>2013-03-07T13:46:34Z</time>
      </trkpt>
      <trkpt lat="44.35253" lon="2.85608">
        <ele>783</ele>
        <time>2013-03-07T13:46:37Z</time>
      </trkpt>
      <trkpt lat="44.35252" lon="2.85616">
        <ele>783</ele>
        <time>2013-03-07T13:46:40Z</time>
      </trkpt>
      <trkpt lat="44.3525" lon="2.85623">
        <ele>802</ele>
        <time>2013-03-07T13:46:43Z</time>
      </trkpt>
      <trkpt lat="44.35248" lon="2.85631">
        <ele>803</ele>
        <time>2013-03-07T13:46:45Z</time>
      </trkpt>
      <trkpt lat="44.35246" lon="2.8564">
        <ele>803</ele>
        <time>2013-03-07T13:46:48Z</time>
      </trkpt>
      <trkpt lat="44.35245" lon="2.85649">
        <ele>802</ele>
        <time>2013-03-07T13:46:52Z</time>
      </trkpt>
      <trkpt lat="44.35241" lon="2.85656">
        <ele>802</ele>
        <time>2013-03-07T13:46:55Z</time>
      </trkpt>
      <trkpt lat="44.35238" lon="2.85662">
        <ele>802</ele>
        <time>2013-03-07T13:46:57Z</time>
      </trkpt>
      <trkpt lat="44.35237" lon="2.85669">
        <ele>801</ele>
        <time>2013-03-07T13:47:00Z</time>
      </trkpt>
      <trkpt lat="44.35238" lon="2.85676">
        <ele>801</ele>
        <time>2013-03-07T13:47:03Z</time>
      </trkpt>
      <trkpt lat="44.35237" lon="2.85684">
        <ele>802</ele>
        <time>2013-03-07T13:47:05Z</time>
      </trkpt>
      <trkpt lat="44.35237" lon="2.85693">
        <ele>803</ele>
        <time>2013-03-07T13:47:08Z</time>
      </trkpt>
      <trkpt lat="44.35236" lon="2.85701">
        <ele>803</ele>
        <time>2013-03-07T13:47:11Z</time>
      </trkpt>
      <trkpt lat="44.35234" lon="2.8571">
        <ele>803</ele>
        <time>2013-03-07T13:47:15Z</time>
      </trkpt>
      <trkpt lat="44.35233" lon="2.85719">
        <ele>802</ele>
        <time>2013-03-07T13:47:18Z</time>
      </trkpt>
      <trkpt lat="44.35234" lon="2.85726">
        <ele>802</ele>
        <time>2013-03-07T13:47:19Z</time>
      </trkpt>
      <trkpt lat="44.35235" lon="2.85735">
        <ele>800</ele>
        <time>2013-03-07T13:47:23Z</time>
      </trkpt>
      <trkpt lat="44.35235" lon="2.85745">
        <ele>799</ele>
        <time>2013-03-07T13:47:26Z</time>
      </trkpt>
      <trkpt lat="44.35234" lon="2.85752">
        <ele>795</ele>
        <time>2013-03-07T13:47:27Z</time>
      </trkpt>
      <trkpt lat="44.35232" lon="2.85762">
        <ele>794</ele>
        <time>2013-03-07T13:47:31Z</time>
      </trkpt>
      <trkpt lat="44.35232" lon="2.85769">
        <ele>794</ele>
        <time>2013-03-07T13:47:32Z</time>
      </trkpt>
      <trkpt lat="44.35229" lon="2.85777">
        <ele>794</ele>
        <time>2013-03-07T13:47:35Z</time>
      </trkpt>
      <trkpt lat="44.35225" lon="2.85784">
        <ele>793</ele>
        <time>2013-03-07T13:47:38Z</time>
      </trkpt>
      <trkpt lat="44.3522" lon="2.85787">
        <ele>794</ele>
        <time>2013-03-07T13:47:41Z</time>
      </trkpt>
      <trkpt lat="44.35214" lon="2.8579">
        <ele>794</ele>
        <time>2013-03-07T13:47:43Z</time>
      </trkpt>
      <trkpt lat="44.35208" lon="2.85794">
        <ele>794</ele>
        <time>2013-03-07T13:47:46Z</time>
      </trkpt>
      <trkpt lat="44.35203" lon="2.85796">
        <ele>794</ele>
        <time>2013-03-07T13:47:49Z</time>
      </trkpt>
      <trkpt lat="44.35197" lon="2.858">
        <ele>794</ele>
        <time>2013-03-07T13:47:51Z</time>
      </trkpt>
      <trkpt lat="44.35192" lon="2.85803">
        <ele>794</ele>
        <time>2013-03-07T13:47:54Z</time>
      </trkpt>
      <trkpt lat="44.35187" lon="2.85805">
        <ele>794</ele>
        <time>2013-03-07T13:47:58Z</time>
      </trkpt>
      <trkpt lat="44.35181" lon="2.85807">
        <ele>794</ele>
        <time>2013-03-07T13:48:01Z</time>
      </trkpt>
      <trkpt lat="44.35175" lon="2.8581">
        <ele>794</ele>
        <time>2013-03-07T13:48:04Z</time>
      </trkpt>
      <trkpt lat="44.35169" lon="2.85815">
        <ele>793</ele>
        <time>2013-03-07T13:48:06Z</time>
      </trkpt>
      <trkpt lat="44.35168" lon="2.85823">
        <ele>792</ele>
        <time>2013-03-07T13:48:09Z</time>
      </trkpt>
      <trkpt lat="44.3517" lon="2.85831">
        <ele>792</ele>
        <time>2013-03-07T13:48:13Z</time>
      </trkpt>
      <trkpt lat="44.35172" lon="2.85839">
        <ele>786</ele>
        <time>2013-03-07T13:48:17Z</time>
      </trkpt>
      <trkpt lat="44.35177" lon="2.85845">
        <ele>783</ele>
        <time>2013-03-07T13:48:18Z</time>
      </trkpt>
      <trkpt lat="44.35182" lon="2.85847">
        <ele>781</ele>
        <time>2013-03-07T13:48:21Z</time>
      </trkpt>
      <trkpt lat="44.3519" lon="2.8585">
        <ele>779</ele>
        <time>2013-03-07T13:48:24Z</time>
      </trkpt>
      <trkpt lat="44.35196" lon="2.85854">
        <ele>778</ele>
        <time>2013-03-07T13:48:25Z</time>
      </trkpt>
      <trkpt lat="44.35203" lon="2.85857">
        <ele>777</ele>
        <time>2013-03-07T13:48:28Z</time>
      </trkpt>
      <trkpt lat="44.35209" lon="2.85859">
        <ele>776</ele>
        <time>2013-03-07T13:48:29Z</time>
      </trkpt>
      <trkpt lat="44.35216" lon="2.85859">
        <ele>775</ele>
        <time>2013-03-07T13:48:32Z</time>
      </trkpt>
      <trkpt lat="44.35222" lon="2.85858">
        <ele>775</ele>
        <time>2013-03-07T13:48:33Z</time>
      </trkpt>
      <trkpt lat="44.35228" lon="2.85857">
        <ele>775</ele>
        <time>2013-03-07T13:48:36Z</time>
      </trkpt>
      <trkpt lat="44.35234" lon="2.85854">
        <ele>776</ele>
        <time>2013-03-07T13:48:37Z</time>
      </trkpt>
      <trkpt lat="44.35241" lon="2.85852">
        <ele>776</ele>
        <time>2013-03-07T13:48:40Z</time>
      </trkpt>
      <trkpt lat="44.35247" lon="2.85848">
        <ele>777</ele>
        <time>2013-03-07T13:48:41Z</time>
      </trkpt>
      <trkpt lat="44.35254" lon="2.85845">
        <ele>770</ele>
        <time>2013-03-07T13:48:44Z</time>
      </trkpt>
      <trkpt lat="44.3526" lon="2.85838">
        <ele>770</ele>
        <time>2013-03-07T13:48:45Z</time>
      </trkpt>
      <trkpt lat="44.35266" lon="2.85834">
        <ele>768</ele>
        <time>2013-03-07T13:48:48Z</time>
      </trkpt>
      <trkpt lat="44.35271" lon="2.85829">
        <ele>774</ele>
        <time>2013-03-07T13:48:49Z</time>
      </trkpt>
      <trkpt lat="44.35276" lon="2.85822">
        <ele>772</ele>
        <time>2013-03-07T13:48:52Z</time>
      </trkpt>
      <trkpt lat="44.3528" lon="2.85815">
        <ele>772</ele>
        <time>2013-03-07T13:48:53Z</time>
      </trkpt>
      <trkpt lat="44.35284" lon="2.85808">
        <ele>771</ele>
        <time>2013-03-07T13:48:55Z</time>
      </trkpt>
      <trkpt lat="44.35287" lon="2.85798">
        <ele>771</ele>
        <time>2013-03-07T13:48:58Z</time>
      </trkpt>
      <trkpt lat="44.3529" lon="2.85788">
        <ele>771</ele>
        <time>2013-03-07T13:48:59Z</time>
      </trkpt>
      <trkpt lat="44.35293" lon="2.8578">
        <ele>771</ele>
        <time>2013-03-07T13:49:02Z</time>
      </trkpt>
      <trkpt lat="44.35297" lon="2.85776">
        <ele>770</ele>
        <time>2013-03-07T13:49:03Z</time>
      </trkpt>
      <trkpt lat="44.35303" lon="2.85772">
        <ele>769</ele>
        <time>2013-03-07T13:49:06Z</time>
      </trkpt>
      <trkpt lat="44.35307" lon="2.85767">
        <ele>768</ele>
        <time>2013-03-07T13:49:07Z</time>
      </trkpt>
      <trkpt lat="44.35313" lon="2.85762">
        <ele>767</ele>
        <time>2013-03-07T13:49:08Z</time>
      </trkpt>
      <trkpt lat="44.35315" lon="2.8577">
        <ele>767</ele>
        <time>2013-03-07T13:49:12Z</time>
      </trkpt>
      <trkpt lat="44.35315" lon="2.85778">
        <ele>767</ele>
        <time>2013-03-07T13:49:15Z</time>
      </trkpt>
      <trkpt lat="44.35311" lon="2.85787">
        <ele>767</ele>
        <time>2013-03-07T13:49:18Z</time>
      </trkpt>
      <trkpt lat="44.35309" lon="2.85795">
        <ele>767</ele>
        <time>2013-03-07T13:49:19Z</time>
      </trkpt>
      <trkpt lat="44.35307" lon="2.85803">
        <ele>766</ele>
        <time>2013-03-07T13:49:22Z</time>
      </trkpt>
      <trkpt lat="44.35306" lon="2.85811">
        <ele>766</ele>
        <time>2013-03-07T13:49:23Z</time>
      </trkpt>
      <trkpt lat="44.35306" lon="2.85819">
        <ele>765</ele>
        <time>2013-03-07T13:49:26Z</time>
      </trkpt>
      <trkpt lat="44.35304" lon="2.85828">
        <ele>765</ele>
        <time>2013-03-07T13:49:29Z</time>
      </trkpt>
      <trkpt lat="44.35304" lon="2.85837">
        <ele>755</ele>
        <time>2013-03-07T13:49:30Z</time>
      </trkpt>
      <trkpt lat="44.35304" lon="2.85845">
        <ele>754</ele>
        <time>2013-03-07T13:49:33Z</time>
      </trkpt>
      <trkpt lat="44.35303" lon="2.85855">
        <ele>754</ele>
        <time>2013-03-07T13:49:34Z</time>
      </trkpt>
      <trkpt lat="44.35302" lon="2.85866">
        <ele>753</ele>
        <time>2013-03-07T13:49:37Z</time>
      </trkpt>
      <trkpt lat="44.35301" lon="2.85878">
        <ele>752</ele>
        <time>2013-03-07T13:49:38Z</time>
      </trkpt>
      <trkpt lat="44.35302" lon="2.85888">
        <ele>750</ele>
        <time>2013-03-07T13:49:41Z</time>
      </trkpt>
      <trkpt lat="44.35303" lon="2.85895">
        <ele>749</ele>
        <time>2013-03-07T13:49:42Z</time>
      </trkpt>
      <trkpt lat="44.35304" lon="2.85907">
        <ele>746</ele>
        <time>2013-03-07T13:49:43Z</time>
      </trkpt>
      <trkpt lat="44.35306" lon="2.85915">
        <ele>745</ele>
        <time>2013-03-07T13:49:45Z</time>
      </trkpt>
      <trkpt lat="44.35307" lon="2.85923">
        <ele>732</ele>
        <time>2013-03-07T13:49:46Z</time>
      </trkpt>
      <trkpt lat="44.35305" lon="2.85935">
        <ele>732</ele>
        <time>2013-03-07T13:49:47Z</time>
      </trkpt>
      <trkpt lat="44.35302" lon="2.8594">
        <ele>732</ele>
        <time>2013-03-07T13:49:49Z</time>
      </trkpt>
      <trkpt lat="44.35296" lon="2.8595">
        <ele>732</ele>
        <time>2013-03-07T13:49:50Z</time>
      </trkpt>
      <trkpt lat="44.35291" lon="2.85955">
        <ele>732</ele>
        <time>2013-03-07T13:49:53Z</time>
      </trkpt>
      <trkpt lat="44.35286" lon="2.85956">
        <ele>732</ele>
        <time>2013-03-07T13:49:57Z</time>
      </trkpt>
      <trkpt lat="44.35281" lon="2.85959">
        <ele>733</ele>
        <time>2013-03-07T13:50:01Z</time>
      </trkpt>
      <trkpt lat="44.35276" lon="2.85961">
        <ele>733</ele>
        <time>2013-03-07T13:50:05Z</time>
      </trkpt>
      <trkpt lat="44.3527" lon="2.85963">
        <ele>733</ele>
        <time>2013-03-07T13:50:09Z</time>
      </trkpt>
      <trkpt lat="44.35265" lon="2.85965">
        <ele>733</ele>
        <time>2013-03-07T13:50:13Z</time>
      </trkpt>
      <trkpt lat="44.3526" lon="2.85967">
        <ele>733</ele>
        <time>2013-03-07T13:50:16Z</time>
      </trkpt>
      <trkpt lat="44.35254" lon="2.85968">
        <ele>733</ele>
        <time>2013-03-07T13:50:21Z</time>
      </trkpt>
      <trkpt lat="44.35255" lon="2.85972">
        <ele>732</ele>
        <time>2013-03-07T13:50:31Z</time>
      </trkpt>
      <trkpt lat="44.35258" lon="2.85977">
        <ele>732</ele>
        <time>2013-03-07T13:50:40Z</time>
      </trkpt>
      <trkpt lat="44.35255" lon="2.85981">
        <ele>731</ele>
        <time>2013-03-07T13:50:47Z</time>
      </trkpt>
      <trkpt lat="44.35255" lon="2.85988">
        <ele>730</ele>
        <time>2013-03-07T13:50:51Z</time>
      </trkpt>
      <trkpt lat="44.35253" lon="2.85996">
        <ele>729</ele>
        <time>2013-03-07T13:50:56Z</time>
      </trkpt>
      <trkpt lat="44.35252" lon="2.86002">
        <ele>727</ele>
        <time>2013-03-07T13:51:00Z</time>
      </trkpt>
      <trkpt lat="44.35247" lon="2.86008">
        <ele>729</ele>
        <time>2013-03-07T13:51:07Z</time>
      </trkpt>
      <trkpt lat="44.35248" lon="2.86015">
        <ele>730</ele>
        <time>2013-03-07T13:51:14Z</time>
      </trkpt>
      <trkpt lat="44.35243" lon="2.86019">
        <ele>730</ele>
        <time>2013-03-07T13:51:17Z</time>
      </trkpt>
      <trkpt lat="44.35242" lon="2.86026">
        <ele>730</ele>
        <time>2013-03-07T13:51:21Z</time>
      </trkpt>
      <trkpt lat="44.35244" lon="2.86035">
        <ele>730</ele>
        <time>2013-03-07T13:51:23Z</time>
      </trkpt>
      <trkpt lat="44.35247" lon="2.86044">
        <ele>729</ele>
        <time>2013-03-07T13:51:26Z</time>
      </trkpt>
      <trkpt lat="44.3525" lon="2.86051">
        <ele>717</ele>
        <time>2013-03-07T13:51:29Z</time>
      </trkpt>
      <trkpt lat="44.35254" lon="2.86058">
        <ele>717</ele>
        <time>2013-03-07T13:51:30Z</time>
      </trkpt>
      <trkpt lat="44.3526" lon="2.86065">
        <ele>716</ele>
        <time>2013-03-07T13:51:34Z</time>
      </trkpt>
      <trkpt lat="44.35265" lon="2.86071">
        <ele>716</ele>
        <time>2013-03-07T13:51:36Z</time>
      </trkpt>
      <trkpt lat="44.35269" lon="2.86077">
        <ele>716</ele>
        <time>2013-03-07T13:51:37Z</time>
      </trkpt>
      <trkpt lat="44.35274" lon="2.86086">
        <ele>713</ele>
        <time>2013-03-07T13:51:41Z</time>
      </trkpt>
      <trkpt lat="44.35279" lon="2.8609">
        <ele>713</ele>
        <time>2013-03-07T13:51:44Z</time>
      </trkpt>
      <trkpt lat="44.35276" lon="2.86096">
        <ele>713</ele>
        <time>2013-03-07T13:51:49Z</time>
      </trkpt>
      <trkpt lat="44.35273" lon="2.86101">
        <ele>713</ele>
        <time>2013-03-07T13:51:53Z</time>
      </trkpt>
      <trkpt lat="44.35268" lon="2.86105">
        <ele>714</ele>
        <time>2013-03-07T13:51:57Z</time>
      </trkpt>
      <trkpt lat="44.35262" lon="2.86107">
        <ele>714</ele>
        <time>2013-03-07T13:52:01Z</time>
      </trkpt>
      <trkpt lat="44.35256" lon="2.86108">
        <ele>714</ele>
        <time>2013-03-07T13:52:05Z</time>
      </trkpt>
      <trkpt lat="44.3525" lon="2.86111">
        <ele>724</ele>
        <time>2013-03-07T13:52:11Z</time>
      </trkpt>
      <trkpt lat="44.35245" lon="2.86111">
        <ele>725</ele>
        <time>2013-03-07T13:52:16Z</time>
      </trkpt>
      <trkpt lat="44.3524" lon="2.86111">
        <ele>725</ele>
        <time>2013-03-07T13:52:23Z</time>
      </trkpt>
      <trkpt lat="44.35234" lon="2.86112">
        <ele>726</ele>
        <time>2013-03-07T13:52:28Z</time>
      </trkpt>
      <trkpt lat="44.35231" lon="2.86107">
        <ele>725</ele>
        <time>2013-03-07T13:52:35Z</time>
      </trkpt>
      <trkpt lat="44.35227" lon="2.86104">
        <ele>726</ele>
        <time>2013-03-07T13:52:39Z</time>
      </trkpt>
      <trkpt lat="44.3522" lon="2.86106">
        <ele>727</ele>
        <time>2013-03-07T13:52:43Z</time>
      </trkpt>
      <trkpt lat="44.35214" lon="2.86107">
        <ele>728</ele>
        <time>2013-03-07T13:52:44Z</time>
      </trkpt>
      <trkpt lat="44.35208" lon="2.86109">
        <ele>729</ele>
        <time>2013-03-07T13:52:47Z</time>
      </trkpt>
      <trkpt lat="44.35202" lon="2.8611">
        <ele>729</ele>
        <time>2013-03-07T13:52:50Z</time>
      </trkpt>
      <trkpt lat="44.35195" lon="2.86111">
        <ele>730</ele>
        <time>2013-03-07T13:52:51Z</time>
      </trkpt>
      <trkpt lat="44.35189" lon="2.86113">
        <ele>731</ele>
        <time>2013-03-07T13:52:54Z</time>
      </trkpt>
      <trkpt lat="44.35184" lon="2.86117">
        <ele>731</ele>
        <time>2013-03-07T13:52:55Z</time>
      </trkpt>
      <trkpt lat="44.35177" lon="2.8612">
        <ele>732</ele>
        <time>2013-03-07T13:52:58Z</time>
      </trkpt>
      <trkpt lat="44.35172" lon="2.86124">
        <ele>732</ele>
        <time>2013-03-07T13:53:02Z</time>
      </trkpt>
      <trkpt lat="44.35167" lon="2.86129">
        <ele>745</ele>
        <time>2013-03-07T13:53:05Z</time>
      </trkpt>
      <trkpt lat="44.35161" lon="2.86132">
        <ele>745</ele>
        <time>2013-03-07T13:53:07Z</time>
      </trkpt>
      <trkpt lat="44.35157" lon="2.86136">
        <ele>745</ele>
        <time>2013-03-07T13:53:10Z</time>
      </trkpt>
      <trkpt lat="44.35152" lon="2.86141">
        <ele>745</ele>
        <time>2013-03-07T13:53:14Z</time>
      </trkpt>
      <trkpt lat="44.35148" lon="2.86146">
        <ele>745</ele>
        <time>2013-03-07T13:53:17Z</time>
      </trkpt>
      <trkpt lat="44.35142" lon="2.8615">
        <ele>746</ele>
        <time>2013-03-07T13:53:19Z</time>
      </trkpt>
      <trkpt lat="44.3514" lon="2.86157">
        <ele>745</ele>
        <time>2013-03-07T13:53:24Z</time>
      </trkpt>
      <trkpt lat="44.35137" lon="2.86162">
        <ele>746</ele>
        <time>2013-03-07T13:53:29Z</time>
      </trkpt>
      <trkpt lat="44.35134" lon="2.86167">
        <ele>747</ele>
        <time>2013-03-07T13:53:36Z</time>
      </trkpt>
      <trkpt lat="44.35129" lon="2.86169">
        <ele>747</ele>
        <time>2013-03-07T13:53:40Z</time>
      </trkpt>
      <trkpt lat="44.35124" lon="2.8617">
        <ele>748</ele>
        <time>2013-03-07T13:53:44Z</time>
      </trkpt>
      <trkpt lat="44.3512" lon="2.86174">
        <ele>749</ele>
        <time>2013-03-07T13:53:48Z</time>
      </trkpt>
      <trkpt lat="44.35114" lon="2.86178">
        <ele>749</ele>
        <time>2013-03-07T13:53:51Z</time>
      </trkpt>
      <trkpt lat="44.35111" lon="2.86186">
        <ele>750</ele>
        <time>2013-03-07T13:53:55Z</time>
      </trkpt>
      <trkpt lat="44.35108" lon="2.86191">
        <ele>750</ele>
        <time>2013-03-07T13:53:57Z</time>
      </trkpt>
      <trkpt lat="44.35103" lon="2.86197">
        <ele>750</ele>
        <time>2013-03-07T13:54:01Z</time>
      </trkpt>
      <trkpt lat="44.351" lon="2.86202">
        <ele>750</ele>
        <time>2013-03-07T13:54:04Z</time>
      </trkpt>
      <trkpt lat="44.35096" lon="2.86209">
        <ele>750</ele>
        <time>2013-03-07T13:54:08Z</time>
      </trkpt>
      <trkpt lat="44.35091" lon="2.86213">
        <ele>750</ele>
        <time>2013-03-07T13:54:12Z</time>
      </trkpt>
      <trkpt lat="44.35087" lon="2.86218">
        <ele>750</ele>
        <time>2013-03-07T13:54:16Z</time>
      </trkpt>
      <trkpt lat="44.35083" lon="2.86222">
        <ele>761</ele>
        <time>2013-03-07T13:54:19Z</time>
      </trkpt>
      <trkpt lat="44.35078" lon="2.86225">
        <ele>761</ele>
        <time>2013-03-07T13:54:20Z</time>
      </trkpt>
      <trkpt lat="44.35072" lon="2.86228">
        <ele>761</ele>
        <time>2013-03-07T13:54:23Z</time>
      </trkpt>
      <trkpt lat="44.35065" lon="2.86232">
        <ele>762</ele>
        <time>2013-03-07T13:54:27Z</time>
      </trkpt>
      <trkpt lat="44.35061" lon="2.86235">
        <ele>762</ele>
        <time>2013-03-07T13:54:30Z</time>
      </trkpt>
      <trkpt lat="44.35056" lon="2.86238">
        <ele>763</ele>
        <time>2013-03-07T13:54:32Z</time>
      </trkpt>
      <trkpt lat="44.35052" lon="2.86246">
        <ele>763</ele>
        <time>2013-03-07T13:54:36Z</time>
      </trkpt>
      <trkpt lat="44.35046" lon="2.86249">
        <ele>765</ele>
        <time>2013-03-07T13:54:39Z</time>
      </trkpt>
      <trkpt lat="44.35041" lon="2.86254">
        <ele>766</ele>
        <time>2013-03-07T13:54:43Z</time>
      </trkpt>
      <trkpt lat="44.35038" lon="2.8626">
        <ele>767</ele>
        <time>2013-03-07T13:54:46Z</time>
      </trkpt>
      <trkpt lat="44.35034" lon="2.86265">
        <ele>768</ele>
        <time>2013-03-07T13:54:50Z</time>
      </trkpt>
      <trkpt lat="44.35029" lon="2.86267">
        <ele>768</ele>
        <time>2013-03-07T13:54:51Z</time>
      </trkpt>
      <trkpt lat="44.35024" lon="2.8627">
        <ele>769</ele>
        <time>2013-03-07T13:54:55Z</time>
      </trkpt>
      <trkpt lat="44.3502" lon="2.86275">
        <ele>769</ele>
        <time>2013-03-07T13:55:03Z</time>
      </trkpt>
      <trkpt lat="44.35018" lon="2.86278">
        <ele>770</ele>
        <time>2013-03-07T13:55:10Z</time>
      </trkpt>
      <trkpt lat="44.35013" lon="2.86281">
        <ele>770</ele>
        <time>2013-03-07T13:55:16Z</time>
      </trkpt>
      <trkpt lat="44.35007" lon="2.86284">
        <ele>770</ele>
        <time>2013-03-07T13:55:20Z</time>
      </trkpt>
      <trkpt lat="44.35002" lon="2.86288">
        <ele>771</ele>
        <time>2013-03-07T13:55:24Z</time>
      </trkpt>
      <trkpt lat="44.35002" lon="2.86293">
        <ele>771</ele>
        <time>2013-03-07T13:55:32Z</time>
      </trkpt>
      <trkpt lat="44.34998" lon="2.86298">
        <ele>780</ele>
        <time>2013-03-07T13:55:37Z</time>
      </trkpt>
      <trkpt lat="44.34994" lon="2.86297">
        <ele>781</ele>
        <time>2013-03-07T13:55:49Z</time>
      </trkpt>
      <trkpt lat="44.3499" lon="2.86293">
        <ele>781</ele>
        <time>2013-03-07T13:55:56Z</time>
      </trkpt>
      <trkpt lat="44.34986" lon="2.8629">
        <ele>781</ele>
        <time>2013-03-07T13:56:01Z</time>
      </trkpt>
      <trkpt lat="44.34981" lon="2.86287">
        <ele>781</ele>
        <time>2013-03-07T13:56:07Z</time>
      </trkpt>
      <trkpt lat="44.34976" lon="2.86285">
        <ele>782</ele>
        <time>2013-03-07T13:56:11Z</time>
      </trkpt>
      <trkpt lat="44.34971" lon="2.86283">
        <ele>782</ele>
        <time>2013-03-07T13:56:14Z</time>
      </trkpt>
      <trkpt lat="44.34965" lon="2.86282">
        <ele>783</ele>
        <time>2013-03-07T13:56:18Z</time>
      </trkpt>
      <trkpt lat="44.3496" lon="2.8628">
        <ele>783</ele>
        <time>2013-03-07T13:56:22Z</time>
      </trkpt>
      <trkpt lat="44.34955" lon="2.86277">
        <ele>784</ele>
        <time>2013-03-07T13:56:28Z</time>
      </trkpt>
      <trkpt lat="44.3495" lon="2.86272">
        <ele>784</ele>
        <time>2013-03-07T13:56:37Z</time>
      </trkpt>
      <trkpt lat="44.34947" lon="2.86269">
        <ele>785</ele>
        <time>2013-03-07T13:56:42Z</time>
      </trkpt>
      <trkpt lat="44.34944" lon="2.86265">
        <ele>785</ele>
        <time>2013-03-07T13:56:49Z</time>
      </trkpt>
      <trkpt lat="44.34938" lon="2.86265">
        <ele>786</ele>
        <time>2013-03-07T13:56:54Z</time>
      </trkpt>
      <trkpt lat="44.34933" lon="2.86264">
        <ele>787</ele>
        <time>2013-03-07T13:56:58Z</time>
      </trkpt>
      <trkpt lat="44.34928" lon="2.86265">
        <ele>787</ele>
        <time>2013-03-07T13:57:02Z</time>
      </trkpt>
      <trkpt lat="44.34926" lon="2.86272">
        <ele>787</ele>
        <time>2013-03-07T13:57:09Z</time>
      </trkpt>
      <trkpt lat="44.34928" lon="2.8628">
        <ele>787</ele>
        <time>2013-03-07T13:57:14Z</time>
      </trkpt>
      <trkpt lat="44.34922" lon="2.86282">
        <ele>787</ele>
        <time>2013-03-07T13:57:18Z</time>
      </trkpt>
      <trkpt lat="44.34914" lon="2.86285">
        <ele>798</ele>
        <time>2013-03-07T13:57:21Z</time>
      </trkpt>
      <trkpt lat="44.3491" lon="2.8629">
        <ele>799</ele>
        <time>2013-03-07T13:57:25Z</time>
      </trkpt>
      <trkpt lat="44.34904" lon="2.86294">
        <ele>799</ele>
        <time>2013-03-07T13:57:29Z</time>
      </trkpt>
      <trkpt lat="44.349" lon="2.86299">
        <ele>799</ele>
        <time>2013-03-07T13:57:33Z</time>
      </trkpt>
      <trkpt lat="44.34899" lon="2.86301">
        <ele>799</ele>
        <time>2013-03-07T13:57:44Z</time>
      </trkpt>
      <trkpt lat="44.34898" lon="2.86303">
        <ele>800</ele>
        <time>2013-03-07T13:57:52Z</time>
      </trkpt>
      <trkpt lat="44.34895" lon="2.86306">
        <ele>800</ele>
        <time>2013-03-07T13:58:03Z</time>
      </trkpt>
      <trkpt lat="44.3489" lon="2.86304">
        <ele>800</ele>
        <time>2013-03-07T13:58:07Z</time>
      </trkpt>
      <trkpt lat="44.34884" lon="2.86302">
        <ele>801</ele>
        <time>2013-03-07T13:58:15Z</time>
      </trkpt>
      <trkpt lat="44.34879" lon="2.86303">
        <ele>802</ele>
        <time>2013-03-07T13:58:20Z</time>
      </trkpt>
      <trkpt lat="44.34873" lon="2.86305">
        <ele>802</ele>
        <time>2013-03-07T13:58:29Z</time>
      </trkpt>
      <trkpt lat="44.34867" lon="2.86305">
        <ele>803</ele>
        <time>2013-03-07T13:58:38Z</time>
      </trkpt>
      <trkpt lat="44.3486" lon="2.86305">
        <ele>804</ele>
        <time>2013-03-07T13:58:43Z</time>
      </trkpt>
      <trkpt lat="44.34854" lon="2.86306">
        <ele>805</ele>
        <time>2013-03-07T13:58:47Z</time>
      </trkpt>
      <trkpt lat="44.34848" lon="2.86306">
        <ele>805</ele>
        <time>2013-03-07T13:58:52Z</time>
      </trkpt>
      <trkpt lat="44.34843" lon="2.86305">
        <ele>806</ele>
        <time>2013-03-07T13:58:54Z</time>
      </trkpt>
      <trkpt lat="44.34837" lon="2.86307">
        <ele>806</ele>
        <time>2013-03-07T13:59:00Z</time>
      </trkpt>
      <trkpt lat="44.34832" lon="2.86311">
        <ele>817</ele>
        <time>2013-03-07T13:59:06Z</time>
      </trkpt>
      <trkpt lat="44.34827" lon="2.86311">
        <ele>817</ele>
        <time>2013-03-07T13:59:10Z</time>
      </trkpt>
      <trkpt lat="44.34822" lon="2.86312">
        <ele>817</ele>
        <time>2013-03-07T13:59:14Z</time>
      </trkpt>
      <trkpt lat="44.34817" lon="2.86315">
        <ele>817</ele>
        <time>2013-03-07T13:59:20Z</time>
      </trkpt>
      <trkpt lat="44.34815" lon="2.86321">
        <ele>817</ele>
        <time>2013-03-07T13:59:27Z</time>
      </trkpt>
      <trkpt lat="44.34813" lon="2.86326">
        <ele>818</ele>
        <time>2013-03-07T13:59:32Z</time>
      </trkpt>
      <trkpt lat="44.34808" lon="2.86328">
        <ele>818</ele>
        <time>2013-03-07T13:59:36Z</time>
      </trkpt>
      <trkpt lat="44.34803" lon="2.86331">
        <ele>819</ele>
        <time>2013-03-07T13:59:43Z</time>
      </trkpt>
      <trkpt lat="44.348" lon="2.86337">
        <ele>825</ele>
        <time>2013-03-07T13:59:50Z</time>
      </trkpt>
      <trkpt lat="44.34796" lon="2.86342">
        <ele>826</ele>
        <time>2013-03-07T13:59:56Z</time>
      </trkpt>
      <trkpt lat="44.34792" lon="2.86346">
        <ele>826</ele>
        <time>2013-03-07T14:00:03Z</time>
      </trkpt>
      <trkpt lat="44.34787" lon="2.8635">
        <ele>827</ele>
        <time>2013-03-07T14:00:08Z</time>
      </trkpt>
      <trkpt lat="44.34787" lon="2.86355">
        <ele>827</ele>
        <time>2013-03-07T14:00:15Z</time>
      </trkpt>
      <trkpt lat="44.34785" lon="2.86358">
        <ele>828</ele>
        <time>2013-03-07T14:00:23Z</time>
      </trkpt>
      <trkpt lat="44.34779" lon="2.8636">
        <ele>828</ele>
        <time>2013-03-07T14:00:27Z</time>
      </trkpt>
      <trkpt lat="44.34775" lon="2.86364">
        <ele>829</ele>
        <time>2013-03-07T14:00:34Z</time>
      </trkpt>
      <trkpt lat="44.34774" lon="2.8637">
        <ele>829</ele>
        <time>2013-03-07T14:00:40Z</time>
      </trkpt>
      <trkpt lat="44.34779" lon="2.86375">
        <ele>830</ele>
        <time>2013-03-07T14:00:42Z</time>
      </trkpt>
      <trkpt lat="44.34784" lon="2.86381">
        <ele>830</ele>
        <time>2013-03-07T14:00:45Z</time>
      </trkpt>
      <trkpt lat="44.34789" lon="2.86386">
        <ele>831</ele>
        <time>2013-03-07T14:00:49Z</time>
      </trkpt>
      <trkpt lat="44.34793" lon="2.86383">
        <ele>830</ele>
        <time>2013-03-07T14:00:53Z</time>
      </trkpt>
      <trkpt lat="44.34799" lon="2.86385">
        <ele>830</ele>
        <time>2013-03-07T14:00:57Z</time>
      </trkpt>
      <trkpt lat="44.34804" lon="2.86388">
        <ele>830</ele>
        <time>2013-03-07T14:01:00Z</time>
      </trkpt>
      <trkpt lat="44.34809" lon="2.86391">
        <ele>831</ele>
        <time>2013-03-07T14:01:02Z</time>
      </trkpt>
      <trkpt lat="44.34813" lon="2.86395">
        <ele>831</ele>
        <time>2013-03-07T14:01:04Z</time>
      </trkpt>
      <trkpt lat="44.34819" lon="2.86399">
        <ele>832</ele>
        <time>2013-03-07T14:01:08Z</time>
      </trkpt>
      <trkpt lat="44.34823" lon="2.864">
        <ele>833</ele>
        <time>2013-03-07T14:01:16Z</time>
      </trkpt>
      <trkpt lat="44.34819" lon="2.86394">
        <ele>832</ele>
        <time>2013-03-07T14:01:25Z</time>
      </trkpt>
      <trkpt lat="44.34821" lon="2.86393">
        <ele>831</ele>
        <time>2013-03-07T14:01:34Z</time>
      </trkpt>
      <trkpt lat="44.3483" lon="2.8639">
        <ele>831</ele>
        <time>2013-03-07T14:01:47Z</time>
      </trkpt>
      <trkpt lat="44.34831" lon="2.86393">
        <ele>832</ele>
        <time>2013-03-07T14:01:55Z</time>
      </trkpt>
      <trkpt lat="44.3483" lon="2.86399">
        <ele>833</ele>
        <time>2013-03-07T14:01:58Z</time>
      </trkpt>
      <trkpt lat="44.3483" lon="2.86407">
        <ele>835</ele>
        <time>2013-03-07T14:02:02Z</time>
      </trkpt>
      <trkpt lat="44.34828" lon="2.86414">
        <ele>836</ele>
        <time>2013-03-07T14:02:09Z</time>
      </trkpt>
      <trkpt lat="44.34831" lon="2.86422">
        <ele>840</ele>
        <time>2013-03-07T14:02:18Z</time>
      </trkpt>
      <trkpt lat="44.34832" lon="2.86429">
        <ele>843</ele>
        <time>2013-03-07T14:02:28Z</time>
      </trkpt>
      <trkpt lat="44.34834" lon="2.86438">
        <ele>838</ele>
        <time>2013-03-07T14:02:34Z</time>
      </trkpt>
      <trkpt lat="44.34837" lon="2.86446">
        <ele>839</ele>
        <time>2013-03-07T14:02:42Z</time>
      </trkpt>
      <trkpt lat="44.34835" lon="2.86448">
        <ele>839</ele>
        <time>2013-03-07T14:02:52Z</time>
      </trkpt>
      <trkpt lat="44.34831" lon="2.86446">
        <ele>846</ele>
        <time>2013-03-07T14:03:00Z</time>
      </trkpt>
      <trkpt lat="44.34829" lon="2.86453">
        <ele>848</ele>
        <time>2013-03-07T14:03:23Z</time>
      </trkpt>
      <trkpt lat="44.34833" lon="2.86457">
        <ele>849</ele>
        <time>2013-03-07T14:03:32Z</time>
      </trkpt>
      <trkpt lat="44.34836" lon="2.86464">
        <ele>842</ele>
        <time>2013-03-07T14:03:39Z</time>
      </trkpt>
      <trkpt lat="44.34842" lon="2.86459">
        <ele>840</ele>
        <time>2013-03-07T14:03:51Z</time>
      </trkpt>
      <trkpt lat="44.34851" lon="2.8647">
        <ele>842</ele>
        <time>2013-03-07T14:04:16Z</time>
      </trkpt>
      <trkpt lat="44.34852" lon="2.86463">
        <ele>840</ele>
        <time>2013-03-07T14:04:20Z</time>
      </trkpt>
      <trkpt lat="44.34855" lon="2.86456">
        <ele>839</ele>
        <time>2013-03-07T14:04:25Z</time>
      </trkpt>
      <trkpt lat="44.34858" lon="2.86451">
        <ele>838</ele>
        <time>2013-03-07T14:04:30Z</time>
      </trkpt>
      <trkpt lat="44.34864" lon="2.86447">
        <ele>836</ele>
        <time>2013-03-07T14:04:36Z</time>
      </trkpt>
      <trkpt lat="44.34866" lon="2.86443">
        <ele>836</ele>
        <time>2013-03-07T14:04:40Z</time>
      </trkpt>
      <trkpt lat="44.34867" lon="2.86436">
        <ele>835</ele>
        <time>2013-03-07T14:04:44Z</time>
      </trkpt>
      <trkpt lat="44.34871" lon="2.86432">
        <ele>834</ele>
        <time>2013-03-07T14:04:48Z</time>
      </trkpt>
      <trkpt lat="44.34875" lon="2.86433">
        <ele>833</ele>
        <time>2013-03-07T14:04:53Z</time>
      </trkpt>
      <trkpt lat="44.3488" lon="2.86438">
        <ele>833</ele>
        <time>2013-03-07T14:04:56Z</time>
      </trkpt>
      <trkpt lat="44.34884" lon="2.86445">
        <ele>833</ele>
        <time>2013-03-07T14:05:00Z</time>
      </trkpt>
      <trkpt lat="44.34888" lon="2.86451">
        <ele>833</ele>
        <time>2013-03-07T14:05:03Z</time>
      </trkpt>
      <trkpt lat="44.34895" lon="2.86456">
        <ele>833</ele>
        <time>2013-03-07T14:05:06Z</time>
      </trkpt>
      <trkpt lat="44.34902" lon="2.86461">
        <ele>833</ele>
        <time>2013-03-07T14:05:07Z</time>
      </trkpt>
      <trkpt lat="44.34908" lon="2.86463">
        <ele>833</ele>
        <time>2013-03-07T14:05:10Z</time>
      </trkpt>
      <trkpt lat="44.34914" lon="2.86464">
        <ele>833</ele>
        <time>2013-03-07T14:05:11Z</time>
      </trkpt>
      <trkpt lat="44.3492" lon="2.86462">
        <ele>822</ele>
        <time>2013-03-07T14:05:14Z</time>
      </trkpt>
      <trkpt lat="44.34927" lon="2.86463">
        <ele>822</ele>
        <time>2013-03-07T14:05:16Z</time>
      </trkpt>
      <trkpt lat="44.34933" lon="2.86466">
        <ele>823</ele>
        <time>2013-03-07T14:05:19Z</time>
      </trkpt>
      <trkpt lat="44.34938" lon="2.86473">
        <ele>823</ele>
        <time>2013-03-07T14:05:20Z</time>
      </trkpt>
      <trkpt lat="44.34942" lon="2.86477">
        <ele>824</ele>
        <time>2013-03-07T14:05:23Z</time>
      </trkpt>
      <trkpt lat="44.3495" lon="2.86481">
        <ele>823</ele>
        <time>2013-03-07T14:05:24Z</time>
      </trkpt>
      <trkpt lat="44.34959" lon="2.86478">
        <ele>823</ele>
        <time>2013-03-07T14:05:27Z</time>
      </trkpt>
      <trkpt lat="44.34965" lon="2.86475">
        <ele>822</ele>
        <time>2013-03-07T14:05:28Z</time>
      </trkpt>
      <trkpt lat="44.34969" lon="2.86472">
        <ele>821</ele>
        <time>2013-03-07T14:05:31Z</time>
      </trkpt>
      <trkpt lat="44.34975" lon="2.86466">
        <ele>820</ele>
        <time>2013-03-07T14:05:34Z</time>
      </trkpt>
      <trkpt lat="44.34979" lon="2.86462">
        <ele>820</ele>
        <time>2013-03-07T14:05:37Z</time>
      </trkpt>
      <trkpt lat="44.34984" lon="2.86457">
        <ele>819</ele>
        <time>2013-03-07T14:05:39Z</time>
      </trkpt>
      <trkpt lat="44.34988" lon="2.86453">
        <ele>817</ele>
        <time>2013-03-07T14:05:42Z</time>
      </trkpt>
      <trkpt lat="44.34992" lon="2.86446">
        <ele>816</ele>
        <time>2013-03-07T14:05:46Z</time>
      </trkpt>
      <trkpt lat="44.34998" lon="2.8644">
        <ele>814</ele>
        <time>2013-03-07T14:05:49Z</time>
      </trkpt>
      <trkpt lat="44.35003" lon="2.86436">
        <ele>811</ele>
        <time>2013-03-07T14:05:51Z</time>
      </trkpt>
      <trkpt lat="44.35008" lon="2.86433">
        <ele>811</ele>
        <time>2013-03-07T14:05:54Z</time>
      </trkpt>
      <trkpt lat="44.35014" lon="2.8643">
        <ele>810</ele>
        <time>2013-03-07T14:05:55Z</time>
      </trkpt>
      <trkpt lat="44.3502" lon="2.86423">
        <ele>810</ele>
        <time>2013-03-07T14:05:58Z</time>
      </trkpt>
      <trkpt lat="44.35027" lon="2.86417">
        <ele>811</ele>
        <time>2013-03-07T14:06:00Z</time>
      </trkpt>
      <trkpt lat="44.35034" lon="2.86412">
        <ele>796</ele>
        <time>2013-03-07T14:06:01Z</time>
      </trkpt>
      <trkpt lat="44.3504" lon="2.86409">
        <ele>795</ele>
        <time>2013-03-07T14:06:04Z</time>
      </trkpt>
      <trkpt lat="44.35046" lon="2.86406">
        <ele>795</ele>
        <time>2013-03-07T14:06:05Z</time>
      </trkpt>
      <trkpt lat="44.35052" lon="2.86404">
        <ele>796</ele>
        <time>2013-03-07T14:06:08Z</time>
      </trkpt>
      <trkpt lat="44.35058" lon="2.86401">
        <ele>796</ele>
        <time>2013-03-07T14:06:09Z</time>
      </trkpt>
      <trkpt lat="44.35064" lon="2.86398">
        <ele>796</ele>
        <time>2013-03-07T14:06:12Z</time>
      </trkpt>
      <trkpt lat="44.35071" lon="2.86394">
        <ele>796</ele>
        <time>2013-03-07T14:06:13Z</time>
      </trkpt>
      <trkpt lat="44.35079" lon="2.86393">
        <ele>796</ele>
        <time>2013-03-07T14:06:16Z</time>
      </trkpt>
      <trkpt lat="44.35087" lon="2.86389">
        <ele>792</ele>
        <time>2013-03-07T14:06:17Z</time>
      </trkpt>
      <trkpt lat="44.35093" lon="2.86385">
        <ele>790</ele>
        <time>2013-03-07T14:06:20Z</time>
      </trkpt>
      <trkpt lat="44.35098" lon="2.86381">
        <ele>789</ele>
        <time>2013-03-07T14:06:21Z</time>
      </trkpt>
      <trkpt lat="44.35106" lon="2.86381">
        <ele>788</ele>
        <time>2013-03-07T14:06:24Z</time>
      </trkpt>
      <trkpt lat="44.35115" lon="2.8638">
        <ele>787</ele>
        <time>2013-03-07T14:06:25Z</time>
      </trkpt>
      <trkpt lat="44.35119" lon="2.8638">
        <ele>787</ele>
        <time>2013-03-07T14:06:27Z</time>
      </trkpt>
      <trkpt lat="44.35128" lon="2.86376">
        <ele>786</ele>
        <time>2013-03-07T14:06:28Z</time>
      </trkpt>
      <trkpt lat="44.35135" lon="2.86374">
        <ele>785</ele>
        <time>2013-03-07T14:06:31Z</time>
      </trkpt>
      <trkpt lat="44.3514" lon="2.8637">
        <ele>784</ele>
        <time>2013-03-07T14:06:32Z</time>
      </trkpt>
      <trkpt lat="44.35143" lon="2.86361">
        <ele>782</ele>
        <time>2013-03-07T14:06:36Z</time>
      </trkpt>
      <trkpt lat="44.35147" lon="2.86355">
        <ele>781</ele>
        <time>2013-03-07T14:06:41Z</time>
      </trkpt>
      <trkpt lat="44.35152" lon="2.86351">
        <ele>779</ele>
        <time>2013-03-07T14:06:45Z</time>
      </trkpt>
      <trkpt lat="44.35156" lon="2.86343">
        <ele>777</ele>
        <time>2013-03-07T14:06:48Z</time>
      </trkpt>
      <trkpt lat="44.35159" lon="2.86337">
        <ele>775</ele>
        <time>2013-03-07T14:06:52Z</time>
      </trkpt>
      <trkpt lat="44.35165" lon="2.86326">
        <ele>769</ele>
        <time>2013-03-07T14:07:03Z</time>
      </trkpt>
      <trkpt lat="44.35163" lon="2.86317">
        <ele>766</ele>
        <time>2013-03-07T14:07:19Z</time>
      </trkpt>
      <trkpt lat="44.35157" lon="2.86315">
        <ele>766</ele>
        <time>2013-03-07T14:07:27Z</time>
      </trkpt>
      <trkpt lat="44.35159" lon="2.86318">
        <ele>766</ele>
        <time>2013-03-07T14:07:41Z</time>
      </trkpt>
      <trkpt lat="44.35157" lon="2.86314">
        <ele>766</ele>
        <time>2013-03-07T14:08:47Z</time>
      </trkpt>
      <trkpt lat="44.35156" lon="2.86307">
        <ele>764</ele>
        <time>2013-03-07T14:08:54Z</time>
      </trkpt>
      <trkpt lat="44.35151" lon="2.86303">
        <ele>764</ele>
        <time>2013-03-07T14:09:00Z</time>
      </trkpt>
      <trkpt lat="44.35147" lon="2.86299">
        <ele>763</ele>
        <time>2013-03-07T14:09:11Z</time>
      </trkpt>
      <trkpt lat="44.35142" lon="2.86296">
        <ele>762</ele>
        <time>2013-03-07T14:09:18Z</time>
      </trkpt>
      <trkpt lat="44.35139" lon="2.86294">
        <ele>762</ele>
        <time>2013-03-07T14:09:25Z</time>
      </trkpt>
      <trkpt lat="44.3514" lon="2.86303">
        <ele>763</ele>
        <time>2013-03-07T14:09:48Z</time>
      </trkpt>
      <trkpt lat="44.35142" lon="2.863">
        <ele>763</ele>
        <time>2013-03-07T14:10:04Z</time>
      </trkpt>
      <trkpt lat="44.35141" lon="2.86291">
        <ele>762</ele>
        <time>2013-03-07T14:10:08Z</time>
      </trkpt>
      <trkpt lat="44.35141" lon="2.86285">
        <ele>761</ele>
        <time>2013-03-07T14:10:12Z</time>
      </trkpt>
      <trkpt lat="44.3514" lon="2.86277">
        <ele>760</ele>
        <time>2013-03-07T14:10:17Z</time>
      </trkpt>
      <trkpt lat="44.3514" lon="2.8627">
        <ele>759</ele>
        <time>2013-03-07T14:10:21Z</time>
      </trkpt>
      <trkpt lat="44.35139" lon="2.86261">
        <ele>758</ele>
        <time>2013-03-07T14:10:24Z</time>
      </trkpt>
      <trkpt lat="44.35137" lon="2.86252">
        <ele>757</ele>
        <time>2013-03-07T14:10:29Z</time>
      </trkpt>
      <trkpt lat="44.35133" lon="2.86247">
        <ele>749</ele>
        <time>2013-03-07T14:10:34Z</time>
      </trkpt>
      <trkpt lat="44.35129" lon="2.8624">
        <ele>749</ele>
        <time>2013-03-07T14:10:38Z</time>
      </trkpt>
      <trkpt lat="44.35127" lon="2.86232">
        <ele>749</ele>
        <time>2013-03-07T14:10:40Z</time>
      </trkpt>
      <trkpt lat="44.35126" lon="2.86224">
        <ele>749</ele>
        <time>2013-03-07T14:10:43Z</time>
      </trkpt>
      <trkpt lat="44.35124" lon="2.86217">
        <ele>749</ele>
        <time>2013-03-07T14:10:47Z</time>
      </trkpt>
      <trkpt lat="44.35125" lon="2.86211">
        <ele>749</ele>
        <time>2013-03-07T14:10:50Z</time>
      </trkpt>
      <trkpt lat="44.3513" lon="2.86204">
        <ele>748</ele>
        <time>2013-03-07T14:10:52Z</time>
      </trkpt>
      <trkpt lat="44.35135" lon="2.86198">
        <ele>747</ele>
        <time>2013-03-07T14:10:55Z</time>
      </trkpt>
      <trkpt lat="44.35139" lon="2.86193">
        <ele>747</ele>
        <time>2013-03-07T14:10:58Z</time>
      </trkpt>
      <trkpt lat="44.35142" lon="2.86189">
        <ele>746</ele>
        <time>2013-03-07T14:10:59Z</time>
      </trkpt>
      <trkpt lat="44.35148" lon="2.86184">
        <ele>744</ele>
        <time>2013-03-07T14:11:02Z</time>
      </trkpt>
      <trkpt lat="44.35153" lon="2.8618">
        <ele>743</ele>
        <time>2013-03-07T14:11:05Z</time>
      </trkpt>
      <trkpt lat="44.35159" lon="2.86174">
        <ele>740</ele>
        <time>2013-03-07T14:11:07Z</time>
      </trkpt>
      <trkpt lat="44.35164" lon="2.86166">
        <ele>736</ele>
        <time>2013-03-07T14:11:10Z</time>
      </trkpt>
      <trkpt lat="44.35169" lon="2.8616">
        <ele>734</ele>
        <time>2013-03-07T14:11:11Z</time>
      </trkpt>
      <trkpt lat="44.35175" lon="2.86154">
        <ele>732</ele>
        <time>2013-03-07T14:11:14Z</time>
      </trkpt>
      <trkpt lat="44.3518" lon="2.8615">
        <ele>732</ele>
        <time>2013-03-07T14:11:15Z</time>
      </trkpt>
      <trkpt lat="44.35186" lon="2.86146">
        <ele>731</ele>
        <time>2013-03-07T14:11:18Z</time>
      </trkpt>
      <trkpt lat="44.35194" lon="2.86142">
        <ele>730</ele>
        <time>2013-03-07T14:11:19Z</time>
      </trkpt>
      <trkpt lat="44.35201" lon="2.86137">
        <ele>730</ele>
        <time>2013-03-07T14:11:22Z</time>
      </trkpt>
      <trkpt lat="44.35209" lon="2.86133">
        <ele>729</ele>
        <time>2013-03-07T14:11:23Z</time>
      </trkpt>
      <trkpt lat="44.35214" lon="2.86132">
        <ele>728</ele>
        <time>2013-03-07T14:11:25Z</time>
      </trkpt>
      <trkpt lat="44.35219" lon="2.86132">
        <ele>728</ele>
        <time>2013-03-07T14:11:28Z</time>
      </trkpt>
      <trkpt lat="44.35227" lon="2.86133">
        <ele>727</ele>
        <time>2013-03-07T14:11:29Z</time>
      </trkpt>
      <trkpt lat="44.35237" lon="2.86132">
        <ele>726</ele>
        <time>2013-03-07T14:11:32Z</time>
      </trkpt>
      <trkpt lat="44.35244" lon="2.86133">
        <ele>726</ele>
        <time>2013-03-07T14:11:33Z</time>
      </trkpt>
      <trkpt lat="44.35251" lon="2.86132">
        <ele>715</ele>
        <time>2013-03-07T14:11:36Z</time>
      </trkpt>
      <trkpt lat="44.35259" lon="2.8613">
        <ele>715</ele>
        <time>2013-03-07T14:11:37Z</time>
      </trkpt>
      <trkpt lat="44.35267" lon="2.86126">
        <ele>714</ele>
        <time>2013-03-07T14:11:40Z</time>
      </trkpt>
      <trkpt lat="44.35275" lon="2.8612">
        <ele>713</ele>
        <time>2013-03-07T14:11:41Z</time>
      </trkpt>
      <trkpt lat="44.3528" lon="2.86115">
        <ele>713</ele>
        <time>2013-03-07T14:11:44Z</time>
      </trkpt>
      <trkpt lat="44.35286" lon="2.86115">
        <ele>712</ele>
        <time>2013-03-07T14:11:45Z</time>
      </trkpt>
      <trkpt lat="44.35291" lon="2.86116">
        <ele>711</ele>
        <time>2013-03-07T14:11:48Z</time>
      </trkpt>
      <trkpt lat="44.35296" lon="2.86114">
        <ele>711</ele>
        <time>2013-03-07T14:11:52Z</time>
      </trkpt>
      <trkpt lat="44.35301" lon="2.86116">
        <ele>710</ele>
        <time>2013-03-07T14:11:56Z</time>
      </trkpt>
      <trkpt lat="44.35307" lon="2.86118">
        <ele>710</ele>
        <time>2013-03-07T14:12:00Z</time>
      </trkpt>
      <trkpt lat="44.35312" lon="2.8612">
        <ele>709</ele>
        <time>2013-03-07T14:12:01Z</time>
      </trkpt>
      <trkpt lat="44.35317" lon="2.86121">
        <ele>709</ele>
        <time>2013-03-07T14:12:04Z</time>
      </trkpt>
      <trkpt lat="44.35325" lon="2.86122">
        <ele>708</ele>
        <time>2013-03-07T14:12:07Z</time>
      </trkpt>
      <trkpt lat="44.3533" lon="2.86123">
        <ele>708</ele>
        <time>2013-03-07T14:12:08Z</time>
      </trkpt>
      <trkpt lat="44.35336" lon="2.86125">
        <ele>698</ele>
        <time>2013-03-07T14:12:11Z</time>
      </trkpt>
      <trkpt lat="44.35342" lon="2.86127">
        <ele>698</ele>
        <time>2013-03-07T14:12:12Z</time>
      </trkpt>
      <trkpt lat="44.35349" lon="2.8613">
        <ele>698</ele>
        <time>2013-03-07T14:12:15Z</time>
      </trkpt>
      <trkpt lat="44.35356" lon="2.86133">
        <ele>697</ele>
        <time>2013-03-07T14:12:16Z</time>
      </trkpt>
      <trkpt lat="44.35362" lon="2.86133">
        <ele>697</ele>
        <time>2013-03-07T14:12:19Z</time>
      </trkpt>
      <trkpt lat="44.35369" lon="2.86132">
        <ele>696</ele>
        <time>2013-03-07T14:12:20Z</time>
      </trkpt>
      <trkpt lat="44.35376" lon="2.86131">
        <ele>696</ele>
        <time>2013-03-07T14:12:23Z</time>
      </trkpt>
      <trkpt lat="44.35383" lon="2.8613">
        <ele>695</ele>
        <time>2013-03-07T14:12:24Z</time>
      </trkpt>
      <trkpt lat="44.35389" lon="2.86127">
        <ele>695</ele>
        <time>2013-03-07T14:12:27Z</time>
      </trkpt>
      <trkpt lat="44.35395" lon="2.86126">
        <ele>694</ele>
        <time>2013-03-07T14:12:28Z</time>
      </trkpt>
      <trkpt lat="44.35401" lon="2.86123">
        <ele>694</ele>
        <time>2013-03-07T14:12:31Z</time>
      </trkpt>
      <trkpt lat="44.35407" lon="2.86119">
        <ele>694</ele>
        <time>2013-03-07T14:12:32Z</time>
      </trkpt>
      <trkpt lat="44.35412" lon="2.86112">
        <ele>694</ele>
        <time>2013-03-07T14:12:35Z</time>
      </trkpt>
      <trkpt lat="44.35417" lon="2.86107">
        <ele>688</ele>
        <time>2013-03-07T14:12:36Z</time>
      </trkpt>
      <trkpt lat="44.35423" lon="2.86104">
        <ele>689</ele>
        <time>2013-03-07T14:12:39Z</time>
      </trkpt>
      <trkpt lat="44.35429" lon="2.86099">
        <ele>689</ele>
        <time>2013-03-07T14:12:42Z</time>
      </trkpt>
      <trkpt lat="44.35434" lon="2.86093">
        <ele>689</ele>
        <time>2013-03-07T14:12:43Z</time>
      </trkpt>
      <trkpt lat="44.35439" lon="2.8609">
        <ele>688</ele>
        <time>2013-03-07T14:12:46Z</time>
      </trkpt>
      <trkpt lat="44.35444" lon="2.86085">
        <ele>688</ele>
        <time>2013-03-07T14:12:47Z</time>
      </trkpt>
      <trkpt lat="44.35449" lon="2.86078">
        <ele>690</ele>
        <time>2013-03-07T14:12:50Z</time>
      </trkpt>
      <trkpt lat="44.35454" lon="2.86072">
        <ele>690</ele>
        <time>2013-03-07T14:12:51Z</time>
      </trkpt>
      <trkpt lat="44.35461" lon="2.86071">
        <ele>690</ele>
        <time>2013-03-07T14:12:54Z</time>
      </trkpt>
      <trkpt lat="44.35465" lon="2.86075">
        <ele>689</ele>
        <time>2013-03-07T14:12:57Z</time>
      </trkpt>
      <trkpt lat="44.35468" lon="2.86081">
        <ele>689</ele>
        <time>2013-03-07T14:12:58Z</time>
      </trkpt>
      <trkpt lat="44.3547" lon="2.86088">
        <ele>686</ele>
        <time>2013-03-07T14:13:01Z</time>
      </trkpt>
      <trkpt lat="44.35473" lon="2.86094">
        <ele>685</ele>
        <time>2013-03-07T14:13:02Z</time>
      </trkpt>
      <trkpt lat="44.3548" lon="2.86098">
        <ele>685</ele>
        <time>2013-03-07T14:13:05Z</time>
      </trkpt>
      <trkpt lat="44.35487" lon="2.86099">
        <ele>685</ele>
        <time>2013-03-07T14:13:06Z</time>
      </trkpt>
      <trkpt lat="44.35494" lon="2.861">
        <ele>684</ele>
        <time>2013-03-07T14:13:09Z</time>
      </trkpt>
      <trkpt lat="44.35501" lon="2.86099">
        <ele>681</ele>
        <time>2013-03-07T14:13:10Z</time>
      </trkpt>
      <trkpt lat="44.35508" lon="2.86099">
        <ele>681</ele>
        <time>2013-03-07T14:13:13Z</time>
      </trkpt>
      <trkpt lat="44.35515" lon="2.86098">
        <ele>680</ele>
        <time>2013-03-07T14:13:14Z</time>
      </trkpt>
      <trkpt lat="44.35522" lon="2.86097">
        <ele>680</ele>
        <time>2013-03-07T14:13:17Z</time>
      </trkpt>
      <trkpt lat="44.35529" lon="2.86096">
        <ele>679</ele>
        <time>2013-03-07T14:13:18Z</time>
      </trkpt>
      <trkpt lat="44.35535" lon="2.86095">
        <ele>679</ele>
        <time>2013-03-07T14:13:21Z</time>
      </trkpt>
      <trkpt lat="44.35542" lon="2.86094">
        <ele>678</ele>
        <time>2013-03-07T14:13:22Z</time>
      </trkpt>
      <trkpt lat="44.35548" lon="2.86094">
        <ele>678</ele>
        <time>2013-03-07T14:13:25Z</time>
      </trkpt>
      <trkpt lat="44.35555" lon="2.86093">
        <ele>677</ele>
        <time>2013-03-07T14:13:26Z</time>
      </trkpt>
      <trkpt lat="44.35561" lon="2.86092">
        <ele>677</ele>
        <time>2013-03-07T14:13:29Z</time>
      </trkpt>
      <trkpt lat="44.35567" lon="2.86089">
        <ele>677</ele>
        <time>2013-03-07T14:13:30Z</time>
      </trkpt>
      <trkpt lat="44.35572" lon="2.86084">
        <ele>677</ele>
        <time>2013-03-07T14:13:33Z</time>
      </trkpt>
      <trkpt lat="44.35575" lon="2.86077">
        <ele>678</ele>
        <time>2013-03-07T14:13:34Z</time>
      </trkpt>
      <trkpt lat="44.3558" lon="2.86069">
        <ele>679</ele>
        <time>2013-03-07T14:13:37Z</time>
      </trkpt>
      <trkpt lat="44.35583" lon="2.86062">
        <ele>679</ele>
        <time>2013-03-07T14:13:40Z</time>
      </trkpt>
      <trkpt lat="44.35585" lon="2.86057">
        <ele>676</ele>
        <time>2013-03-07T14:13:41Z</time>
      </trkpt>
      <trkpt lat="44.35588" lon="2.8605">
        <ele>676</ele>
        <time>2013-03-07T14:13:44Z</time>
      </trkpt>
      <trkpt lat="44.35591" lon="2.86043">
        <ele>677</ele>
        <time>2013-03-07T14:13:45Z</time>
      </trkpt>
      <trkpt lat="44.35594" lon="2.86037">
        <ele>677</ele>
        <time>2013-03-07T14:13:48Z</time>
      </trkpt>
      <trkpt lat="44.35597" lon="2.86031">
        <ele>677</ele>
        <time>2013-03-07T14:13:49Z</time>
      </trkpt>
      <trkpt lat="44.356" lon="2.86024">
        <ele>677</ele>
        <time>2013-03-07T14:13:52Z</time>
      </trkpt>
      <trkpt lat="44.35602" lon="2.86017">
        <ele>678</ele>
        <time>2013-03-07T14:13:53Z</time>
      </trkpt>
      <trkpt lat="44.35605" lon="2.86011">
        <ele>678</ele>
        <time>2013-03-07T14:13:56Z</time>
      </trkpt>
      <trkpt lat="44.35609" lon="2.86005">
        <ele>678</ele>
        <time>2013-03-07T14:13:57Z</time>
      </trkpt>
      <trkpt lat="44.35613" lon="2.86001">
        <ele>677</ele>
        <time>2013-03-07T14:14:00Z</time>
      </trkpt>
      <trkpt lat="44.35617" lon="2.85996">
        <ele>679</ele>
        <time>2013-03-07T14:14:01Z</time>
      </trkpt>
      <trkpt lat="44.35621" lon="2.85991">
        <ele>679</ele>
        <time>2013-03-07T14:14:04Z</time>
      </trkpt>
      <trkpt lat="44.35626" lon="2.85986">
        <ele>679</ele>
        <time>2013-03-07T14:14:06Z</time>
      </trkpt>
      <trkpt lat="44.3563" lon="2.85981">
        <ele>679</ele>
        <time>2013-03-07T14:14:07Z</time>
      </trkpt>
      <trkpt lat="44.35635" lon="2.85975">
        <ele>679</ele>
        <time>2013-03-07T14:14:10Z</time>
      </trkpt>
      <trkpt lat="44.3564" lon="2.8597">
        <ele>678</ele>
        <time>2013-03-07T14:14:11Z</time>
      </trkpt>
      <trkpt lat="44.35644" lon="2.85965">
        <ele>678</ele>
        <time>2013-03-07T14:14:14Z</time>
      </trkpt>
      <trkpt lat="44.35649" lon="2.8596">
        <ele>678</ele>
        <time>2013-03-07T14:14:15Z</time>
      </trkpt>
      <trkpt lat="44.35654" lon="2.85954">
        <ele>678</ele>
        <time>2013-03-07T14:14:18Z</time>
      </trkpt>
      <trkpt lat="44.35658" lon="2.85949">
        <ele>678</ele>
        <time>2013-03-07T14:14:19Z</time>
      </trkpt>
      <trkpt lat="44.35663" lon="2.85944">
        <ele>678</ele>
        <time>2013-03-07T14:14:22Z</time>
      </trkpt>
      <trkpt lat="44.35667" lon="2.8594">
        <ele>674</ele>
        <time>2013-03-07T14:14:23Z</time>
      </trkpt>
      <trkpt lat="44.35672" lon="2.85934">
        <ele>674</ele>
        <time>2013-03-07T14:14:26Z</time>
      </trkpt>
      <trkpt lat="44.35677" lon="2.85929">
        <ele>674</ele>
        <time>2013-03-07T14:14:27Z</time>
      </trkpt>
      <trkpt lat="44.35682" lon="2.85923">
        <ele>674</ele>
        <time>2013-03-07T14:14:30Z</time>
      </trkpt>
      <trkpt lat="44.35686" lon="2.85917">
        <ele>674</ele>
        <time>2013-03-07T14:14:31Z</time>
      </trkpt>
      <trkpt lat="44.35691" lon="2.85912">
        <ele>673</ele>
        <time>2013-03-07T14:14:34Z</time>
      </trkpt>
      <trkpt lat="44.35696" lon="2.85906">
        <ele>673</ele>
        <time>2013-03-07T14:14:35Z</time>
      </trkpt>
      <trkpt lat="44.357" lon="2.859">
        <ele>672</ele>
        <time>2013-03-07T14:14:38Z</time>
      </trkpt>
      <trkpt lat="44.35705" lon="2.85893">
        <ele>672</ele>
        <time>2013-03-07T14:14:39Z</time>
      </trkpt>
      <trkpt lat="44.35709" lon="2.85885">
        <ele>672</ele>
        <time>2013-03-07T14:14:42Z</time>
      </trkpt>
      <trkpt lat="44.35714" lon="2.85876">
        <ele>671</ele>
        <time>2013-03-07T14:14:43Z</time>
      </trkpt>
      <trkpt lat="44.35718" lon="2.85865">
        <ele>671</ele>
        <time>2013-03-07T14:14:46Z</time>
      </trkpt>
      <trkpt lat="44.35721" lon="2.85855">
        <ele>670</ele>
        <time>2013-03-07T14:14:47Z</time>
      </trkpt>
      <trkpt lat="44.35724" lon="2.85845">
        <ele>670</ele>
        <time>2013-03-07T14:14:50Z</time>
      </trkpt>
      <trkpt lat="44.35727" lon="2.85836">
        <ele>670</ele>
        <time>2013-03-07T14:14:51Z</time>
      </trkpt>
      <trkpt lat="44.35729" lon="2.85827">
        <ele>669</ele>
        <time>2013-03-07T14:14:54Z</time>
      </trkpt>
      <trkpt lat="44.35729" lon="2.85818">
        <ele>669</ele>
        <time>2013-03-07T14:14:55Z</time>
      </trkpt>
      <trkpt lat="44.3573" lon="2.85809">
        <ele>669</ele>
        <time>2013-03-07T14:14:58Z</time>
      </trkpt>
      <trkpt lat="44.35732" lon="2.85801">
        <ele>669</ele>
        <time>2013-03-07T14:15:00Z</time>
      </trkpt>
      <trkpt lat="44.35734" lon="2.85795">
        <ele>669</ele>
        <time>2013-03-07T14:15:01Z</time>
      </trkpt>
      <trkpt lat="44.35737" lon="2.85788">
        <ele>669</ele>
        <time>2013-03-07T14:15:04Z</time>
      </trkpt>
      <trkpt lat="44.3574" lon="2.85781">
        <ele>669</ele>
        <time>2013-03-07T14:15:05Z</time>
      </trkpt>
      <trkpt lat="44.35745" lon="2.85777">
        <ele>668</ele>
        <time>2013-03-07T14:15:08Z</time>
      </trkpt>
      <trkpt lat="44.35751" lon="2.85774">
        <ele>663</ele>
        <time>2013-03-07T14:15:09Z</time>
      </trkpt>
      <trkpt lat="44.35756" lon="2.85771">
        <ele>663</ele>
        <time>2013-03-07T14:15:12Z</time>
      </trkpt>
      <trkpt lat="44.35763" lon="2.85766">
        <ele>663</ele>
        <time>2013-03-07T14:15:13Z</time>
      </trkpt>
      <trkpt lat="44.35769" lon="2.85761">
        <ele>663</ele>
        <time>2013-03-07T14:15:16Z</time>
      </trkpt>
      <trkpt lat="44.35775" lon="2.85757">
        <ele>663</ele>
        <time>2013-03-07T14:15:17Z</time>
      </trkpt>
      <trkpt lat="44.35782" lon="2.85752">
        <ele>663</ele>
        <time>2013-03-07T14:15:20Z</time>
      </trkpt>
      <trkpt lat="44.35789" lon="2.85747">
        <ele>663</ele>
        <time>2013-03-07T14:15:21Z</time>
      </trkpt>
      <trkpt lat="44.35796" lon="2.85743">
        <ele>663</ele>
        <time>2013-03-07T14:15:24Z</time>
      </trkpt>
      <trkpt lat="44.35802" lon="2.85738">
        <ele>662</ele>
        <time>2013-03-07T14:15:25Z</time>
      </trkpt>
      <trkpt lat="44.35807" lon="2.85732">
        <ele>662</ele>
        <time>2013-03-07T14:15:28Z</time>
      </trkpt>
      <trkpt lat="44.35814" lon="2.85725">
        <ele>662</ele>
        <time>2013-03-07T14:15:31Z</time>
      </trkpt>
      <trkpt lat="44.35818" lon="2.85718">
        <ele>662</ele>
        <time>2013-03-07T14:15:32Z</time>
      </trkpt>
      <trkpt lat="44.35822" lon="2.85712">
        <ele>662</ele>
        <time>2013-03-07T14:15:35Z</time>
      </trkpt>
      <trkpt lat="44.35825" lon="2.85708">
        <ele>662</ele>
        <time>2013-03-07T14:15:36Z</time>
      </trkpt>
      <trkpt lat="44.35829" lon="2.85701">
        <ele>662</ele>
        <time>2013-03-07T14:15:39Z</time>
      </trkpt>
      <trkpt lat="44.35834" lon="2.85696">
        <ele>658</ele>
        <time>2013-03-07T14:15:40Z</time>
      </trkpt>
      <trkpt lat="44.35838" lon="2.85691">
        <ele>659</ele>
        <time>2013-03-07T14:15:43Z</time>
      </trkpt>
      <trkpt lat="44.35842" lon="2.85684">
        <ele>659</ele>
        <time>2013-03-07T14:15:44Z</time>
      </trkpt>
      <trkpt lat="44.35846" lon="2.85678">
        <ele>659</ele>
        <time>2013-03-07T14:15:47Z</time>
      </trkpt>
      <trkpt lat="44.3585" lon="2.85671">
        <ele>659</ele>
        <time>2013-03-07T14:15:48Z</time>
      </trkpt>
      <trkpt lat="44.35853" lon="2.85664">
        <ele>660</ele>
        <time>2013-03-07T14:15:51Z</time>
      </trkpt>
      <trkpt lat="44.35857" lon="2.85657">
        <ele>659</ele>
        <time>2013-03-07T14:15:52Z</time>
      </trkpt>
      <trkpt lat="44.35861" lon="2.85648">
        <ele>659</ele>
        <time>2013-03-07T14:15:55Z</time>
      </trkpt>
      <trkpt lat="44.35864" lon="2.8564">
        <ele>659</ele>
        <time>2013-03-07T14:15:56Z</time>
      </trkpt>
      <trkpt lat="44.35867" lon="2.85633">
        <ele>659</ele>
        <time>2013-03-07T14:15:59Z</time>
      </trkpt>
      <trkpt lat="44.35871" lon="2.85626">
        <ele>658</ele>
        <time>2013-03-07T14:16:00Z</time>
      </trkpt>
      <trkpt lat="44.35875" lon="2.8562">
        <ele>658</ele>
        <time>2013-03-07T14:16:03Z</time>
      </trkpt>
      <trkpt lat="44.3588" lon="2.85615">
        <ele>658</ele>
        <time>2013-03-07T14:16:04Z</time>
      </trkpt>
      <trkpt lat="44.35884" lon="2.85609">
        <ele>658</ele>
        <time>2013-03-07T14:16:07Z</time>
      </trkpt>
      <trkpt lat="44.35888" lon="2.85605">
        <ele>658</ele>
        <time>2013-03-07T14:16:08Z</time>
      </trkpt>
      <trkpt lat="44.35893" lon="2.85599">
        <ele>657</ele>
        <time>2013-03-07T14:16:11Z</time>
      </trkpt>
      <trkpt lat="44.35898" lon="2.85595">
        <ele>657</ele>
        <time>2013-03-07T14:16:12Z</time>
      </trkpt>
      <trkpt lat="44.35903" lon="2.8559">
        <ele>656</ele>
        <time>2013-03-07T14:16:15Z</time>
      </trkpt>
      <trkpt lat="44.35908" lon="2.85586">
        <ele>655</ele>
        <time>2013-03-07T14:16:16Z</time>
      </trkpt>
      <trkpt lat="44.35913" lon="2.85581">
        <ele>656</ele>
        <time>2013-03-07T14:16:19Z</time>
      </trkpt>
      <trkpt lat="44.35918" lon="2.85577">
        <ele>654</ele>
        <time>2013-03-07T14:16:21Z</time>
      </trkpt>
      <trkpt lat="44.35922" lon="2.85571">
        <ele>654</ele>
        <time>2013-03-07T14:16:22Z</time>
      </trkpt>
      <trkpt lat="44.35927" lon="2.85566">
        <ele>654</ele>
        <time>2013-03-07T14:16:25Z</time>
      </trkpt>
      <trkpt lat="44.35932" lon="2.85559">
        <ele>654</ele>
        <time>2013-03-07T14:16:26Z</time>
      </trkpt>
      <trkpt lat="44.35937" lon="2.85554">
        <ele>654</ele>
        <time>2013-03-07T14:16:29Z</time>
      </trkpt>
      <trkpt lat="44.35942" lon="2.8555">
        <ele>654</ele>
        <time>2013-03-07T14:16:30Z</time>
      </trkpt>
      <trkpt lat="44.35947" lon="2.85546">
        <ele>654</ele>
        <time>2013-03-07T14:16:33Z</time>
      </trkpt>
      <trkpt lat="44.35952" lon="2.8554">
        <ele>654</ele>
        <time>2013-03-07T14:16:34Z</time>
      </trkpt>
      <trkpt lat="44.35957" lon="2.85535">
        <ele>654</ele>
        <time>2013-03-07T14:16:37Z</time>
      </trkpt>
      <trkpt lat="44.35962" lon="2.85532">
        <ele>654</ele>
        <time>2013-03-07T14:16:38Z</time>
      </trkpt>
      <trkpt lat="44.35967" lon="2.85528">
        <ele>654</ele>
        <time>2013-03-07T14:16:41Z</time>
      </trkpt>
      <trkpt lat="44.35972" lon="2.85524">
        <ele>654</ele>
        <time>2013-03-07T14:16:42Z</time>
      </trkpt>
      <trkpt lat="44.35978" lon="2.8552">
        <ele>653</ele>
        <time>2013-03-07T14:16:45Z</time>
      </trkpt>
      <trkpt lat="44.35984" lon="2.85515">
        <ele>653</ele>
        <time>2013-03-07T14:16:46Z</time>
      </trkpt>
      <trkpt lat="44.3599" lon="2.85512">
        <ele>652</ele>
        <time>2013-03-07T14:16:49Z</time>
      </trkpt>
      <trkpt lat="44.35995" lon="2.85508">
        <ele>652</ele>
        <time>2013-03-07T14:16:50Z</time>
      </trkpt>
      <trkpt lat="44.36001" lon="2.85504">
        <ele>650</ele>
        <time>2013-03-07T14:16:53Z</time>
      </trkpt>
      <trkpt lat="44.36007" lon="2.85501">
        <ele>650</ele>
        <time>2013-03-07T14:16:54Z</time>
      </trkpt>
      <trkpt lat="44.36013" lon="2.85496">
        <ele>650</ele>
        <time>2013-03-07T14:16:57Z</time>
      </trkpt>
      <trkpt lat="44.36019" lon="2.85492">
        <ele>650</ele>
        <time>2013-03-07T14:16:58Z</time>
      </trkpt>
      <trkpt lat="44.36025" lon="2.85488">
        <ele>650</ele>
        <time>2013-03-07T14:17:01Z</time>
      </trkpt>
      <trkpt lat="44.3603" lon="2.85484">
        <ele>650</ele>
        <time>2013-03-07T14:17:02Z</time>
      </trkpt>
      <trkpt lat="44.36036" lon="2.85479">
        <ele>650</ele>
        <time>2013-03-07T14:17:05Z</time>
      </trkpt>
      <trkpt lat="44.36041" lon="2.85474">
        <ele>650</ele>
        <time>2013-03-07T14:17:06Z</time>
      </trkpt>
      <trkpt lat="44.36045" lon="2.85468">
        <ele>649</ele>
        <time>2013-03-07T14:17:09Z</time>
      </trkpt>
      <trkpt lat="44.36049" lon="2.85464">
        <ele>649</ele>
        <time>2013-03-07T14:17:10Z</time>
      </trkpt>
      <trkpt lat="44.36053" lon="2.85459">
        <ele>649</ele>
        <time>2013-03-07T14:17:13Z</time>
      </trkpt>
      <trkpt lat="44.36056" lon="2.85453">
        <ele>649</ele>
        <time>2013-03-07T14:17:15Z</time>
      </trkpt>
      <trkpt lat="44.36059" lon="2.85447">
        <ele>649</ele>
        <time>2013-03-07T14:17:16Z</time>
      </trkpt>
      <trkpt lat="44.36062" lon="2.8544">
        <ele>649</ele>
        <time>2013-03-07T14:17:19Z</time>
      </trkpt>
      <trkpt lat="44.36066" lon="2.85434">
        <ele>649</ele>
        <time>2013-03-07T14:17:20Z</time>
      </trkpt>
      <trkpt lat="44.36069" lon="2.85428">
        <ele>649</ele>
        <time>2013-03-07T14:17:23Z</time>
      </trkpt>
      <trkpt lat="44.36073" lon="2.85422">
        <ele>649</ele>
        <time>2013-03-07T14:17:24Z</time>
      </trkpt>
      <trkpt lat="44.36076" lon="2.85415">
        <ele>650</ele>
        <time>2013-03-07T14:17:27Z</time>
      </trkpt>
      <trkpt lat="44.36081" lon="2.85406">
        <ele>651</ele>
        <time>2013-03-07T14:17:29Z</time>
      </trkpt>
      <trkpt lat="44.36085" lon="2.85398">
        <ele>648</ele>
        <time>2013-03-07T14:17:32Z</time>
      </trkpt>
      <trkpt lat="44.36087" lon="2.85391">
        <ele>648</ele>
        <time>2013-03-07T14:17:35Z</time>
      </trkpt>
      <trkpt lat="44.36089" lon="2.85385">
        <ele>648</ele>
        <time>2013-03-07T14:17:36Z</time>
      </trkpt>
      <trkpt lat="44.36092" lon="2.85378">
        <ele>648</ele>
        <time>2013-03-07T14:17:39Z</time>
      </trkpt>
      <trkpt lat="44.36094" lon="2.8537">
        <ele>648</ele>
        <time>2013-03-07T14:17:40Z</time>
      </trkpt>
      <trkpt lat="44.36097" lon="2.85361">
        <ele>648</ele>
        <time>2013-03-07T14:17:43Z</time>
      </trkpt>
      <trkpt lat="44.36099" lon="2.85352">
        <ele>649</ele>
        <time>2013-03-07T14:17:44Z</time>
      </trkpt>
      <trkpt lat="44.36102" lon="2.85343">
        <ele>649</ele>
        <time>2013-03-07T14:17:47Z</time>
      </trkpt>
      <trkpt lat="44.36103" lon="2.85334">
        <ele>649</ele>
        <time>2013-03-07T14:17:48Z</time>
      </trkpt>
      <trkpt lat="44.36106" lon="2.85327">
        <ele>650</ele>
        <time>2013-03-07T14:17:51Z</time>
      </trkpt>
      <trkpt lat="44.36109" lon="2.85319">
        <ele>650</ele>
        <time>2013-03-07T14:17:52Z</time>
      </trkpt>
      <trkpt lat="44.36112" lon="2.85311">
        <ele>650</ele>
        <time>2013-03-07T14:17:55Z</time>
      </trkpt>
      <trkpt lat="44.36115" lon="2.85303">
        <ele>650</ele>
        <time>2013-03-07T14:17:56Z</time>
      </trkpt>
      <trkpt lat="44.36119" lon="2.85295">
        <ele>650</ele>
        <time>2013-03-07T14:17:59Z</time>
      </trkpt>
      <trkpt lat="44.36122" lon="2.85288">
        <ele>650</ele>
        <time>2013-03-07T14:18:00Z</time>
      </trkpt>
      <trkpt lat="44.36126" lon="2.85282">
        <ele>650</ele>
        <time>2013-03-07T14:18:03Z</time>
      </trkpt>
      <trkpt lat="44.36129" lon="2.85274">
        <ele>650</ele>
        <time>2013-03-07T14:18:04Z</time>
      </trkpt>
      <trkpt lat="44.36132" lon="2.85267">
        <ele>650</ele>
        <time>2013-03-07T14:18:07Z</time>
      </trkpt>
      <trkpt lat="44.36135" lon="2.85259">
        <ele>650</ele>
        <time>2013-03-07T14:18:09Z</time>
      </trkpt>
      <trkpt lat="44.36138" lon="2.85252">
        <ele>650</ele>
        <time>2013-03-07T14:18:10Z</time>
      </trkpt>
      <trkpt lat="44.3614" lon="2.85245">
        <ele>651</ele>
        <time>2013-03-07T14:18:13Z</time>
      </trkpt>
      <trkpt lat="44.36143" lon="2.85238">
        <ele>651</ele>
        <time>2013-03-07T14:18:14Z</time>
      </trkpt>
      <trkpt lat="44.36145" lon="2.85231">
        <ele>651</ele>
        <time>2013-03-07T14:18:17Z</time>
      </trkpt>
      <trkpt lat="44.36147" lon="2.85223">
        <ele>651</ele>
        <time>2013-03-07T14:18:18Z</time>
      </trkpt>
      <trkpt lat="44.36149" lon="2.85216">
        <ele>651</ele>
        <time>2013-03-07T14:18:21Z</time>
      </trkpt>
      <trkpt lat="44.36151" lon="2.85208">
        <ele>651</ele>
        <time>2013-03-07T14:18:22Z</time>
      </trkpt>
      <trkpt lat="44.36154" lon="2.85201">
        <ele>651</ele>
        <time>2013-03-07T14:18:25Z</time>
      </trkpt>
      <trkpt lat="44.36157" lon="2.85194">
        <ele>651</ele>
        <time>2013-03-07T14:18:26Z</time>
      </trkpt>
      <trkpt lat="44.3616" lon="2.85187">
        <ele>651</ele>
        <time>2013-03-07T14:18:29Z</time>
      </trkpt>
      <trkpt lat="44.36163" lon="2.8518">
        <ele>651</ele>
        <time>2013-03-07T14:18:30Z</time>
      </trkpt>
      <trkpt lat="44.36166" lon="2.85175">
        <ele>651</ele>
        <time>2013-03-07T14:18:33Z</time>
      </trkpt>
      <trkpt lat="44.3617" lon="2.85169">
        <ele>651</ele>
        <time>2013-03-07T14:18:34Z</time>
      </trkpt>
      <trkpt lat="44.36174" lon="2.85163">
        <ele>651</ele>
        <time>2013-03-07T14:18:37Z</time>
      </trkpt>
      <trkpt lat="44.36177" lon="2.85156">
        <ele>652</ele>
        <time>2013-03-07T14:18:38Z</time>
      </trkpt>
      <trkpt lat="44.3618" lon="2.8515">
        <ele>652</ele>
        <time>2013-03-07T14:18:41Z</time>
      </trkpt>
      <trkpt lat="44.36183" lon="2.85144">
        <ele>652</ele>
        <time>2013-03-07T14:18:42Z</time>
      </trkpt>
      <trkpt lat="44.36185" lon="2.85137">
        <ele>652</ele>
        <time>2013-03-07T14:18:45Z</time>
      </trkpt>
      <trkpt lat="44.36188" lon="2.8513">
        <ele>653</ele>
        <time>2013-03-07T14:18:46Z</time>
      </trkpt>
      <trkpt lat="44.36191" lon="2.8512">
        <ele>653</ele>
        <time>2013-03-07T14:18:49Z</time>
      </trkpt>
      <trkpt lat="44.36193" lon="2.85114">
        <ele>653</ele>
        <time>2013-03-07T14:18:52Z</time>
      </trkpt>
      <trkpt lat="44.36195" lon="2.85106">
        <ele>653</ele>
        <time>2013-03-07T14:18:53Z</time>
      </trkpt>
      <trkpt lat="44.36197" lon="2.85099">
        <ele>653</ele>
        <time>2013-03-07T14:18:56Z</time>
      </trkpt>
      <trkpt lat="44.36198" lon="2.85092">
        <ele>653</ele>
        <time>2013-03-07T14:18:57Z</time>
      </trkpt>
      <trkpt lat="44.362" lon="2.85085">
        <ele>653</ele>
        <time>2013-03-07T14:19:00Z</time>
      </trkpt>
      <trkpt lat="44.36201" lon="2.85077">
        <ele>654</ele>
        <time>2013-03-07T14:19:01Z</time>
      </trkpt>
      <trkpt lat="44.36203" lon="2.85069">
        <ele>655</ele>
        <time>2013-03-07T14:19:04Z</time>
      </trkpt>
      <trkpt lat="44.36204" lon="2.85061">
        <ele>655</ele>
        <time>2013-03-07T14:19:05Z</time>
      </trkpt>
      <trkpt lat="44.36205" lon="2.85053">
        <ele>655</ele>
        <time>2013-03-07T14:19:08Z</time>
      </trkpt>
      <trkpt lat="44.36206" lon="2.85044">
        <ele>655</ele>
        <time>2013-03-07T14:19:09Z</time>
      </trkpt>
      <trkpt lat="44.36207" lon="2.85036">
        <ele>655</ele>
        <time>2013-03-07T14:19:12Z</time>
      </trkpt>
      <trkpt lat="44.36208" lon="2.85028">
        <ele>655</ele>
        <time>2013-03-07T14:19:13Z</time>
      </trkpt>
      <trkpt lat="44.3621" lon="2.8502">
        <ele>655</ele>
        <time>2013-03-07T14:19:16Z</time>
      </trkpt>
      <trkpt lat="44.36212" lon="2.85012">
        <ele>655</ele>
        <time>2013-03-07T14:19:17Z</time>
      </trkpt>
      <trkpt lat="44.36214" lon="2.85004">
        <ele>655</ele>
        <time>2013-03-07T14:19:20Z</time>
      </trkpt>
      <trkpt lat="44.36216" lon="2.84996">
        <ele>655</ele>
        <time>2013-03-07T14:19:21Z</time>
      </trkpt>
      <trkpt lat="44.36219" lon="2.84989">
        <ele>655</ele>
        <time>2013-03-07T14:19:24Z</time>
      </trkpt>
      <trkpt lat="44.36221" lon="2.84982">
        <ele>655</ele>
        <time>2013-03-07T14:19:25Z</time>
      </trkpt>
      <trkpt lat="44.36224" lon="2.84975">
        <ele>655</ele>
        <time>2013-03-07T14:19:28Z</time>
      </trkpt>
      <trkpt lat="44.36228" lon="2.84971">
        <ele>655</ele>
        <time>2013-03-07T14:19:30Z</time>
      </trkpt>
      <trkpt lat="44.36234" lon="2.84967">
        <ele>655</ele>
        <time>2013-03-07T14:19:31Z</time>
      </trkpt>
      <trkpt lat="44.36241" lon="2.84967">
        <ele>655</ele>
        <time>2013-03-07T14:19:35Z</time>
      </trkpt>
      <trkpt lat="44.36246" lon="2.8497">
        <ele>655</ele>
        <time>2013-03-07T14:19:36Z</time>
      </trkpt>
      <trkpt lat="44.36253" lon="2.84974">
        <ele>653</ele>
        <time>2013-03-07T14:19:39Z</time>
      </trkpt>
      <trkpt lat="44.36257" lon="2.84977">
        <ele>653</ele>
        <time>2013-03-07T14:19:42Z</time>
      </trkpt>
      <trkpt lat="44.36262" lon="2.84981">
        <ele>653</ele>
        <time>2013-03-07T14:19:43Z</time>
      </trkpt>
      <trkpt lat="44.36269" lon="2.84986">
        <ele>653</ele>
        <time>2013-03-07T14:19:47Z</time>
      </trkpt>
      <trkpt lat="44.36274" lon="2.84989">
        <ele>652</ele>
        <time>2013-03-07T14:19:48Z</time>
      </trkpt>
      <trkpt lat="44.36279" lon="2.84992">
        <ele>652</ele>
        <time>2013-03-07T14:19:51Z</time>
      </trkpt>
      <trkpt lat="44.36284" lon="2.84995">
        <ele>652</ele>
        <time>2013-03-07T14:19:52Z</time>
      </trkpt>
      <trkpt lat="44.36289" lon="2.84998">
        <ele>652</ele>
        <time>2013-03-07T14:19:55Z</time>
      </trkpt>
      <trkpt lat="44.36294" lon="2.85002">
        <ele>652</ele>
        <time>2013-03-07T14:19:57Z</time>
      </trkpt>
      <trkpt lat="44.36299" lon="2.85006">
        <ele>652</ele>
        <time>2013-03-07T14:19:58Z</time>
      </trkpt>
      <trkpt lat="44.36305" lon="2.8501">
        <ele>652</ele>
        <time>2013-03-07T14:20:01Z</time>
      </trkpt>
      <trkpt lat="44.3631" lon="2.85014">
        <ele>652</ele>
        <time>2013-03-07T14:20:02Z</time>
      </trkpt>
      <trkpt lat="44.36315" lon="2.85019">
        <ele>652</ele>
        <time>2013-03-07T14:20:05Z</time>
      </trkpt>
      <trkpt lat="44.3632" lon="2.85023">
        <ele>652</ele>
        <time>2013-03-07T14:20:06Z</time>
      </trkpt>
      <trkpt lat="44.36326" lon="2.85026">
        <ele>652</ele>
        <time>2013-03-07T14:20:09Z</time>
      </trkpt>
      <trkpt lat="44.36333" lon="2.85032">
        <ele>652</ele>
        <time>2013-03-07T14:20:11Z</time>
      </trkpt>
      <trkpt lat="44.36338" lon="2.85037">
        <ele>649</ele>
        <time>2013-03-07T14:20:14Z</time>
      </trkpt>
      <trkpt lat="44.36343" lon="2.85041">
        <ele>649</ele>
        <time>2013-03-07T14:20:15Z</time>
      </trkpt>
      <trkpt lat="44.3635" lon="2.85043">
        <ele>649</ele>
        <time>2013-03-07T14:20:18Z</time>
      </trkpt>
      <trkpt lat="44.36357" lon="2.85046">
        <ele>649</ele>
        <time>2013-03-07T14:20:19Z</time>
      </trkpt>
      <trkpt lat="44.36364" lon="2.85048">
        <ele>649</ele>
        <time>2013-03-07T14:20:22Z</time>
      </trkpt>
      <trkpt lat="44.3637" lon="2.8505">
        <ele>649</ele>
        <time>2013-03-07T14:20:24Z</time>
      </trkpt>
      <trkpt lat="44.36376" lon="2.85054">
        <ele>649</ele>
        <time>2013-03-07T14:20:25Z</time>
      </trkpt>
      <trkpt lat="44.36381" lon="2.85057">
        <ele>649</ele>
        <time>2013-03-07T14:20:28Z</time>
      </trkpt>
      <trkpt lat="44.36387" lon="2.8506">
        <ele>649</ele>
        <time>2013-03-07T14:20:29Z</time>
      </trkpt>
      <trkpt lat="44.36393" lon="2.85063">
        <ele>649</ele>
        <time>2013-03-07T14:20:32Z</time>
      </trkpt>
      <trkpt lat="44.36399" lon="2.85066">
        <ele>648</ele>
        <time>2013-03-07T14:20:33Z</time>
      </trkpt>
      <trkpt lat="44.36405" lon="2.85068">
        <ele>648</ele>
        <time>2013-03-07T14:20:36Z</time>
      </trkpt>
      <trkpt lat="44.36411" lon="2.85069">
        <ele>648</ele>
        <time>2013-03-07T14:20:37Z</time>
      </trkpt>
      <trkpt lat="44.36417" lon="2.8507">
        <ele>647</ele>
        <time>2013-03-07T14:20:40Z</time>
      </trkpt>
      <trkpt lat="44.36423" lon="2.85071">
        <ele>647</ele>
        <time>2013-03-07T14:20:41Z</time>
      </trkpt>
      <trkpt lat="44.3643" lon="2.85072">
        <ele>647</ele>
        <time>2013-03-07T14:20:44Z</time>
      </trkpt>
      <trkpt lat="44.36436" lon="2.85073">
        <ele>647</ele>
        <time>2013-03-07T14:20:45Z</time>
      </trkpt>
      <trkpt lat="44.36443" lon="2.85073">
        <ele>646</ele>
        <time>2013-03-07T14:20:48Z</time>
      </trkpt>
      <trkpt lat="44.36449" lon="2.85074">
        <ele>646</ele>
        <time>2013-03-07T14:20:49Z</time>
      </trkpt>
      <trkpt lat="44.36456" lon="2.85074">
        <ele>646</ele>
        <time>2013-03-07T14:20:52Z</time>
      </trkpt>
      <trkpt lat="44.36463" lon="2.85074">
        <ele>646</ele>
        <time>2013-03-07T14:20:53Z</time>
      </trkpt>
      <trkpt lat="44.36469" lon="2.85075">
        <ele>646</ele>
        <time>2013-03-07T14:20:56Z</time>
      </trkpt>
      <trkpt lat="44.36476" lon="2.85076">
        <ele>646</ele>
        <time>2013-03-07T14:20:57Z</time>
      </trkpt>
      <trkpt lat="44.36483" lon="2.85076">
        <ele>646</ele>
        <time>2013-03-07T14:21:00Z</time>
      </trkpt>
      <trkpt lat="44.36489" lon="2.85076">
        <ele>646</ele>
        <time>2013-03-07T14:21:01Z</time>
      </trkpt>
      <trkpt lat="44.36496" lon="2.85077">
        <ele>646</ele>
        <time>2013-03-07T14:21:04Z</time>
      </trkpt>
      <trkpt lat="44.36503" lon="2.85077">
        <ele>645</ele>
        <time>2013-03-07T14:21:05Z</time>
      </trkpt>
      <trkpt lat="44.36509" lon="2.85077">
        <ele>645</ele>
        <time>2013-03-07T14:21:08Z</time>
      </trkpt>
      <trkpt lat="44.36516" lon="2.85078">
        <ele>645</ele>
        <time>2013-03-07T14:21:09Z</time>
      </trkpt>
      <trkpt lat="44.36523" lon="2.85079">
        <ele>645</ele>
        <time>2013-03-07T14:21:12Z</time>
      </trkpt>
      <trkpt lat="44.3653" lon="2.85079">
        <ele>644</ele>
        <time>2013-03-07T14:21:13Z</time>
      </trkpt>
      <trkpt lat="44.36537" lon="2.85079">
        <ele>644</ele>
        <time>2013-03-07T14:21:16Z</time>
      </trkpt>
      <trkpt lat="44.36543" lon="2.8508">
        <ele>644</ele>
        <time>2013-03-07T14:21:17Z</time>
      </trkpt>
      <trkpt lat="44.3655" lon="2.8508">
        <ele>644</ele>
        <time>2013-03-07T14:21:19Z</time>
      </trkpt>
      <trkpt lat="44.36556" lon="2.85079">
        <ele>644</ele>
        <time>2013-03-07T14:21:22Z</time>
      </trkpt>
      <trkpt lat="44.36561" lon="2.85076">
        <ele>644</ele>
        <time>2013-03-07T14:21:23Z</time>
      </trkpt>
      <trkpt lat="44.36565" lon="2.85068">
        <ele>644</ele>
        <time>2013-03-07T14:21:26Z</time>
      </trkpt>
      <trkpt lat="44.36569" lon="2.8506">
        <ele>643</ele>
        <time>2013-03-07T14:21:27Z</time>
      </trkpt>
      <trkpt lat="44.36573" lon="2.85052">
        <ele>643</ele>
        <time>2013-03-07T14:21:30Z</time>
      </trkpt>
      <trkpt lat="44.36576" lon="2.85044">
        <ele>643</ele>
        <time>2013-03-07T14:21:31Z</time>
      </trkpt>
      <trkpt lat="44.3658" lon="2.85037">
        <ele>643</ele>
        <time>2013-03-07T14:21:34Z</time>
      </trkpt>
      <trkpt lat="44.36584" lon="2.8503">
        <ele>642</ele>
        <time>2013-03-07T14:21:35Z</time>
      </trkpt>
      <trkpt lat="44.36587" lon="2.85024">
        <ele>642</ele>
        <time>2013-03-07T14:21:38Z</time>
      </trkpt>
      <trkpt lat="44.36591" lon="2.85022">
        <ele>642</ele>
        <time>2013-03-07T14:21:40Z</time>
      </trkpt>
      <trkpt lat="44.36596" lon="2.85026">
        <ele>642</ele>
        <time>2013-03-07T14:21:46Z</time>
      </trkpt>
      <trkpt lat="44.36598" lon="2.85031">
        <ele>642</ele>
        <time>2013-03-07T14:21:54Z</time>
      </trkpt>
      <trkpt lat="44.36593" lon="2.85031">
        <ele>642</ele>
        <time>2013-03-07T14:22:06Z</time>
      </trkpt>
      <trkpt lat="44.36587" lon="2.85031">
        <ele>642</ele>
        <time>2013-03-07T14:22:09Z</time>
      </trkpt>
      <trkpt lat="44.36583" lon="2.85033">
        <ele>643</ele>
        <time>2013-03-07T14:22:11Z</time>
      </trkpt>
      <trkpt lat="44.36587" lon="2.8504">
        <ele>642</ele>
        <time>2013-03-07T14:22:20Z</time>
      </trkpt>
    </trkseg>
  </trk>
</gpx>